<?xml version="1.0" encoding="utf-8"?>
<gpx version="1.1" creator="com.bodunov.GalileoPro/v5.4.1" xmlns:xsi="http://www.w3.org/2001/XMLSchema-instance" xmlns="http://www.topografix.com/GPX/1/1" xmlns:gom="https://gurumaps.app/gpx/v3" xsi:schemaLocation="http://www.topografix.com/GPX/1/1 http://www.topografix.com/GPX/1/1/gpx.xsd https://gurumaps.app/gpx/v3 https://gurumaps.app/gpx/v3/schema.xsd">
 <trk>
  <name>Текущий трек: 11 APR 2026 02:48</name>
  <type>TrackStyle_FFD60AC8</type>
  <extensions>
   <gom:time>2026-04-10T23:48:56.000Z</gom:time>
  </extensions>
  <trkseg>
   <trkpt lat="59.240143534" lon="30.3435203363"><ele>67.539</ele><time>2026-04-10T23:48:56.000Z</time></trkpt>
   <trkpt lat="59.2401271893" lon="30.3435291373"><ele>68.099</ele><time>2026-04-10T23:49:28.000Z</time></trkpt>
   <trkpt lat="59.2401156223" lon="30.3435389442"><ele>66.829</ele><time>2026-04-10T23:51:15.000Z</time></trkpt>
   <trkpt lat="59.2401128563" lon="30.3435209231"><ele>66.759</ele><time>2026-04-10T23:52:47.000Z</time></trkpt>
   <trkpt lat="59.2401191427" lon="30.3435329092"><ele>65.199</ele><time>2026-04-10T23:54:21.000Z</time></trkpt>
   <trkpt lat="59.2401214896" lon="30.343531149"><ele>64.829</ele><time>2026-04-10T23:55:36.000Z</time></trkpt>
   <trkpt lat="59.2401230822" lon="30.3435327416"><ele>66.229</ele><time>2026-04-10T23:57:00.000Z</time></trkpt>
   <trkpt lat="59.2401278599" lon="30.3435468232"><ele>64.869</ele><time>2026-04-10T23:57:42.000Z</time></trkpt>
   <trkpt lat="59.2401304583" lon="30.3435457335"><ele>65.509</ele><time>2026-04-10T23:58:22.000Z</time></trkpt>
   <trkpt lat="59.240131045" lon="30.3435349209"><ele>66.149</ele><time>2026-04-10T23:59:48.000Z</time></trkpt>
   <trkpt lat="59.2401251777" lon="30.343527461"><ele>65.669</ele><time>2026-04-11T00:01:04.000Z</time></trkpt>
   <trkpt lat="59.240122244" lon="30.3435331607"><ele>65.119</ele><time>2026-04-11T00:02:32.000Z</time></trkpt>
   <trkpt lat="59.240122244" lon="30.3435354238"><ele>66.089</ele><time>2026-04-11T00:03:46.000Z</time></trkpt>
   <trkpt lat="59.2401178854" lon="30.3435027344"><ele>66.169</ele><time>2026-04-11T00:05:14.000Z</time></trkpt>
   <trkpt lat="59.240131045" lon="30.3435404529"><ele>66.289</ele><time>2026-04-11T00:06:04.000Z</time></trkpt>
   <trkpt lat="59.2401300392" lon="30.3435161454"><ele>64.809</ele><time>2026-04-11T00:07:16.000Z</time></trkpt>
   <trkpt lat="59.2401238366" lon="30.3435282992"><ele>63.049</ele><time>2026-04-11T00:08:06.000Z</time></trkpt>
   <trkpt lat="59.240123166" lon="30.3435363458"><ele>62.939</ele><time>2026-04-11T00:09:14.000Z</time></trkpt>
   <trkpt lat="59.2401364094" lon="30.3435323225"><ele>61.539</ele><time>2026-04-11T00:10:43.000Z</time></trkpt>
   <trkpt lat="59.2401429473" lon="30.3435409558"><ele>62.619</ele><time>2026-04-11T00:11:57.000Z</time></trkpt>
   <trkpt lat="59.2401448751" lon="30.3435328254"><ele>63.789</ele><time>2026-04-11T00:13:21.000Z</time></trkpt>
   <trkpt lat="59.2401455457" lon="30.3435376869"><ele>63.399</ele><time>2026-04-11T00:14:55.000Z</time></trkpt>
   <trkpt lat="59.2401235851" lon="30.3435535287"><ele>63.749</ele><time>2026-04-11T00:16:35.000Z</time></trkpt>
   <trkpt lat="59.2401195618" lon="30.3435609048"><ele>65.359</ele><time>2026-04-11T00:17:59.000Z</time></trkpt>
   <trkpt lat="59.2401263511" lon="30.3435643413"><ele>67.279</ele><time>2026-04-11T00:19:29.000Z</time></trkpt>
   <trkpt lat="59.2401276922" lon="30.3435648443"><ele>68.679</ele><time>2026-04-11T00:20:58.000Z</time></trkpt>
   <trkpt lat="59.240127357" lon="30.3435679456"><ele>69.519</ele><time>2026-04-11T00:22:37.000Z</time></trkpt>
   <trkpt lat="59.2401320508" lon="30.3435726394"><ele>71.439</ele><time>2026-04-11T00:23:54.000Z</time></trkpt>
   <trkpt lat="59.240132889" lon="30.3435985395"><ele>72.659</ele><time>2026-04-11T00:25:31.000Z</time></trkpt>
   <trkpt lat="59.2401313803" lon="30.3435977851"><ele>72.919</ele><time>2026-04-11T00:27:06.000Z</time></trkpt>
   <trkpt lat="59.2401326376" lon="30.3435970308"><ele>72.929</ele><time>2026-04-11T00:28:42.000Z</time></trkpt>
   <trkpt lat="59.2401365771" lon="30.3436115315"><ele>72.489</ele><time>2026-04-11T00:30:08.000Z</time></trkpt>
   <trkpt lat="59.2401323861" lon="30.3436078434"><ele>71.969</ele><time>2026-04-11T00:31:38.000Z</time></trkpt>
   <trkpt lat="59.240126854" lon="30.343607592"><ele>71.329</ele><time>2026-04-11T00:33:14.000Z</time></trkpt>
   <trkpt lat="59.2401191427" lon="30.343608514"><ele>70.169</ele><time>2026-04-11T00:34:33.000Z</time></trkpt>
   <trkpt lat="59.2401137783" lon="30.3436234338"><ele>70.679</ele><time>2026-04-11T00:36:17.000Z</time></trkpt>
   <trkpt lat="59.2401103417" lon="30.3436422092"><ele>73.319</ele><time>2026-04-11T00:38:06.000Z</time></trkpt>
   <trkpt lat="59.2401079109" lon="30.3436451429"><ele>72.739</ele><time>2026-04-11T00:39:12.000Z</time></trkpt>
   <trkpt lat="59.2401071566" lon="30.3436458134"><ele>72.529</ele><time>2026-04-11T00:40:35.000Z</time></trkpt>
   <trkpt lat="59.2401118504" lon="30.3436391079"><ele>69.519</ele><time>2026-04-11T00:41:51.000Z</time></trkpt>
   <trkpt lat="59.2401149517" lon="30.3436241881"><ele>66.849</ele><time>2026-04-11T00:43:25.000Z</time></trkpt>
   <trkpt lat="59.240108833" lon="30.3436114476"><ele>64.349</ele><time>2026-04-11T00:45:03.000Z</time></trkpt>
   <trkpt lat="59.2401060669" lon="30.3435935104"><ele>62.609</ele><time>2026-04-11T00:46:31.000Z</time></trkpt>
   <trkpt lat="59.240105564" lon="30.3435810213"><ele>63.109</ele><time>2026-04-11T00:48:17.000Z</time></trkpt>
   <trkpt lat="59.2401030494" lon="30.3435886489"><ele>62.899</ele><time>2026-04-11T00:49:40.000Z</time></trkpt>
   <trkpt lat="59.2400996129" lon="30.3435920854"><ele>62.169</ele><time>2026-04-11T00:51:23.000Z</time></trkpt>
   <trkpt lat="59.2400998643" lon="30.3435909958"><ele>62.149</ele><time>2026-04-11T00:53:17.000Z</time></trkpt>
   <trkpt lat="59.2400969307" lon="30.3435870563"><ele>62.199</ele><time>2026-04-11T00:54:54.000Z</time></trkpt>
   <trkpt lat="59.240101876" lon="30.3435764951"><ele>61.529</ele><time>2026-04-11T00:56:18.000Z</time></trkpt>
   <trkpt lat="59.2401087491" lon="30.3435567138"><ele>61.019</ele><time>2026-04-11T00:57:51.000Z</time></trkpt>
   <trkpt lat="59.2401093359" lon="30.3435551212"><ele>60.949</ele><time>2026-04-11T00:59:09.000Z</time></trkpt>
   <trkpt lat="59.2401112637" lon="30.343546907"><ele>60.489</ele><time>2026-04-11T01:00:29.000Z</time></trkpt>
   <trkpt lat="59.2401210705" lon="30.3435490863"><ele>59.799</ele><time>2026-04-11T01:01:55.000Z</time></trkpt>
   <trkpt lat="59.2401165443" lon="30.3435431351"><ele>60.479</ele><time>2026-04-11T01:03:06.000Z</time></trkpt>
   <trkpt lat="59.2401216573" lon="30.3435555403"><ele>62.889</ele><time>2026-04-11T01:04:28.000Z</time></trkpt>
   <trkpt lat="59.2401235851" lon="30.3435535287"><ele>64.789</ele><time>2026-04-11T01:05:49.000Z</time></trkpt>
   <trkpt lat="59.2401237527" lon="30.3435576358"><ele>66.009</ele><time>2026-04-11T01:07:14.000Z</time></trkpt>
   <trkpt lat="59.2401236689" lon="30.343570963"><ele>65.639</ele><time>2026-04-11T01:08:20.000Z</time></trkpt>
   <trkpt lat="59.2401229146" lon="30.3435901576"><ele>65.549</ele><time>2026-04-11T01:09:49.000Z</time></trkpt>
   <trkpt lat="59.2401277761" lon="30.3436010541"><ele>66.199</ele><time>2026-04-11T01:11:20.000Z</time></trkpt>
   <trkpt lat="59.2401321346" lon="30.3435925045"><ele>66.289</ele><time>2026-04-11T01:12:46.000Z</time></trkpt>
   <trkpt lat="59.2401297877" lon="30.3435784229"><ele>65.309</ele><time>2026-04-11T01:14:19.000Z</time></trkpt>
   <trkpt lat="59.2401406842" lon="30.3435613239"><ele>66.099</ele><time>2026-04-11T01:15:45.000Z</time></trkpt>
   <trkpt lat="59.2401396784" lon="30.3435582226"><ele>65.979</ele><time>2026-04-11T01:16:45.000Z</time></trkpt>
   <trkpt lat="59.2401318832" lon="30.3435609886"><ele>65.869</ele><time>2026-04-11T01:17:56.000Z</time></trkpt>
   <trkpt lat="59.2401266864" lon="30.3435731423"><ele>67.039</ele><time>2026-04-11T01:19:16.000Z</time></trkpt>
   <trkpt lat="59.2401226631" lon="30.3435762436"><ele>67.429</ele><time>2026-04-11T01:20:45.000Z</time></trkpt>
   <trkpt lat="59.2401128563" lon="30.3435773333"><ele>65.049</ele><time>2026-04-11T01:22:18.000Z</time></trkpt>
   <trkpt lat="59.2401135268" lon="30.3435674426"><ele>65.309</ele><time>2026-04-11T01:23:46.000Z</time></trkpt>
   <trkpt lat="59.2401120181" lon="30.3435604018"><ele>65.509</ele><time>2026-04-11T01:25:14.000Z</time></trkpt>
   <trkpt lat="59.2401191427" lon="30.3435557918"><ele>66.389</ele><time>2026-04-11T01:26:43.000Z</time></trkpt>
   <trkpt lat="59.2401174663" lon="30.3435656824"><ele>66.879</ele><time>2026-04-11T01:28:01.000Z</time></trkpt>
   <trkpt lat="59.240114365" lon="30.3435720527"><ele>66.069</ele><time>2026-04-11T01:29:14.000Z</time></trkpt>
   <trkpt lat="59.2401142812" lon="30.3435808537"><ele>64.289</ele><time>2026-04-11T01:30:46.000Z</time></trkpt>
   <trkpt lat="59.2401190589" lon="30.3435733938"><ele>66.099</ele><time>2026-04-11T01:31:38.000Z</time></trkpt>
   <trkpt lat="59.2401271893" lon="30.3435966117"><ele>67.379</ele><time>2026-04-11T01:32:52.000Z</time></trkpt>
   <trkpt lat="59.240126854" lon="30.3435956058"><ele>66.559</ele><time>2026-04-11T01:34:04.000Z</time></trkpt>
   <trkpt lat="59.2401327214" lon="30.3435889003"><ele>66.619</ele><time>2026-04-11T01:35:21.000Z</time></trkpt>
   <trkpt lat="59.2401344816" lon="30.3435975337"><ele>67.459</ele><time>2026-04-11T01:36:37.000Z</time></trkpt>
   <trkpt lat="59.2401375829" lon="30.3435913311"><ele>68.269</ele><time>2026-04-11T01:37:53.000Z</time></trkpt>
   <trkpt lat="59.2401400136" lon="30.343585799"><ele>68.379</ele><time>2026-04-11T01:38:59.000Z</time></trkpt>
   <trkpt lat="59.2401367447" lon="30.343579764"><ele>68.339</ele><time>2026-04-11T01:40:31.000Z</time></trkpt>
   <trkpt lat="59.2401384211" lon="30.3435737291"><ele>68.169</ele><time>2026-04-11T01:41:47.000Z</time></trkpt>
   <trkpt lat="59.24014169" lon="30.3435642575"><ele>68.159</ele><time>2026-04-11T01:42:48.000Z</time></trkpt>
   <trkpt lat="59.2401379182" lon="30.3435578873"><ele>66.809</ele><time>2026-04-11T01:44:04.000Z</time></trkpt>
   <trkpt lat="59.2401481441" lon="30.3435358429"><ele>63.439</ele><time>2026-04-11T01:45:16.000Z</time></trkpt>
   <trkpt lat="59.2401496528" lon="30.3435327416"><ele>62.309</ele><time>2026-04-11T01:46:36.000Z</time></trkpt>
   <trkpt lat="59.2401476412" lon="30.3435194982"><ele>61.079</ele><time>2026-04-11T01:47:43.000Z</time></trkpt>
   <trkpt lat="59.2401480603" lon="30.3434992978"><ele>60.289</ele><time>2026-04-11T01:49:00.000Z</time></trkpt>
   <trkpt lat="59.2401459648" lon="30.3434935981"><ele>61.629</ele><time>2026-04-11T01:50:28.000Z</time></trkpt>
   <trkpt lat="59.2401395107" lon="30.3434772534"><ele>61.869</ele><time>2026-04-11T01:51:38.000Z</time></trkpt>
   <trkpt lat="59.2401233336" lon="30.3434925084"><ele>63.779</ele><time>2026-04-11T01:52:54.000Z</time></trkpt>
   <trkpt lat="59.2401230822" lon="30.3434898262"><ele>62.769</ele><time>2026-04-11T01:54:07.000Z</time></trkpt>
   <trkpt lat="59.240119478" lon="30.3434944363"><ele>62.119</ele><time>2026-04-11T01:55:06.000Z</time></trkpt>
   <trkpt lat="59.2401236689" lon="30.3434944363"><ele>62.289</ele><time>2026-04-11T01:56:05.000Z</time></trkpt>
   <trkpt lat="59.2401293686" lon="30.3434845456"><ele>63.199</ele><time>2026-04-11T01:57:06.000Z</time></trkpt>
   <trkpt lat="59.2401331405" lon="30.3434939334"><ele>63.269</ele><time>2026-04-11T01:58:36.000Z</time></trkpt>
   <trkpt lat="59.2401312126" lon="30.343508015"><ele>63.129</ele><time>2026-04-11T01:59:48.000Z</time></trkpt>
   <trkpt lat="59.2401335596" lon="30.34350659"><ele>62.709</ele><time>2026-04-11T02:01:04.000Z</time></trkpt>
   <trkpt lat="59.2401479764" lon="30.3434789297"><ele>61.419</ele><time>2026-04-11T02:02:36.000Z</time></trkpt>
   <trkpt lat="59.2401554363" lon="30.3434708831"><ele>61.449</ele><time>2026-04-11T02:04:18.000Z</time></trkpt>
   <trkpt lat="59.24015376" lon="30.3434727271"><ele>62.839</ele><time>2026-04-11T02:05:48.000Z</time></trkpt>
   <trkpt lat="59.2401530894" lon="30.3434717213"><ele>62.929</ele><time>2026-04-11T02:07:03.000Z</time></trkpt>
   <trkpt lat="59.2401522512" lon="30.3434696258"><ele>63.519</ele><time>2026-04-11T02:08:25.000Z</time></trkpt>
   <trkpt lat="59.2401434502" lon="30.3434809414"><ele>64.789</ele><time>2026-04-11T02:09:45.000Z</time></trkpt>
   <trkpt lat="59.2401439531" lon="30.3434868087"><ele>65.659</ele><time>2026-04-11T02:10:59.000Z</time></trkpt>
   <trkpt lat="59.2401492337" lon="30.3434796003"><ele>62.429</ele><time>2026-04-11T02:12:15.000Z</time></trkpt>
   <trkpt lat="59.2401440369" lon="30.3434879822"><ele>62.529</ele><time>2026-04-11T02:13:33.000Z</time></trkpt>
   <trkpt lat="59.240145881" lon="30.3434846294"><ele>63.129</ele><time>2026-04-11T02:15:00.000Z</time></trkpt>
   <trkpt lat="59.240149569" lon="30.3434798518"><ele>65.229</ele><time>2026-04-11T02:16:28.000Z</time></trkpt>
   <trkpt lat="59.240149569" lon="30.3434770857"><ele>64.779</ele><time>2026-04-11T02:17:49.000Z</time></trkpt>
   <trkpt lat="59.2401454619" lon="30.3434816958"><ele>62.999</ele><time>2026-04-11T02:19:00.000Z</time></trkpt>
   <trkpt lat="59.2401539276" lon="30.3434756608"><ele>62.649</ele><time>2026-04-11T02:20:29.000Z</time></trkpt>
   <trkpt lat="59.2401580347" lon="30.343477421"><ele>61.289</ele><time>2026-04-11T02:22:00.000Z</time></trkpt>
   <trkpt lat="59.240145881" lon="30.3434645129"><ele>61.619</ele><time>2026-04-11T02:23:19.000Z</time></trkpt>
   <trkpt lat="59.2401528379" lon="30.3434694582"><ele>62.409</ele><time>2026-04-11T02:25:06.000Z</time></trkpt>
   <trkpt lat="59.2401505748" lon="30.3434650158"><ele>62.689</ele><time>2026-04-11T02:26:46.000Z</time></trkpt>
   <trkpt lat="59.2401598787" lon="30.3434604896"><ele>60.549</ele><time>2026-04-11T02:28:20.000Z</time></trkpt>
   <trkpt lat="59.2401428635" lon="30.3434808576"><ele>60.959</ele><time>2026-04-11T02:29:57.000Z</time></trkpt>
   <trkpt lat="59.240144456" lon="30.3434856353"><ele>60.309</ele><time>2026-04-11T02:31:13.000Z</time></trkpt>
   <trkpt lat="59.2401404327" lon="30.3434814443"><ele>61.229</ele><time>2026-04-11T02:32:45.000Z</time></trkpt>
   <trkpt lat="59.2401357389" lon="30.3434944363"><ele>61.259</ele><time>2026-04-11T02:34:32.000Z</time></trkpt>
   <trkpt lat="59.2401353198" lon="30.3434963641"><ele>60.419</ele><time>2026-04-11T02:36:03.000Z</time></trkpt>
   <trkpt lat="59.2401346492" lon="30.3435017285"><ele>60.419</ele><time>2026-04-11T02:37:19.000Z</time></trkpt>
   <trkpt lat="59.2401304583" lon="30.3435065062"><ele>62.069</ele><time>2026-04-11T02:38:38.000Z</time></trkpt>
   <trkpt lat="59.2401265188" lon="30.3434894909"><ele>62.259</ele><time>2026-04-11T02:39:57.000Z</time></trkpt>
   <trkpt lat="59.2401216573" lon="30.3435015609"><ele>61.909</ele><time>2026-04-11T02:41:08.000Z</time></trkpt>
   <trkpt lat="59.2401149517" lon="30.3435109486"><ele>63.749</ele><time>2026-04-11T02:42:28.000Z</time></trkpt>
   <trkpt lat="59.2401077433" lon="30.3435060871"><ele>64.909</ele><time>2026-04-11T02:43:49.000Z</time></trkpt>
   <trkpt lat="59.2401084139" lon="30.3435034049"><ele>64.089</ele><time>2026-04-11T02:45:22.000Z</time></trkpt>
   <trkpt lat="59.2401068213" lon="30.343499214"><ele>66.039</ele><time>2026-04-11T02:46:52.000Z</time></trkpt>
   <trkpt lat="59.2401114313" lon="30.3434992978"><ele>65.539</ele><time>2026-04-11T02:48:16.000Z</time></trkpt>
   <trkpt lat="59.2401115152" lon="30.3434998845"><ele>64.949</ele><time>2026-04-11T02:49:42.000Z</time></trkpt>
   <trkpt lat="59.2401225793" lon="30.3434878984"><ele>65.389</ele><time>2026-04-11T02:51:12.000Z</time></trkpt>
   <trkpt lat="59.2401230822" lon="30.3434739844"><ele>67.979</ele><time>2026-04-11T02:52:44.000Z</time></trkpt>
   <trkpt lat="59.2401238366" lon="30.343474655"><ele>69.349</ele><time>2026-04-11T02:54:11.000Z</time></trkpt>
   <trkpt lat="59.2401212382" lon="30.3434788459"><ele>70.039</ele><time>2026-04-11T02:55:26.000Z</time></trkpt>
   <trkpt lat="59.2401229146" lon="30.343474655"><ele>67.569</ele><time>2026-04-11T02:57:06.000Z</time></trkpt>
   <trkpt lat="59.2401303744" lon="30.3434665245"><ele>70.449</ele><time>2026-04-11T02:58:46.000Z</time></trkpt>
   <trkpt lat="59.2401316317" lon="30.3434629203"><ele>69.409</ele><time>2026-04-11T03:00:15.000Z</time></trkpt>
   <trkpt lat="59.2401340625" lon="30.3434670274"><ele>70.139</ele><time>2026-04-11T03:01:18.000Z</time></trkpt>
   <trkpt lat="59.240139846" lon="30.3434581426"><ele>68.899</ele><time>2026-04-11T03:02:39.000Z</time></trkpt>
   <trkpt lat="59.2401364094" lon="30.3434677818"><ele>68.339</ele><time>2026-04-11T03:03:59.000Z</time></trkpt>
   <trkpt lat="59.2401334758" lon="30.3434821149"><ele>67.299</ele><time>2026-04-11T03:05:14.000Z</time></trkpt>
   <trkpt lat="59.2401261835" lon="30.3435041593"><ele>64.759</ele><time>2026-04-11T03:06:32.000Z</time></trkpt>
   <trkpt lat="59.2401173825" lon="30.3435143014"><ele>67.209</ele><time>2026-04-11T03:07:58.000Z</time></trkpt>
   <trkpt lat="59.2401164605" lon="30.3435041593"><ele>69.039</ele><time>2026-04-11T03:09:11.000Z</time></trkpt>
   <trkpt lat="59.2401239204" lon="30.3434882337"><ele>68.329</ele><time>2026-04-11T03:10:39.000Z</time></trkpt>
   <trkpt lat="59.2401218249" lon="30.3434844618"><ele>71.349</ele><time>2026-04-11T03:12:13.000Z</time></trkpt>
   <trkpt lat="59.2401205676" lon="30.3434914188"><ele>71.009</ele><time>2026-04-11T03:13:24.000Z</time></trkpt>
   <trkpt lat="59.2401304583" lon="30.3434948554"><ele>70.329</ele><time>2026-04-11T03:14:52.000Z</time></trkpt>
   <trkpt lat="59.2401321346" lon="30.343500136"><ele>68.879</ele><time>2026-04-11T03:16:28.000Z</time></trkpt>
   <trkpt lat="59.2401363256" lon="30.3434982081"><ele>66.569</ele><time>2026-04-11T03:18:12.000Z</time></trkpt>
   <trkpt lat="59.2401392593" lon="30.3434970347"><ele>65.519</ele><time>2026-04-11T03:19:25.000Z</time></trkpt>
   <trkpt lat="59.2401429473" lon="30.3434919217"><ele>62.779</ele><time>2026-04-11T03:20:39.000Z</time></trkpt>
   <trkpt lat="59.2401323861" lon="30.3435048298"><ele>66.569</ele><time>2026-04-11T03:22:18.000Z</time></trkpt>
   <trkpt lat="59.2401334758" lon="30.3434849647"><ele>65.719</ele><time>2026-04-11T03:23:54.000Z</time></trkpt>
   <trkpt lat="59.2401286142" lon="30.3434827854"><ele>63.939</ele><time>2026-04-11T03:25:27.000Z</time></trkpt>
   <trkpt lat="59.2401302906" lon="30.343488988"><ele>63.379</ele><time>2026-04-11T03:26:49.000Z</time></trkpt>
   <trkpt lat="59.2401321346" lon="30.3434898262"><ele>63.459</ele><time>2026-04-11T03:28:25.000Z</time></trkpt>
   <trkpt lat="59.2401322185" lon="30.3434876469"><ele>64.179</ele><time>2026-04-11T03:29:58.000Z</time></trkpt>
   <trkpt lat="59.2401327214" lon="30.3434898262"><ele>63.269</ele><time>2026-04-11T03:31:35.000Z</time></trkpt>
   <trkpt lat="59.2401334758" lon="30.3434891557"><ele>61.439</ele><time>2026-04-11T03:33:06.000Z</time></trkpt>
   <trkpt lat="59.240135655" lon="30.3434845456"><ele>61.059</ele><time>2026-04-11T03:34:26.000Z</time></trkpt>
   <trkpt lat="59.2401312126" lon="30.3434847133"><ele>63.829</ele><time>2026-04-11T03:35:57.000Z</time></trkpt>
   <trkpt lat="59.2401266864" lon="30.343490413"><ele>63.069</ele><time>2026-04-11T03:37:22.000Z</time></trkpt>
   <trkpt lat="59.2401263511" lon="30.3434940172"><ele>61.929</ele><time>2026-04-11T03:38:43.000Z</time></trkpt>
   <trkpt lat="59.2401350683" lon="30.3434614954"><ele>63.419</ele><time>2026-04-11T03:39:57.000Z</time></trkpt>
   <trkpt lat="59.2401302906" lon="30.3434614116"><ele>63.839</ele><time>2026-04-11T03:40:54.000Z</time></trkpt>
   <trkpt lat="59.2401150356" lon="30.3434726433"><ele>65.429</ele><time>2026-04-11T03:41:58.000Z</time></trkpt>
   <trkpt lat="59.2401253453" lon="30.343498711"><ele>64.769</ele><time>2026-04-11T03:43:27.000Z</time></trkpt>
   <trkpt lat="59.2401267702" lon="30.3435142176"><ele>64.399</ele><time>2026-04-11T03:45:01.000Z</time></trkpt>
   <trkpt lat="59.2401281113" lon="30.343500136"><ele>64.649</ele><time>2026-04-11T03:46:17.000Z</time></trkpt>
   <trkpt lat="59.2401253453" lon="30.3434946877"><ele>64.649</ele><time>2026-04-11T03:46:25.000Z</time></trkpt>
  </trkseg>
  <trkseg>
   <trkpt lat="59.0894867873" lon="29.9762977589"><ele>81.889</ele><time>2026-04-20T19:44:35.000Z</time></trkpt>
   <trkpt lat="59.0894933252" lon="29.9763025366"><ele>83.029</ele><time>2026-04-20T19:45:03.000Z</time></trkpt>
   <trkpt lat="59.0895033835" lon="29.9763171211"><ele>85.229</ele><time>2026-04-20T19:45:51.000Z</time></trkpt>
   <trkpt lat="59.0894997792" lon="29.9763250001"><ele>85.109</ele><time>2026-04-20T19:46:44.000Z</time></trkpt>
   <trkpt lat="59.0894984381" lon="29.9763110023"><ele>85.689</ele><time>2026-04-20T19:47:24.000Z</time></trkpt>
   <trkpt lat="59.0895037187" lon="29.976329694"><ele>85.359</ele><time>2026-04-20T19:48:07.000Z</time></trkpt>
   <trkpt lat="59.0894929899" lon="29.9763099127"><ele>83.949</ele><time>2026-04-20T19:48:55.000Z</time></trkpt>
   <trkpt lat="59.0895042217" lon="29.9763013631"><ele>83.489</ele><time>2026-04-20T19:49:51.000Z</time></trkpt>
   <trkpt lat="59.0895029644" lon="29.9763161991"><ele>84.149</ele><time>2026-04-20T19:50:34.000Z</time></trkpt>
   <trkpt lat="59.0894988572" lon="29.9763195519"><ele>83.729</ele><time>2026-04-20T19:51:11.000Z</time></trkpt>
   <trkpt lat="59.0894990249" lon="29.9762978427"><ele>81.099</ele><time>2026-04-20T19:52:00.000Z</time></trkpt>
   <trkpt lat="59.089520734" lon="29.9762757145"><ele>79.979</ele><time>2026-04-20T19:52:44.000Z</time></trkpt>
   <trkpt lat="59.0895197282" lon="29.9762856052"><ele>80.429</ele><time>2026-04-20T19:53:25.000Z</time></trkpt>
   <trkpt lat="59.0895134418" lon="29.9762669135"><ele>80.319</ele><time>2026-04-20T19:54:06.000Z</time></trkpt>
   <trkpt lat="59.0894997792" lon="29.9762877845"><ele>81.589</ele><time>2026-04-20T19:54:55.000Z</time></trkpt>
   <trkpt lat="59.0895034673" lon="29.9762939871"><ele>81.949</ele><time>2026-04-20T19:55:32.000Z</time></trkpt>
   <trkpt lat="59.0895027129" lon="29.9763107509"><ele>82.849</ele><time>2026-04-20T19:56:19.000Z</time></trkpt>
   <trkpt lat="59.0895011204" lon="29.9763167859"><ele>83.289</ele><time>2026-04-20T19:56:57.000Z</time></trkpt>
   <trkpt lat="59.0894989411" lon="29.9763418477"><ele>84.989</ele><time>2026-04-20T19:57:48.000Z</time></trkpt>
   <trkpt lat="59.0894928223" lon="29.9763399199"><ele>83.979</ele><time>2026-04-20T19:58:44.000Z</time></trkpt>
   <trkpt lat="59.0895078259" lon="29.9762968369"><ele>83.349</ele><time>2026-04-20T19:59:35.000Z</time></trkpt>
   <trkpt lat="59.0895096699" lon="29.9763275147"><ele>83.869</ele><time>2026-04-20T20:00:18.000Z</time></trkpt>
   <trkpt lat="59.0895011204" lon="29.9762892094"><ele>83.789</ele><time>2026-04-20T20:00:56.000Z</time></trkpt>
   <trkpt lat="59.0894764776" lon="29.9763374892"><ele>84.089</ele><time>2026-04-20T20:01:38.000Z</time></trkpt>
   <trkpt lat="59.0894933252" lon="29.9763321247"><ele>84.579</ele><time>2026-04-20T20:02:19.000Z</time></trkpt>
   <trkpt lat="59.0894930737" lon="29.9763198872"><ele>85.269</ele><time>2026-04-20T20:02:57.000Z</time></trkpt>
   <trkpt lat="59.0894881284" lon="29.9763218988"><ele>85.249</ele><time>2026-04-20T20:03:45.000Z</time></trkpt>
   <trkpt lat="59.0895055628" lon="29.9762937356"><ele>85.209</ele><time>2026-04-20T20:04:27.000Z</time></trkpt>
   <trkpt lat="59.0895041378" lon="29.9762564361"><ele>84.749</ele><time>2026-04-20T20:05:15.000Z</time></trkpt>
   <trkpt lat="59.0895131903" lon="29.9762929812"><ele>86.269</ele><time>2026-04-20T20:06:02.000Z</time></trkpt>
   <trkpt lat="59.0895106757" lon="29.9763011955"><ele>86.229</ele><time>2026-04-20T20:06:42.000Z</time></trkpt>
   <trkpt lat="59.089510089" lon="29.9762887903"><ele>85.849</ele><time>2026-04-20T20:07:32.000Z</time></trkpt>
   <trkpt lat="59.089538336" lon="29.9762742058"><ele>84.419</ele><time>2026-04-20T20:08:15.000Z</time></trkpt>
   <trkpt lat="59.089533726" lon="29.9762752116"><ele>85.339</ele><time>2026-04-20T20:08:48.000Z</time></trkpt>
   <trkpt lat="59.0895317143" lon="29.9762854375"><ele>85.009</ele><time>2026-04-20T20:09:31.000Z</time></trkpt>
   <trkpt lat="59.0895317143" lon="29.9762960825"><ele>85.089</ele><time>2026-04-20T20:10:10.000Z</time></trkpt>
   <trkpt lat="59.0895415211" lon="29.9762732838"><ele>86.399</ele><time>2026-04-20T20:10:42.000Z</time></trkpt>
   <trkpt lat="59.0895018747" lon="29.9762734514"><ele>87.079</ele><time>2026-04-20T20:11:28.000Z</time></trkpt>
   <trkpt lat="59.0895014556" lon="29.9762923107"><ele>84.149</ele><time>2026-04-20T20:12:28.000Z</time></trkpt>
   <trkpt lat="59.0894948339" lon="29.9762844317"><ele>84.429</ele><time>2026-04-20T20:13:11.000Z</time></trkpt>
   <trkpt lat="59.089489721" lon="29.976275044"><ele>84.299</ele><time>2026-04-20T20:14:04.000Z</time></trkpt>
   <trkpt lat="59.0894841889" lon="29.976291221"><ele>84.739</ele><time>2026-04-20T20:14:11.000Z</time></trkpt>
   <trkpt lat="59.0894556904" lon="29.9763260898"><ele>80.299</ele><time>2026-04-20T20:17:11.000Z</time></trkpt>
   <trkpt lat="59.0894759746" lon="29.9763636407"><ele>71.709</ele><time>2026-04-20T20:17:40.000Z</time></trkpt>
   <trkpt lat="59.0894987734" lon="29.9763026204"><ele>84.619</ele><time>2026-04-20T20:18:03.000Z</time></trkpt>
   <trkpt lat="59.0895120168" lon="29.9763113376"><ele>86.809</ele><time>2026-04-20T20:18:31.000Z</time></trkpt>
   <trkpt lat="59.0894744659" lon="29.9762993515"><ele>86.049</ele><time>2026-04-20T20:19:00.000Z</time></trkpt>
   <trkpt lat="59.0895183871" lon="29.9762767204"><ele>84.789</ele><time>2026-04-20T20:19:31.000Z</time></trkpt>
   <trkpt lat="59.0895038864" lon="29.9763166182"><ele>83.949</ele><time>2026-04-20T20:20:19.000Z</time></trkpt>
   <trkpt lat="59.0895067362" lon="29.9763166182"><ele>84.779</ele><time>2026-04-20T20:21:08.000Z</time></trkpt>
   <trkpt lat="59.089490643" lon="29.9763167859"><ele>84.459</ele><time>2026-04-20T20:21:59.000Z</time></trkpt>
   <trkpt lat="59.0894831831" lon="29.9763117567"><ele>84.569</ele><time>2026-04-20T20:23:08.000Z</time></trkpt>
   <trkpt lat="59.089490643" lon="29.9763089907"><ele>84.149</ele><time>2026-04-20T20:23:53.000Z</time></trkpt>
   <trkpt lat="59.0894777348" lon="29.9763094098"><ele>86.199</ele><time>2026-04-20T20:25:00.000Z</time></trkpt>
   <trkpt lat="59.0894800818" lon="29.9763161991"><ele>86.409</ele><time>2026-04-20T20:25:38.000Z</time></trkpt>
   <trkpt lat="59.0894960912" lon="29.9763197195"><ele>85.629</ele><time>2026-04-20T20:26:36.000Z</time></trkpt>
   <trkpt lat="59.0894852786" lon="29.9763114214"><ele>84.569</ele><time>2026-04-20T20:27:19.000Z</time></trkpt>
   <trkpt lat="59.0894983543" lon="29.9763141036"><ele>85.129</ele><time>2026-04-20T20:27:46.000Z</time></trkpt>
   <trkpt lat="59.0895044731" lon="29.9763125949"><ele>85.179</ele><time>2026-04-20T20:28:29.000Z</time></trkpt>
   <trkpt lat="59.0895176327" lon="29.976282923"><ele>84.079</ele><time>2026-04-20T20:29:08.000Z</time></trkpt>
   <trkpt lat="59.0894950854" lon="29.9762928974"><ele>84.669</ele><time>2026-04-20T20:29:52.000Z</time></trkpt>
   <trkpt lat="59.0894876255" lon="29.9763124273"><ele>84.819</ele><time>2026-04-20T20:30:49.000Z</time></trkpt>
   <trkpt lat="59.089483686" lon="29.9763229046"><ele>85.709</ele><time>2026-04-20T20:31:35.000Z</time></trkpt>
   <trkpt lat="59.089472119" lon="29.9763326276"><ele>87.089</ele><time>2026-04-20T20:32:25.000Z</time></trkpt>
   <trkpt lat="59.0894828478" lon="29.97632785"><ele>86.209</ele><time>2026-04-20T20:33:08.000Z</time></trkpt>
   <trkpt lat="59.0894793274" lon="29.976320893"><ele>84.509</ele><time>2026-04-20T20:33:51.000Z</time></trkpt>
   <trkpt lat="59.0894740468" lon="29.9763213959"><ele>84.479</ele><time>2026-04-20T20:34:33.000Z</time></trkpt>
   <trkpt lat="59.0894615578" lon="29.976344949"><ele>85.649</ele><time>2026-04-20T20:35:15.000Z</time></trkpt>
   <trkpt lat="59.0894728733" lon="29.9763145227"><ele>84.599</ele><time>2026-04-20T20:35:51.000Z</time></trkpt>
   <trkpt lat="59.0894768128" lon="29.9763011117"><ele>84.979</ele><time>2026-04-20T20:36:35.000Z</time></trkpt>
   <trkpt lat="59.0894853624" lon="29.9763162829"><ele>85.759</ele><time>2026-04-20T20:37:28.000Z</time></trkpt>
   <trkpt lat="59.0894867873" lon="29.9763083201"><ele>83.969</ele><time>2026-04-20T20:38:25.000Z</time></trkpt>
   <trkpt lat="59.089492487" lon="29.9763107509"><ele>83.929</ele><time>2026-04-20T20:39:00.000Z</time></trkpt>
   <trkpt lat="59.0894839375" lon="29.9763166182"><ele>83.919</ele><time>2026-04-20T20:39:39.000Z</time></trkpt>
   <trkpt lat="59.0894850271" lon="29.9763513193"><ele>83.169</ele><time>2026-04-20T20:40:27.000Z</time></trkpt>
   <trkpt lat="59.0894645753" lon="29.9763503135"><ele>83.729</ele><time>2026-04-20T20:41:24.000Z</time></trkpt>
   <trkpt lat="59.0894626474" lon="29.9763521575"><ele>83.659</ele><time>2026-04-20T20:42:09.000Z</time></trkpt>
   <trkpt lat="59.0894847756" lon="29.9763648142"><ele>83.679</ele><time>2026-04-20T20:42:59.000Z</time></trkpt>
   <trkpt lat="59.0894969294" lon="29.9763578572"><ele>84.309</ele><time>2026-04-20T20:43:43.000Z</time></trkpt>
   <trkpt lat="59.0894907268" lon="29.9763524089"><ele>83.959</ele><time>2026-04-20T20:44:38.000Z</time></trkpt>
   <trkpt lat="59.0894909783" lon="29.9763312027"><ele>83.909</ele><time>2026-04-20T20:45:22.000Z</time></trkpt>
   <trkpt lat="59.0895053113" lon="29.976345452"><ele>83.589</ele><time>2026-04-20T20:46:06.000Z</time></trkpt>
   <trkpt lat="59.0895021262" lon="29.9763464578"><ele>84.569</ele><time>2026-04-20T20:46:54.000Z</time></trkpt>
   <trkpt lat="59.0895007851" lon="29.9763519898"><ele>85.179</ele><time>2026-04-20T20:47:32.000Z</time></trkpt>
   <trkpt lat="59.0895007851" lon="29.9763452005"><ele>85.319</ele><time>2026-04-20T20:48:12.000Z</time></trkpt>
   <trkpt lat="59.0894991925" lon="29.9763400037"><ele>85.659</ele><time>2026-04-20T20:48:57.000Z</time></trkpt>
   <trkpt lat="59.0894977676" lon="29.9763335497"><ele>86.449</ele><time>2026-04-20T20:49:30.000Z</time></trkpt>
   <trkpt lat="59.0894926546" lon="29.9763301969"><ele>85.569</ele><time>2026-04-20T20:50:04.000Z</time></trkpt>
   <trkpt lat="59.0894935766" lon="29.9763285205"><ele>85.709</ele><time>2026-04-20T20:51:02.000Z</time></trkpt>
   <trkpt lat="59.0894841889" lon="29.9763353937"><ele>85.689</ele><time>2026-04-20T20:51:42.000Z</time></trkpt>
   <trkpt lat="59.0894851109" lon="29.976344027"><ele>84.949</ele><time>2026-04-20T20:52:25.000Z</time></trkpt>
   <trkpt lat="59.0894877093" lon="29.9763341364"><ele>85.089</ele><time>2026-04-20T20:53:17.000Z</time></trkpt>
   <trkpt lat="59.0894863682" lon="29.976336148"><ele>85.059</ele><time>2026-04-20T20:53:55.000Z</time></trkpt>
   <trkpt lat="59.0894875417" lon="29.9763312865"><ele>85.139</ele><time>2026-04-20T20:54:49.000Z</time></trkpt>
   <trkpt lat="59.0894910621" lon="29.976329694"><ele>86.279</ele><time>2026-04-20T20:55:47.000Z</time></trkpt>
   <trkpt lat="59.0894810876" lon="29.9763368186"><ele>85.939</ele><time>2026-04-20T20:56:36.000Z</time></trkpt>
   <trkpt lat="59.0895135256" lon="29.9763193842"><ele>85.359</ele><time>2026-04-20T20:57:24.000Z</time></trkpt>
   <trkpt lat="59.0895108434" lon="29.9763274309"><ele>84.369</ele><time>2026-04-20T20:57:59.000Z</time></trkpt>
   <trkpt lat="59.0894940796" lon="29.9763325438"><ele>84.079</ele><time>2026-04-20T20:58:41.000Z</time></trkpt>
   <trkpt lat="59.0894784892" lon="29.9763311189"><ele>84.929</ele><time>2026-04-20T20:59:27.000Z</time></trkpt>
   <trkpt lat="59.0894717837" lon="29.9763310351"><ele>85.359</ele><time>2026-04-20T20:59:58.000Z</time></trkpt>
   <trkpt lat="59.0894629827" lon="29.9763368186"><ele>85.529</ele><time>2026-04-20T21:00:44.000Z</time></trkpt>
   <trkpt lat="59.0895051437" lon="29.9763243296"><ele>84.739</ele><time>2026-04-20T21:01:27.000Z</time></trkpt>
   <trkpt lat="59.08948092" lon="29.9763330467"><ele>84.309</ele><time>2026-04-20T21:02:01.000Z</time></trkpt>
   <trkpt lat="59.0894837698" lon="29.9763263412"><ele>84.799</ele><time>2026-04-20T21:02:56.000Z</time></trkpt>
   <trkpt lat="59.0894901401" lon="29.9763306998"><ele>85.309</ele><time>2026-04-20T21:03:54.000Z</time></trkpt>
   <trkpt lat="59.089499444" lon="29.9763418477"><ele>84.509</ele><time>2026-04-20T21:04:40.000Z</time></trkpt>
   <trkpt lat="59.0895129388" lon="29.9763424345"><ele>83.109</ele><time>2026-04-20T21:05:40.000Z</time></trkpt>
   <trkpt lat="59.0895108434" lon="29.9763506487"><ele>82.989</ele><time>2026-04-20T21:06:24.000Z</time></trkpt>
   <trkpt lat="59.0895032158" lon="29.9763452005"><ele>83.679</ele><time>2026-04-20T21:07:14.000Z</time></trkpt>
   <trkpt lat="59.0894835184" lon="29.9763418477"><ele>83.589</ele><time>2026-04-20T21:07:49.000Z</time></trkpt>
   <trkpt lat="59.0894870388" lon="29.9763474636"><ele>83.899</ele><time>2026-04-20T21:08:21.000Z</time></trkpt>
   <trkpt lat="59.0894979352" lon="29.976356097"><ele>85.639</ele><time>2026-04-20T21:09:23.000Z</time></trkpt>
   <trkpt lat="59.0894872902" lon="29.9763462063"><ele>85.269</ele><time>2026-04-20T21:10:03.000Z</time></trkpt>
   <trkpt lat="59.0894811714" lon="29.9763619643"><ele>85.059</ele><time>2026-04-20T21:11:01.000Z</time></trkpt>
   <trkpt lat="59.0894893857" lon="29.9763498105"><ele>84.159</ele><time>2026-04-20T21:11:52.000Z</time></trkpt>
   <trkpt lat="59.0894832669" lon="29.9763417639"><ele>82.199</ele><time>2026-04-20T21:12:43.000Z</time></trkpt>
   <trkpt lat="59.0894547684" lon="29.9763286043"><ele>81.879</ele><time>2026-04-20T21:13:38.000Z</time></trkpt>
   <trkpt lat="59.0894630665" lon="29.9763316218"><ele>81.709</ele><time>2026-04-20T21:14:25.000Z</time></trkpt>
   <trkpt lat="59.0894618092" lon="29.9763524089"><ele>82.139</ele><time>2026-04-20T21:15:28.000Z</time></trkpt>
   <trkpt lat="59.0894718675" lon="29.9763229046"><ele>80.269</ele><time>2026-04-20T21:16:22.000Z</time></trkpt>
   <trkpt lat="59.089461474" lon="29.9763097451"><ele>78.579</ele><time>2026-04-20T21:17:22.000Z</time></trkpt>
   <trkpt lat="59.0894575345" lon="29.9763162829"><ele>79.239</ele><time>2026-04-20T21:18:01.000Z</time></trkpt>
   <trkpt lat="59.0894650782" lon="29.9763196357"><ele>80.999</ele><time>2026-04-20T21:18:32.000Z</time></trkpt>
   <trkpt lat="59.0894540141" lon="29.976331538"><ele>81.839</ele><time>2026-04-20T21:19:32.000Z</time></trkpt>
   <trkpt lat="59.0894295389" lon="29.9763262574"><ele>82.139</ele><time>2026-04-20T21:20:12.000Z</time></trkpt>
   <trkpt lat="59.089460971" lon="29.9763222341"><ele>82.599</ele><time>2026-04-20T21:21:09.000Z</time></trkpt>
   <trkpt lat="59.0894408545" lon="29.9763389141"><ele>81.999</ele><time>2026-04-20T21:21:54.000Z</time></trkpt>
   <trkpt lat="59.0894474762" lon="29.9763501458"><ele>82.909</ele><time>2026-04-20T21:22:33.000Z</time></trkpt>
   <trkpt lat="59.0894735439" lon="29.9763329629"><ele>83.319</ele><time>2026-04-20T21:23:30.000Z</time></trkpt>
   <trkpt lat="59.0894700235" lon="29.9763423507"><ele>83.919</ele><time>2026-04-20T21:24:14.000Z</time></trkpt>
   <trkpt lat="59.0894085841" lon="29.9762987648"><ele>80.389</ele><time>2026-04-20T21:25:04.000Z</time></trkpt>
   <trkpt lat="59.0894203188" lon="29.9763122596"><ele>79.549</ele><time>2026-04-20T21:25:57.000Z</time></trkpt>
   <trkpt lat="59.089452673" lon="29.9763094098"><ele>79.179</ele><time>2026-04-20T21:26:03.000Z</time></trkpt>
   <trkpt lat="59.0894583726" lon="29.9763457034"><ele>79.789</ele><time>2026-04-20T21:26:06.000Z</time></trkpt>
   <trkpt lat="59.0895241706" lon="29.9762770556"><ele>79.509</ele><time>2026-04-20T21:26:21.000Z</time></trkpt>
   <trkpt lat="59.0895235839" lon="29.9762711045"><ele>78.509</ele><time>2026-04-20T21:26:57.000Z</time></trkpt>
   <trkpt lat="59.0895278586" lon="29.9762605433"><ele>79.189</ele><time>2026-04-20T21:27:34.000Z</time></trkpt>
   <trkpt lat="59.0895197282" lon="29.976270853"><ele>78.009</ele><time>2026-04-20T21:28:21.000Z</time></trkpt>
   <trkpt lat="59.0895177165" lon="29.9762746249"><ele>77.809</ele><time>2026-04-20T21:29:03.000Z</time></trkpt>
   <trkpt lat="59.0895173812" lon="29.9762701825"><ele>77.209</ele><time>2026-04-20T21:29:36.000Z</time></trkpt>
   <trkpt lat="59.0894981867" lon="29.9762626388"><ele>77.849</ele><time>2026-04-20T21:29:57.000Z</time></trkpt>
   <trkpt lat="59.0895186385" lon="29.9762798217"><ele>80.019</ele><time>2026-04-20T21:30:34.000Z</time></trkpt>
   <trkpt lat="59.0894681795" lon="29.9763431888"><ele>78.889</ele><time>2026-04-20T21:30:48.000Z</time></trkpt>
   <trkpt lat="59.089460049" lon="29.9763040454"><ele>78.639</ele><time>2026-04-20T21:31:08.000Z</time></trkpt>
   <trkpt lat="59.0894655811" lon="29.9763099127"><ele>77.499</ele><time>2026-04-20T21:31:35.000Z</time></trkpt>
   <trkpt lat="59.0894579536" lon="29.9763229885"><ele>77.859</ele><time>2026-04-20T21:32:10.000Z</time></trkpt>
   <trkpt lat="59.0895291159" lon="29.9763128464"><ele>77.909</ele><time>2026-04-20T21:32:20.000Z</time></trkpt>
   <trkpt lat="59.0895482266" lon="29.9762556818"><ele>77.689</ele><time>2026-04-20T21:32:39.000Z</time></trkpt>
   <trkpt lat="59.0895461312" lon="29.97626113"><ele>76.719</ele><time>2026-04-20T21:33:06.000Z</time></trkpt>
   <trkpt lat="59.089542527" lon="29.976262052"><ele>76.709</ele><time>2026-04-20T21:33:31.000Z</time></trkpt>
   <trkpt lat="59.0895325525" lon="29.9762560171"><ele>77.579</ele><time>2026-04-20T21:33:58.000Z</time></trkpt>
   <trkpt lat="59.0895435328" lon="29.9762751278"><ele>77.549</ele><time>2026-04-20T21:34:27.000Z</time></trkpt>
   <trkpt lat="59.0895301217" lon="29.9762832582"><ele>76.859</ele><time>2026-04-20T21:34:58.000Z</time></trkpt>
   <trkpt lat="59.0895271881" lon="29.9762742058"><ele>77.279</ele><time>2026-04-20T21:35:23.000Z</time></trkpt>
   <trkpt lat="59.0895400124" lon="29.9762711883"><ele>75.929</ele><time>2026-04-20T21:35:48.000Z</time></trkpt>
   <trkpt lat="59.0894990249" lon="29.9762627226"><ele>79.629</ele><time>2026-04-20T21:36:14.000Z</time></trkpt>
   <trkpt lat="59.0895446224" lon="29.976276888"><ele>80.029</ele><time>2026-04-20T21:36:43.000Z</time></trkpt>
   <trkpt lat="59.089542024" lon="29.9762887065"><ele>78.359</ele><time>2026-04-20T21:37:06.000Z</time></trkpt>
   <trkpt lat="59.0895442872" lon="29.9762618844"><ele>78.549</ele><time>2026-04-20T21:37:25.000Z</time></trkpt>
   <trkpt lat="59.0895599613" lon="29.9763041292"><ele>80.439</ele><time>2026-04-20T21:37:49.000Z</time></trkpt>
   <trkpt lat="59.089560548" lon="29.9762984295"><ele>81.859</ele><time>2026-04-20T21:38:21.000Z</time></trkpt>
   <trkpt lat="59.0895433651" lon="29.9762813304"><ele>80.819</ele><time>2026-04-20T21:38:40.000Z</time></trkpt>
   <trkpt lat="59.0895567762" lon="29.976252329"><ele>79.229</ele><time>2026-04-20T21:38:56.000Z</time></trkpt>
   <trkpt lat="59.0895451253" lon="29.9762664944"><ele>78.739</ele><time>2026-04-20T21:39:21.000Z</time></trkpt>
   <trkpt lat="59.0895628112" lon="29.9762560171"><ele>77.039</ele><time>2026-04-20T21:39:43.000Z</time></trkpt>
   <trkpt lat="59.0895680918" lon="29.9762635608"><ele>77.109</ele><time>2026-04-20T21:40:10.000Z</time></trkpt>
   <trkpt lat="59.089561051" lon="29.9762812466"><ele>78.079</ele><time>2026-04-20T21:40:30.000Z</time></trkpt>
   <trkpt lat="59.0895661639" lon="29.9762830906"><ele>78.669</ele><time>2026-04-20T21:40:52.000Z</time></trkpt>
   <trkpt lat="59.0895549322" lon="29.976282923"><ele>77.789</ele><time>2026-04-20T21:41:17.000Z</time></trkpt>
   <trkpt lat="59.0895670859" lon="29.9762887065"><ele>77.839</ele><time>2026-04-20T21:41:36.000Z</time></trkpt>
   <trkpt lat="59.0895742105" lon="29.9762989324"><ele>79.159</ele><time>2026-04-20T21:42:21.000Z</time></trkpt>
   <trkpt lat="59.0895526691" lon="29.9762721103"><ele>81.059</ele><time>2026-04-20T21:43:08.000Z</time></trkpt>
   <trkpt lat="59.0895370787" lon="29.976276888"><ele>79.329</ele><time>2026-04-20T21:43:48.000Z</time></trkpt>
   <trkpt lat="59.0895664154" lon="29.9763006088"><ele>83.469</ele><time>2026-04-20T21:44:36.000Z</time></trkpt>
   <trkpt lat="59.0895611348" lon="29.9762889579"><ele>83.819</ele><time>2026-04-20T21:45:22.000Z</time></trkpt>
   <trkpt lat="59.0895520823" lon="29.9762903829"><ele>82.359</ele><time>2026-04-20T21:46:08.000Z</time></trkpt>
   <trkpt lat="59.0895648228" lon="29.9762654886"><ele>81.039</ele><time>2026-04-20T21:46:45.000Z</time></trkpt>
   <trkpt lat="59.0895675888" lon="29.9762706854"><ele>83.139</ele><time>2026-04-20T21:47:08.000Z</time></trkpt>
   <trkpt lat="59.0895701872" lon="29.9762714398"><ele>82.779</ele><time>2026-04-20T21:47:39.000Z</time></trkpt>
   <trkpt lat="59.0895564409" lon="29.9762540892"><ele>82.909</ele><time>2026-04-20T21:47:58.000Z</time></trkpt>
   <trkpt lat="59.0895628112" lon="29.9762825039"><ele>81.099</ele><time>2026-04-20T21:48:20.000Z</time></trkpt>
   <trkpt lat="59.0894910621" lon="29.9764032033"><ele>81.179</ele><time>2026-04-20T21:48:32.000Z</time></trkpt>
   <trkpt lat="59.0894926546" lon="29.9763651494"><ele>81.439</ele><time>2026-04-20T21:48:34.000Z</time></trkpt>
   <trkpt lat="59.0895026291" lon="29.9762270157"><ele>82.069</ele><time>2026-04-20T21:48:41.000Z</time></trkpt>
   <trkpt lat="59.0895195605" lon="29.9762452882"><ele>82.039</ele><time>2026-04-20T21:48:43.000Z</time></trkpt>
   <trkpt lat="59.0895385875" lon="29.9762591184"><ele>82.019</ele><time>2026-04-20T21:48:44.000Z</time></trkpt>
   <trkpt lat="59.0900013523" lon="29.9762262613"><ele>81.289</ele><time>2026-04-20T21:48:56.000Z</time></trkpt>
   <trkpt lat="59.0906627683" lon="29.9761202302"><ele>80.559</ele><time>2026-04-20T21:49:07.000Z</time></trkpt>
   <trkpt lat="59.0907830486" lon="29.9760858644"><ele>80.309</ele><time>2026-04-20T21:49:09.000Z</time></trkpt>
   <trkpt lat="59.0908437336" lon="29.9760530912"><ele>80.309</ele><time>2026-04-20T21:49:10.000Z</time></trkpt>
   <trkpt lat="59.0910187477" lon="29.9759798333"><ele>79.989</ele><time>2026-04-20T21:49:13.000Z</time></trkpt>
   <trkpt lat="59.0910739845" lon="29.9759746366"><ele>79.859</ele><time>2026-04-20T21:49:14.000Z</time></trkpt>
   <trkpt lat="59.09189122" lon="29.9758735508"><ele>79.499</ele><time>2026-04-20T21:49:26.000Z</time></trkpt>
   <trkpt lat="59.092821276" lon="29.9758237623"><ele>78.119</ele><time>2026-04-20T21:49:39.000Z</time></trkpt>
   <trkpt lat="59.0930081925" lon="29.9758110218"><ele>77.659</ele><time>2026-04-20T21:49:43.000Z</time></trkpt>
   <trkpt lat="59.0930413848" lon="29.9758270312"><ele>77.709</ele><time>2026-04-20T21:49:44.000Z</time></trkpt>
   <trkpt lat="59.0930867309" lon="29.9758282885"><ele>78.489</ele><time>2026-04-20T21:49:45.000Z</time></trkpt>
   <trkpt lat="59.0931207614" lon="29.9758182302"><ele>78.939</ele><time>2026-04-20T21:49:46.000Z</time></trkpt>
   <trkpt lat="59.0931362679" lon="29.9757684417"><ele>79.279</ele><time>2026-04-20T21:49:47.000Z</time></trkpt>
   <trkpt lat="59.0931447337" lon="29.9757111095"><ele>79.339</ele><time>2026-04-20T21:49:48.000Z</time></trkpt>
   <trkpt lat="59.0931459909" lon="29.9756458983"><ele>78.739</ele><time>2026-04-20T21:49:49.000Z</time></trkpt>
   <trkpt lat="59.0931485893" lon="29.9755531107"><ele>78.919</ele><time>2026-04-20T21:49:50.000Z</time></trkpt>
   <trkpt lat="59.0931473321" lon="29.9754502647"><ele>79.009</ele><time>2026-04-20T21:49:51.000Z</time></trkpt>
   <trkpt lat="59.0932016468" lon="29.9747340311"><ele>78.799</ele><time>2026-04-20T21:50:01.000Z</time></trkpt>
   <trkpt lat="59.0932635891" lon="29.9740010336"><ele>79.019</ele><time>2026-04-20T21:50:13.000Z</time></trkpt>
   <trkpt lat="59.0932760781" lon="29.9735552002"><ele>79.039</ele><time>2026-04-20T21:50:21.000Z</time></trkpt>
   <trkpt lat="59.0933842885" lon="29.9721785564"><ele>79.459</ele><time>2026-04-20T21:50:34.000Z</time></trkpt>
   <trkpt lat="59.0935365876" lon="29.9703109846"><ele>78.859</ele><time>2026-04-20T21:50:46.000Z</time></trkpt>
   <trkpt lat="59.0936425349" lon="29.9689922598"><ele>78.339</ele><time>2026-04-20T21:50:58.000Z</time></trkpt>
   <trkpt lat="59.093777735" lon="29.9675431125"><ele>78.299</ele><time>2026-04-20T21:51:16.000Z</time></trkpt>
   <trkpt lat="59.0938874541" lon="29.96631223"><ele>77.999</ele><time>2026-04-20T21:51:30.000Z</time></trkpt>
   <trkpt lat="59.0940070639" lon="29.964993589"><ele>78.109</ele><time>2026-04-20T21:51:46.000Z</time></trkpt>
   <trkpt lat="59.0941199681" lon="29.9638363835"><ele>78.319</ele><time>2026-04-20T21:52:02.000Z</time></trkpt>
   <trkpt lat="59.0942546653" lon="29.9622175027"><ele>78.549</ele><time>2026-04-20T21:52:20.000Z</time></trkpt>
   <trkpt lat="59.0943944754" lon="29.9605120369"><ele>78.349</ele><time>2026-04-20T21:52:37.000Z</time></trkpt>
   <trkpt lat="59.0945082179" lon="29.9591633886"><ele>78.339</ele><time>2026-04-20T21:52:52.000Z</time></trkpt>
   <trkpt lat="59.0945355429" lon="29.9589227442"><ele>78.489</ele><time>2026-04-20T21:52:55.000Z</time></trkpt>
   <trkpt lat="59.09453965" lon="29.9588405177"><ele>78.539</ele><time>2026-04-20T21:52:56.000Z</time></trkpt>
   <trkpt lat="59.0946589245" lon="29.9574627843"><ele>78.319</ele><time>2026-04-20T21:53:13.000Z</time></trkpt>
   <trkpt lat="59.0947558193" lon="29.9563733884"><ele>78.209</ele><time>2026-04-20T21:53:29.000Z</time></trkpt>
   <trkpt lat="59.09488423" lon="29.9549072259"><ele>78.399</ele><time>2026-04-20T21:53:45.000Z</time></trkpt>
   <trkpt lat="59.0950459169" lon="29.9531632033"><ele>78.029</ele><time>2026-04-20T21:54:00.000Z</time></trkpt>
   <trkpt lat="59.0952242838" lon="29.9513011635"><ele>78.389</ele><time>2026-04-20T21:54:15.000Z</time></trkpt>
   <trkpt lat="59.0953675306" lon="29.949629812"><ele>78.219</ele><time>2026-04-20T21:54:30.000Z</time></trkpt>
   <trkpt lat="59.0954481645" lon="29.9485907913"><ele>77.859</ele><time>2026-04-20T21:54:43.000Z</time></trkpt>
   <trkpt lat="59.0955796765" lon="29.947079115"><ele>78.339</ele><time>2026-04-20T21:54:59.000Z</time></trkpt>
   <trkpt lat="59.0957542716" lon="29.9454080988"><ele>78.619</ele><time>2026-04-20T21:55:10.000Z</time></trkpt>
   <trkpt lat="59.0957975222" lon="29.9450760916"><ele>78.579</ele><time>2026-04-20T21:55:12.000Z</time></trkpt>
   <trkpt lat="59.0959137792" lon="29.9438648228"><ele>78.789</ele><time>2026-04-20T21:55:21.000Z</time></trkpt>
   <trkpt lat="59.095934231" lon="29.9434130382"><ele>78.849</ele><time>2026-04-20T21:55:25.000Z</time></trkpt>
   <trkpt lat="59.0959546829" lon="29.943199132"><ele>78.399</ele><time>2026-04-20T21:55:27.000Z</time></trkpt>
   <trkpt lat="59.0960028788" lon="29.9425427452"><ele>78.699</ele><time>2026-04-20T21:55:37.000Z</time></trkpt>
   <trkpt lat="59.0960976782" lon="29.9414084222"><ele>77.519</ele><time>2026-04-20T21:55:51.000Z</time></trkpt>
   <trkpt lat="59.096231621" lon="29.9399640527"><ele>78.639</ele><time>2026-04-20T21:56:06.000Z</time></trkpt>
   <trkpt lat="59.0964379834" lon="29.9379836604"><ele>78.749</ele><time>2026-04-20T21:56:21.000Z</time></trkpt>
   <trkpt lat="59.096585924" lon="29.936140899"><ele>78.279</ele><time>2026-04-20T21:56:33.000Z</time></trkpt>
   <trkpt lat="59.0966224691" lon="29.9358243984"><ele>78.569</ele><time>2026-04-20T21:56:37.000Z</time></trkpt>
   <trkpt lat="59.0967201183" lon="29.9347547837"><ele>78.759</ele><time>2026-04-20T21:56:48.000Z</time></trkpt>
   <trkpt lat="59.0967948849" lon="29.933889436"><ele>78.559</ele><time>2026-04-20T21:56:57.000Z</time></trkpt>
   <trkpt lat="59.0968127383" lon="29.9337877635"><ele>78.729</ele><time>2026-04-20T21:56:58.000Z</time></trkpt>
   <trkpt lat="59.0969795382" lon="29.9326546978"><ele>79.009</ele><time>2026-04-20T21:57:10.000Z</time></trkpt>
   <trkpt lat="59.0970053544" lon="29.9322100379"><ele>79.019</ele><time>2026-04-20T21:57:15.000Z</time></trkpt>
   <trkpt lat="59.097000912" lon="29.9320983909"><ele>79.069</ele><time>2026-04-20T21:57:16.000Z</time></trkpt>
   <trkpt lat="59.0969928654" lon="29.9319790326"><ele>78.999</ele><time>2026-04-20T21:57:17.000Z</time></trkpt>
   <trkpt lat="59.0969812146" lon="29.9318583332"><ele>79.259</ele><time>2026-04-20T21:57:18.000Z</time></trkpt>
   <trkpt lat="59.0969631097" lon="29.9317424953"><ele>79.319</ele><time>2026-04-20T21:57:19.000Z</time></trkpt>
   <trkpt lat="59.0969417358" lon="29.9316403199"><ele>79.349</ele><time>2026-04-20T21:57:20.000Z</time></trkpt>
   <trkpt lat="59.0969176797" lon="29.9315549083"><ele>79.489</ele><time>2026-04-20T21:57:21.000Z</time></trkpt>
   <trkpt lat="59.0968990719" lon="29.9314792197"><ele>79.889</ele><time>2026-04-20T21:57:22.000Z</time></trkpt>
   <trkpt lat="59.0967529753" lon="29.9309768923"><ele>79.599</ele><time>2026-04-20T21:57:27.000Z</time></trkpt>
   <trkpt lat="59.0966046157" lon="29.9304365948"><ele>79.689</ele><time>2026-04-20T21:57:32.000Z</time></trkpt>
   <trkpt lat="59.0965264125" lon="29.9300809507"><ele>79.729</ele><time>2026-04-20T21:57:35.000Z</time></trkpt>
   <trkpt lat="59.0961979257" lon="29.9288306222"><ele>80.949</ele><time>2026-04-20T21:57:46.000Z</time></trkpt>
   <trkpt lat="59.095809676" lon="29.9274386395"><ele>80.779</ele><time>2026-04-20T21:58:00.000Z</time></trkpt>
   <trkpt lat="59.0954210909" lon="29.9259877321"><ele>81.159</ele><time>2026-04-20T21:58:15.000Z</time></trkpt>
   <trkpt lat="59.0952924287" lon="29.9255012464"><ele>81.679</ele><time>2026-04-20T21:58:28.000Z</time></trkpt>
   <trkpt lat="59.0950807857" lon="29.9247149401"><ele>82.019</ele><time>2026-04-20T21:58:43.000Z</time></trkpt>
   <trkpt lat="59.0948330166" lon="29.9237836268"><ele>82.199</ele><time>2026-04-20T21:58:58.000Z</time></trkpt>
   <trkpt lat="59.0945357105" lon="29.9226828315"><ele>81.999</ele><time>2026-04-20T21:59:13.000Z</time></trkpt>
   <trkpt lat="59.0940768851" lon="29.9209228833"><ele>81.889</ele><time>2026-04-20T21:59:32.000Z</time></trkpt>
   <trkpt lat="59.0936518388" lon="29.9193333391"><ele>81.869</ele><time>2026-04-20T21:59:44.000Z</time></trkpt>
   <trkpt lat="59.0933067559" lon="29.9179773148"><ele>81.259</ele><time>2026-04-20T21:59:56.000Z</time></trkpt>
   <trkpt lat="59.093225619" lon="29.9172938545"><ele>82.179</ele><time>2026-04-20T22:00:05.000Z</time></trkpt>
   <trkpt lat="59.0932590628" lon="29.9172402941"><ele>82.039</ele><time>2026-04-20T22:00:06.000Z</time></trkpt>
   <trkpt lat="59.093293261" lon="29.9171887454"><ele>81.699</ele><time>2026-04-20T22:00:07.000Z</time></trkpt>
   <trkpt lat="59.0933553709" lon="29.9171863985"><ele>81.739</ele><time>2026-04-20T22:00:08.000Z</time></trkpt>
   <trkpt lat="59.0934357533" lon="29.9171856441"><ele>81.869</ele><time>2026-04-20T22:00:09.000Z</time></trkpt>
   <trkpt lat="59.0943002628" lon="29.9171368614"><ele>82.179</ele><time>2026-04-20T22:00:16.000Z</time></trkpt>
   <trkpt lat="59.0957931636" lon="29.9170318362"><ele>82.059</ele><time>2026-04-20T22:00:24.000Z</time></trkpt>
   <trkpt lat="59.0974264613" lon="29.9168947082"><ele>82.109</ele><time>2026-04-20T22:00:32.000Z</time></trkpt>
   <trkpt lat="59.10022367" lon="29.9166704923"><ele>81.049</ele><time>2026-04-20T22:00:48.000Z</time></trkpt>
   <trkpt lat="59.103778016" lon="29.9163691629"><ele>79.789</ele><time>2026-04-20T22:01:08.000Z</time></trkpt>
   <trkpt lat="59.1083699579" lon="29.915853592"><ele>81.969</ele><time>2026-04-20T22:01:35.000Z</time></trkpt>
   <trkpt lat="59.1119673869" lon="29.9154136259"><ele>81.289</ele><time>2026-04-20T22:01:55.000Z</time></trkpt>
   <trkpt lat="59.1159605256" lon="29.91495874"><ele>81.409</ele><time>2026-04-20T22:02:14.000Z</time></trkpt>
   <trkpt lat="59.1200651435" lon="29.9144667223"><ele>82.199</ele><time>2026-04-20T22:02:32.000Z</time></trkpt>
   <trkpt lat="59.1245672314" lon="29.9138949089"><ele>84.649</ele><time>2026-04-20T22:02:51.000Z</time></trkpt>
   <trkpt lat="59.1297816133" lon="29.9133091815"><ele>86.069</ele><time>2026-04-20T22:03:14.000Z</time></trkpt>
   <trkpt lat="59.1309079735" lon="29.9132712115"><ele>86.159</ele><time>2026-04-20T22:03:21.000Z</time></trkpt>
   <trkpt lat="59.1315800345" lon="29.9132204171"><ele>86.299</ele><time>2026-04-20T22:03:27.000Z</time></trkpt>
   <trkpt lat="59.1316412224" lon="29.9131725565"><ele>86.419</ele><time>2026-04-20T22:03:28.000Z</time></trkpt>
   <trkpt lat="59.131695118" lon="29.9131044116"><ele>86.429</ele><time>2026-04-20T22:03:29.000Z</time></trkpt>
   <trkpt lat="59.1317221916" lon="29.9130076006"><ele>87.429</ele><time>2026-04-20T22:03:30.000Z</time></trkpt>
   <trkpt lat="59.1316643564" lon="29.9127899226"><ele>86.979</ele><time>2026-04-20T22:03:32.000Z</time></trkpt>
   <trkpt lat="59.1316071919" lon="29.9127146531"><ele>86.869</ele><time>2026-04-20T22:03:33.000Z</time></trkpt>
   <trkpt lat="59.1315271447" lon="29.9126714025"><ele>86.829</ele><time>2026-04-20T22:03:34.000Z</time></trkpt>
   <trkpt lat="59.1314442477" lon="29.912685065"><ele>86.639</ele><time>2026-04-20T22:03:35.000Z</time></trkpt>
   <trkpt lat="59.1313527173" lon="29.9127116356"><ele>86.319</ele><time>2026-04-20T22:03:36.000Z</time></trkpt>
   <trkpt lat="59.1304979308" lon="29.9128824588"><ele>86.289</ele><time>2026-04-20T22:03:42.000Z</time></trkpt>
   <trkpt lat="59.1288708357" lon="29.9132438027"><ele>85.889</ele><time>2026-04-20T22:03:50.000Z</time></trkpt>
   <trkpt lat="59.1265080611" lon="29.913537756"><ele>84.889</ele><time>2026-04-20T22:03:59.000Z</time></trkpt>
   <trkpt lat="59.1228388829" lon="29.9139957432"><ele>83.479</ele><time>2026-04-20T22:04:11.000Z</time></trkpt>
   <trkpt lat="59.1161864178" lon="29.9148131464"><ele>81.309</ele><time>2026-04-20T22:04:32.000Z</time></trkpt>
   <trkpt lat="59.1116481202" lon="29.9153630831"><ele>81.829</ele><time>2026-04-20T22:04:47.000Z</time></trkpt>
   <trkpt lat="59.1100768486" lon="29.9155531008"><ele>82.339</ele><time>2026-04-20T22:04:54.000Z</time></trkpt>
   <trkpt lat="59.1065704471" lon="29.9159675859"><ele>80.219</ele><time>2026-04-20T22:05:12.000Z</time></trkpt>
   <trkpt lat="59.1025280228" lon="29.9163344618"><ele>81.289</ele><time>2026-04-20T22:05:34.000Z</time></trkpt>
   <trkpt lat="59.0996692909" lon="29.9165815603"><ele>82.769</ele><time>2026-04-20T22:05:51.000Z</time></trkpt>
   <trkpt lat="59.0967645424" lon="29.9168317601"><ele>83.719</ele><time>2026-04-20T22:06:06.000Z</time></trkpt>
   <trkpt lat="59.0944370555" lon="29.9170313332"><ele>84.369</ele><time>2026-04-20T22:06:15.000Z</time></trkpt>
   <trkpt lat="59.0913785828" lon="29.9171623424"><ele>83.529</ele><time>2026-04-20T22:06:25.000Z</time></trkpt>
   <trkpt lat="59.0880971516" lon="29.9174020648"><ele>84.619</ele><time>2026-04-20T22:06:35.000Z</time></trkpt>
   <trkpt lat="59.0846720545" lon="29.9178731278"><ele>86.039</ele><time>2026-04-20T22:06:45.000Z</time></trkpt>
   <trkpt lat="59.078400044" lon="29.9184128385"><ele>85.999</ele><time>2026-04-20T22:07:03.000Z</time></trkpt>
   <trkpt lat="59.0728760345" lon="29.918877196"><ele>87.969</ele><time>2026-04-20T22:07:19.000Z</time></trkpt>
   <trkpt lat="59.0678567832" lon="29.9197039031"><ele>87.579</ele><time>2026-04-20T22:07:34.000Z</time></trkpt>
   <trkpt lat="59.0634190684" lon="29.9218567111"><ele>85.259</ele><time>2026-04-20T22:07:47.000Z</time></trkpt>
   <trkpt lat="59.0550312141" lon="29.9258097843"><ele>83.419</ele><time>2026-04-20T22:08:11.000Z</time></trkpt>
   <trkpt lat="59.0468528235" lon="29.9296673037"><ele>82.209</ele><time>2026-04-20T22:08:34.000Z</time></trkpt>
   <trkpt lat="59.0397167226" lon="29.9330451269"><ele>82.449</ele><time>2026-04-20T22:08:54.000Z</time></trkpt>
   <trkpt lat="59.0366390554" lon="29.9345022369"><ele>82.439</ele><time>2026-04-20T22:09:04.000Z</time></trkpt>
   <trkpt lat="59.0340233149" lon="29.9358922918"><ele>81.899</ele><time>2026-04-20T22:09:14.000Z</time></trkpt>
   <trkpt lat="59.0318258314" lon="29.9378216382"><ele>81.429</ele><time>2026-04-20T22:09:22.000Z</time></trkpt>
   <trkpt lat="59.0297334569" lon="29.9406584096"><ele>81.019</ele><time>2026-04-20T22:09:30.000Z</time></trkpt>
   <trkpt lat="59.0278702436" lon="29.9442990054"><ele>81.229</ele><time>2026-04-20T22:09:38.000Z</time></trkpt>
   <trkpt lat="59.02649536" lon="29.9471700587"><ele>83.639</ele><time>2026-04-20T22:09:45.000Z</time></trkpt>
   <trkpt lat="59.0252736138" lon="29.9497111164"><ele>86.379</ele><time>2026-04-20T22:09:53.000Z</time></trkpt>
   <trkpt lat="59.0237582495" lon="29.95208462"><ele>86.629</ele><time>2026-04-20T22:10:02.000Z</time></trkpt>
   <trkpt lat="59.0223805161" lon="29.9537392915"><ele>85.249</ele><time>2026-04-20T22:10:11.000Z</time></trkpt>
   <trkpt lat="59.0220073538" lon="29.9540951871"><ele>84.609</ele><time>2026-04-20T22:10:14.000Z</time></trkpt>
   <trkpt lat="59.021882212" lon="29.9541565426"><ele>83.479</ele><time>2026-04-20T22:10:15.000Z</time></trkpt>
   <trkpt lat="59.021758076" lon="29.954213791"><ele>83.779</ele><time>2026-04-20T22:10:16.000Z</time></trkpt>
   <trkpt lat="59.0216344429" lon="29.9542116955"><ele>84.119</ele><time>2026-04-20T22:10:17.000Z</time></trkpt>
   <trkpt lat="59.0214981532" lon="29.9541437183"><ele>84.229</ele><time>2026-04-20T22:10:18.000Z</time></trkpt>
   <trkpt lat="59.0213590136" lon="29.9540202529"><ele>83.079</ele><time>2026-04-20T22:10:19.000Z</time></trkpt>
   <trkpt lat="59.0212586822" lon="29.9538646009"><ele>84.369</ele><time>2026-04-20T22:10:20.000Z</time></trkpt>
   <trkpt lat="59.0211887771" lon="29.9536477611"><ele>84.419</ele><time>2026-04-20T22:10:21.000Z</time></trkpt>
   <trkpt lat="59.0211414194" lon="29.9534294125"><ele>83.929</ele><time>2026-04-20T22:10:22.000Z</time></trkpt>
   <trkpt lat="59.0211013539" lon="29.9532154225"><ele>83.669</ele><time>2026-04-20T22:10:23.000Z</time></trkpt>
   <trkpt lat="59.0210778845" lon="29.9529769574"><ele>82.639</ele><time>2026-04-20T22:10:24.000Z</time></trkpt>
   <trkpt lat="59.0210404174" lon="29.9520210851"><ele>80.929</ele><time>2026-04-20T22:10:28.000Z</time></trkpt>
   <trkpt lat="59.0210490508" lon="29.9518013116"><ele>80.999</ele><time>2026-04-20T22:10:29.000Z</time></trkpt>
   <trkpt lat="59.0210924691" lon="29.9516128864"><ele>81.119</ele><time>2026-04-20T22:10:30.000Z</time></trkpt>
   <trkpt lat="59.0211598596" lon="29.9514625989"><ele>80.819</ele><time>2026-04-20T22:10:31.000Z</time></trkpt>
   <trkpt lat="59.0212530663" lon="29.9513438274"><ele>81.149</ele><time>2026-04-20T22:10:32.000Z</time></trkpt>
   <trkpt lat="59.0213602709" lon="29.9512677197"><ele>80.609</ele><time>2026-04-20T22:10:33.000Z</time></trkpt>
   <trkpt lat="59.0214729236" lon="29.9512111418"><ele>80.619</ele><time>2026-04-20T22:10:34.000Z</time></trkpt>
   <trkpt lat="59.0215957185" lon="29.9511747644"><ele>80.369</ele><time>2026-04-20T22:10:35.000Z</time></trkpt>
   <trkpt lat="59.0217225367" lon="29.9511593417"><ele>80.029</ele><time>2026-04-20T22:10:36.000Z</time></trkpt>
   <trkpt lat="59.02186461" lon="29.9511637841"><ele>79.179</ele><time>2026-04-20T22:10:37.000Z</time></trkpt>
   <trkpt lat="59.0231261702" lon="29.951318514"><ele>79.069</ele><time>2026-04-20T22:10:44.000Z</time></trkpt>
   <trkpt lat="59.0251369888" lon="29.9520607315"><ele>78.499</ele><time>2026-04-20T22:10:54.000Z</time></trkpt>
   <trkpt lat="59.0267661793" lon="29.9533538916"><ele>79.589</ele><time>2026-04-20T22:11:03.000Z</time></trkpt>
   <trkpt lat="59.0278106483" lon="29.9547376599"><ele>74.889</ele><time>2026-04-20T22:11:11.000Z</time></trkpt>
   <trkpt lat="59.0290492421" lon="29.9564426229"><ele>74.969</ele><time>2026-04-20T22:11:20.000Z</time></trkpt>
   <trkpt lat="59.0294683373" lon="29.9573279195"><ele>74.909</ele><time>2026-04-20T22:11:24.000Z</time></trkpt>
   <trkpt lat="59.0295522401" lon="29.9575694021"><ele>74.799</ele><time>2026-04-20T22:11:25.000Z</time></trkpt>
   <trkpt lat="59.0296082312" lon="29.9578105495"><ele>74.669</ele><time>2026-04-20T22:11:26.000Z</time></trkpt>
   <trkpt lat="59.0296268391" lon="29.9580394592"><ele>74.239</ele><time>2026-04-20T22:11:27.000Z</time></trkpt>
   <trkpt lat="59.0295956584" lon="29.9582643457"><ele>74.479</ele><time>2026-04-20T22:11:28.000Z</time></trkpt>
   <trkpt lat="59.0295603706" lon="29.958475402"><ele>74.519</ele><time>2026-04-20T22:11:29.000Z</time></trkpt>
   <trkpt lat="59.0295428524" lon="29.958719986"><ele>75.409</ele><time>2026-04-20T22:11:30.000Z</time></trkpt>
   <trkpt lat="59.0295647292" lon="29.95895711"><ele>75.849</ele><time>2026-04-20T22:11:31.000Z</time></trkpt>
   <trkpt lat="59.0296114164" lon="29.9591830861"><ele>75.829</ele><time>2026-04-20T22:11:32.000Z</time></trkpt>
   <trkpt lat="59.0296697544" lon="29.9594329506"><ele>75.609</ele><time>2026-04-20T22:11:33.000Z</time></trkpt>
   <trkpt lat="59.0297368096" lon="29.9596956395"><ele>75.519</ele><time>2026-04-20T22:11:34.000Z</time></trkpt>
   <trkpt lat="59.030340139" lon="29.9618489504"><ele>75.249</ele><time>2026-04-20T22:11:42.000Z</time></trkpt>
   <trkpt lat="59.0303556455" lon="29.9621051014"><ele>75.179</ele><time>2026-04-20T22:11:43.000Z</time></trkpt>
   <trkpt lat="59.0303144904" lon="29.9629706167"><ele>76.199</ele><time>2026-04-20T22:11:46.000Z</time></trkpt>
   <trkpt lat="59.0303239619" lon="29.9632545956"><ele>76.119</ele><time>2026-04-20T22:11:47.000Z</time></trkpt>
   <trkpt lat="59.0303652847" lon="29.9635335453"><ele>74.079</ele><time>2026-04-20T22:11:48.000Z</time></trkpt>
   <trkpt lat="59.0307479186" lon="29.9661955539"><ele>72.219</ele><time>2026-04-20T22:11:56.000Z</time></trkpt>
   <trkpt lat="59.0308230205" lon="29.9669166491"><ele>72.659</ele><time>2026-04-20T22:11:58.000Z</time></trkpt>
   <trkpt lat="59.0308883155" lon="29.967243208"><ele>72.669</ele><time>2026-04-20T22:11:59.000Z</time></trkpt>
   <trkpt lat="59.0317362288" lon="29.9703010939"><ele>71.959</ele><time>2026-04-20T22:12:08.000Z</time></trkpt>
   <trkpt lat="59.0323848205" lon="29.9732135538"><ele>72.299</ele><time>2026-04-20T22:12:17.000Z</time></trkpt>
   <trkpt lat="59.0325230381" lon="29.9736923281"><ele>71.019</ele><time>2026-04-20T22:12:19.000Z</time></trkpt>
   <trkpt lat="59.0334766472" lon="29.9753692955"><ele>74.169</ele><time>2026-04-20T22:12:27.000Z</time></trkpt>
   <trkpt lat="59.0336241687" lon="29.9755058367"><ele>73.979</ele><time>2026-04-20T22:12:28.000Z</time></trkpt>
   <trkpt lat="59.0345436635" lon="29.9764337134"><ele>76.909</ele><time>2026-04-20T22:12:34.000Z</time></trkpt>
   <trkpt lat="59.0346894248" lon="29.97667243"><ele>75.889</ele><time>2026-04-20T22:12:35.000Z</time></trkpt>
   <trkpt lat="59.0348142313" lon="29.9769097217"><ele>75.269</ele><time>2026-04-20T22:12:36.000Z</time></trkpt>
   <trkpt lat="59.0352454802" lon="29.9779916577"><ele>74.759</ele><time>2026-04-20T22:12:40.000Z</time></trkpt>
   <trkpt lat="59.0353375135" lon="29.9782913946"><ele>74.919</ele><time>2026-04-20T22:12:41.000Z</time></trkpt>
   <trkpt lat="59.0354007131" lon="29.9786014412"><ele>72.649</ele><time>2026-04-20T22:12:42.000Z</time></trkpt>
   <trkpt lat="59.0354394374" lon="29.9789021001"><ele>72.699</ele><time>2026-04-20T22:12:43.000Z</time></trkpt>
   <trkpt lat="59.0354650861" lon="29.9792107217"><ele>72.919</ele><time>2026-04-20T22:12:44.000Z</time></trkpt>
   <trkpt lat="59.0354311394" lon="29.9795553018"><ele>74.549</ele><time>2026-04-20T22:12:45.000Z</time></trkpt>
   <trkpt lat="59.0354320614" lon="29.9804943264"><ele>80.659</ele><time>2026-04-20T22:12:48.000Z</time></trkpt>
   <trkpt lat="59.0354715401" lon="29.9807237391"><ele>81.839</ele><time>2026-04-20T22:12:49.000Z</time></trkpt>
   <trkpt lat="59.0355188141" lon="29.9809461948"><ele>83.839</ele><time>2026-04-20T22:12:50.000Z</time></trkpt>
   <trkpt lat="59.035603136" lon="29.9811670579"><ele>82.109</ele><time>2026-04-20T22:12:51.000Z</time></trkpt>
   <trkpt lat="59.035705982" lon="29.9813590873"><ele>82.919</ele><time>2026-04-20T22:12:52.000Z</time></trkpt>
   <trkpt lat="59.0365718326" lon="29.9831166048"><ele>78.889</ele><time>2026-04-20T22:12:59.000Z</time></trkpt>
   <trkpt lat="59.0368874112" lon="29.9840910849"><ele>79.829</ele><time>2026-04-20T22:13:03.000Z</time></trkpt>
   <trkpt lat="59.0369176699" lon="29.984342542"><ele>79.079</ele><time>2026-04-20T22:13:04.000Z</time></trkpt>
   <trkpt lat="59.0369415583" lon="29.9845825997"><ele>77.859</ele><time>2026-04-20T22:13:05.000Z</time></trkpt>
   <trkpt lat="59.036935691" lon="29.9848359846"><ele>77.499</ele><time>2026-04-20T22:13:06.000Z</time></trkpt>
   <trkpt lat="59.036904175" lon="29.9851182033"><ele>77.339</ele><time>2026-04-20T22:13:07.000Z</time></trkpt>
   <trkpt lat="59.0368766824" lon="29.9862659373"><ele>76.939</ele><time>2026-04-20T22:13:11.000Z</time></trkpt>
   <trkpt lat="59.0371092802" lon="29.9877932877"><ele>77.389</ele><time>2026-04-20T22:13:16.000Z</time></trkpt>
   <trkpt lat="59.037932886" lon="29.9903604132"><ele>76.319</ele><time>2026-04-20T22:13:25.000Z</time></trkpt>
   <trkpt lat="59.0389044324" lon="29.9940455169"><ele>77.369</ele><time>2026-04-20T22:13:36.000Z</time></trkpt>
   <trkpt lat="59.039704066" lon="29.9963252269"><ele>74.349</ele><time>2026-04-20T22:13:44.000Z</time></trkpt>
   <trkpt lat="59.0399394298" lon="29.9970682826"><ele>74.029</ele><time>2026-04-20T22:13:47.000Z</time></trkpt>
   <trkpt lat="59.0399763102" lon="29.9973554466"><ele>74.609</ele><time>2026-04-20T22:13:48.000Z</time></trkpt>
   <trkpt lat="59.0400147831" lon="29.9979545013"><ele>77.999</ele><time>2026-04-20T22:13:50.000Z</time></trkpt>
   <trkpt lat="59.0399906432" lon="29.9982963153"><ele>77.669</ele><time>2026-04-20T22:13:51.000Z</time></trkpt>
   <trkpt lat="59.0395551195" lon="30.0010137283"><ele>75.229</ele><time>2026-04-20T22:13:58.000Z</time></trkpt>
   <trkpt lat="59.039037537" lon="30.0048223813"><ele>77.829</ele><time>2026-04-20T22:14:08.000Z</time></trkpt>
   <trkpt lat="59.0388973916" lon="30.0066827447"><ele>83.809</ele><time>2026-04-20T22:14:14.000Z</time></trkpt>
   <trkpt lat="59.0388923625" lon="30.0069464393"><ele>82.759</ele><time>2026-04-20T22:14:15.000Z</time></trkpt>
   <trkpt lat="59.0389268121" lon="30.0072116428"><ele>82.719</ele><time>2026-04-20T22:14:16.000Z</time></trkpt>
   <trkpt lat="59.0393805245" lon="30.009944227"><ele>81.099</ele><time>2026-04-20T22:14:25.000Z</time></trkpt>
   <trkpt lat="59.0395853782" lon="30.0107555952"><ele>79.779</ele><time>2026-04-20T22:14:28.000Z</time></trkpt>
   <trkpt lat="59.0404294359" lon="30.0127377477"><ele>77.999</ele><time>2026-04-20T22:14:35.000Z</time></trkpt>
   <trkpt lat="59.0407991616" lon="30.013473595"><ele>80.099</ele><time>2026-04-20T22:14:39.000Z</time></trkpt>
   <trkpt lat="59.0408607686" lon="30.0135144987"><ele>81.029</ele><time>2026-04-20T22:14:40.000Z</time></trkpt>
   <trkpt lat="59.0409238843" lon="30.0135086313"><ele>80.179</ele><time>2026-04-20T22:14:41.000Z</time></trkpt>
   <trkpt lat="59.0409494491" lon="30.0134304282"><ele>80.319</ele><time>2026-04-20T22:14:42.000Z</time></trkpt>
   <trkpt lat="59.040981468" lon="30.0133598526"><ele>79.449</ele><time>2026-04-20T22:14:43.000Z</time></trkpt>
   <trkpt lat="59.0410311727" lon="30.0132995867"><ele>79.229</ele><time>2026-04-20T22:14:44.000Z</time></trkpt>
   <trkpt lat="59.0410848169" lon="30.0132515584"><ele>79.419</ele><time>2026-04-20T22:14:45.000Z</time></trkpt>
   <trkpt lat="59.0411500281" lon="30.0132149294"><ele>79.239</ele><time>2026-04-20T22:14:46.000Z</time></trkpt>
   <trkpt lat="59.0419537688" lon="30.0129250832"><ele>78.139</ele><time>2026-04-20T22:14:53.000Z</time></trkpt>
   <trkpt lat="59.0434598291" lon="30.0124447164"><ele>75.509</ele><time>2026-04-20T22:15:01.000Z</time></trkpt>
   <trkpt lat="59.0457659422" lon="30.0117161613"><ele>75.209</ele><time>2026-04-20T22:15:14.000Z</time></trkpt>
   <trkpt lat="59.0480078498" lon="30.0109165278"><ele>75.879</ele><time>2026-04-20T22:15:26.000Z</time></trkpt>
   <trkpt lat="59.0505431241" lon="30.0101155531"><ele>74.969</ele><time>2026-04-20T22:15:39.000Z</time></trkpt>
   <trkpt lat="59.0522972887" lon="30.0096602481"><ele>70.729</ele><time>2026-04-20T22:15:49.000Z</time></trkpt>
   <trkpt lat="59.053931676" lon="30.009178624"><ele>71.669</ele><time>2026-04-20T22:15:58.000Z</time></trkpt>
   <trkpt lat="59.0556908699" lon="30.0084290304"><ele>73.939</ele><time>2026-04-20T22:16:08.000Z</time></trkpt>
   <trkpt lat="59.0579901097" lon="30.0076601584"><ele>75.719</ele><time>2026-04-20T22:16:21.000Z</time></trkpt>
   <trkpt lat="59.0582842307" lon="30.0075710588"><ele>75.889</ele><time>2026-04-20T22:16:25.000Z</time></trkpt>
   <trkpt lat="59.0581491144" lon="30.0075425603"><ele>76.959</ele><time>2026-04-20T22:16:36.000Z</time></trkpt>
   <trkpt lat="59.0581435824" lon="30.0074501917"><ele>77.589</ele><time>2026-04-20T22:16:37.000Z</time></trkpt>
   <trkpt lat="59.0580517167" lon="30.00634772"><ele>78.749</ele><time>2026-04-20T22:16:43.000Z</time></trkpt>
   <trkpt lat="59.0578076357" lon="30.0035088532"><ele>78.779</ele><time>2026-04-20T22:16:52.000Z</time></trkpt>
   <trkpt lat="59.0574772211" lon="29.9996439577"><ele>78.139</ele><time>2026-04-20T22:17:02.000Z</time></trkpt>
   <trkpt lat="59.0571186433" lon="29.9951541912"><ele>78.579</ele><time>2026-04-20T22:17:14.000Z</time></trkpt>
   <trkpt lat="59.0568040704" lon="29.9913389165"><ele>80.639</ele><time>2026-04-20T22:17:25.000Z</time></trkpt>
   <trkpt lat="59.0565442314" lon="29.9881017417"><ele>79.339</ele><time>2026-04-20T22:17:34.000Z</time></trkpt>
   <trkpt lat="59.0561839772" lon="29.9835499492"><ele>79.069</ele><time>2026-04-20T22:17:45.000Z</time></trkpt>
   <trkpt lat="59.0557687378" lon="29.9783659935"><ele>78.429</ele><time>2026-04-20T22:17:57.000Z</time></trkpt>
   <trkpt lat="59.0554638879" lon="29.9743786384"><ele>77.729</ele><time>2026-04-20T22:18:07.000Z</time></trkpt>
   <trkpt lat="59.0551635644" lon="29.970471498"><ele>77.389</ele><time>2026-04-20T22:18:18.000Z</time></trkpt>
   <trkpt lat="59.0549769832" lon="29.9674242571"><ele>78.099</ele><time>2026-04-20T22:18:27.000Z</time></trkpt>
   <trkpt lat="59.0549379235" lon="29.9664304987"><ele>79.749</ele><time>2026-04-20T22:18:33.000Z</time></trkpt>
   <trkpt lat="59.0549361633" lon="29.9661963083"><ele>80.929</ele><time>2026-04-20T22:18:41.000Z</time></trkpt>
   <trkpt lat="59.0549553579" lon="29.9661319353"><ele>81.439</ele><time>2026-04-20T22:19:04.000Z</time></trkpt>
   <trkpt lat="59.0549499096" lon="29.9661735095"><ele>86.389</ele><time>2026-04-20T22:19:30.000Z</time></trkpt>
   <trkpt lat="59.0549434556" lon="29.9661450949"><ele>85.179</ele><time>2026-04-20T22:19:59.000Z</time></trkpt>
   <trkpt lat="59.0549541844" lon="29.966004698"><ele>83.319</ele><time>2026-04-20T22:20:21.000Z</time></trkpt>
   <trkpt lat="59.0548751431" lon="29.9647687864"><ele>81.359</ele><time>2026-04-20T22:20:30.000Z</time></trkpt>
   <trkpt lat="59.0548151286" lon="29.9632835131"><ele>81.299</ele><time>2026-04-20T22:20:46.000Z</time></trkpt>
   <trkpt lat="59.0548572896" lon="29.9631082476"><ele>81.209</ele><time>2026-04-20T22:20:51.000Z</time></trkpt>
   <trkpt lat="59.054937253" lon="29.9630346544"><ele>81.499</ele><time>2026-04-20T22:21:03.000Z</time></trkpt>
   <trkpt lat="59.0549399352" lon="29.9630606383"><ele>79.709</ele><time>2026-04-20T22:21:24.000Z</time></trkpt>
   <trkpt lat="59.0549376721" lon="29.9630665895"><ele>81.819</ele><time>2026-04-20T22:21:45.000Z</time></trkpt>
   <trkpt lat="59.0549244287" lon="29.9630690202"><ele>81.239</ele><time>2026-04-20T22:22:01.000Z</time></trkpt>
   <trkpt lat="59.054927027" lon="29.9630558607"><ele>81.139</ele><time>2026-04-20T22:22:31.000Z</time></trkpt>
   <trkpt lat="59.0549380912" lon="29.9630618118"><ele>81.349</ele><time>2026-04-20T22:22:50.000Z</time></trkpt>
   <trkpt lat="59.0549459701" lon="29.9630509992"><ele>81.379</ele><time>2026-04-20T22:23:21.000Z</time></trkpt>
   <trkpt lat="59.0549430365" lon="29.9630577885"><ele>82.539</ele><time>2026-04-20T22:23:49.000Z</time></trkpt>
   <trkpt lat="59.0549704453" lon="29.9630600516"><ele>80.999</ele><time>2026-04-20T22:24:20.000Z</time></trkpt>
   <trkpt lat="59.0549551902" lon="29.9630621471"><ele>80.089</ele><time>2026-04-20T22:24:35.000Z</time></trkpt>
   <trkpt lat="59.0549597165" lon="29.9630434554"><ele>80.819</ele><time>2026-04-20T22:25:03.000Z</time></trkpt>
   <trkpt lat="59.0550030509" lon="29.9631362431"><ele>80.069</ele><time>2026-04-20T22:25:26.000Z</time></trkpt>
   <trkpt lat="59.0551217387" lon="29.9633296136"><ele>79.789</ele><time>2026-04-20T22:25:47.000Z</time></trkpt>
   <trkpt lat="59.0551295338" lon="29.9633690924"><ele>79.309</ele><time>2026-04-20T22:26:00.000Z</time></trkpt>
   <trkpt lat="59.0551252591" lon="29.963372026"><ele>80.819</ele><time>2026-04-20T22:26:25.000Z</time></trkpt>
   <trkpt lat="59.0551031308" lon="29.9633302842"><ele>79.669</ele><time>2026-04-20T22:26:46.000Z</time></trkpt>
   <trkpt lat="59.0551003648" lon="29.9633499816"><ele>81.009</ele><time>2026-04-20T22:27:06.000Z</time></trkpt>
   <trkpt lat="59.0551332219" lon="29.9634353932"><ele>78.909</ele><time>2026-04-20T22:27:27.000Z</time></trkpt>
   <trkpt lat="59.0551678391" lon="29.9635983374"><ele>78.859</ele><time>2026-04-20T22:27:46.000Z</time></trkpt>
   <trkpt lat="59.0552169571" lon="29.9637585156"><ele>78.829</ele><time>2026-04-20T22:28:11.000Z</time></trkpt>
   <trkpt lat="59.0553197192" lon="29.9637683224"><ele>78.759</ele><time>2026-04-20T22:28:43.000Z</time></trkpt>
   <trkpt lat="59.0554396642" lon="29.9638300132"><ele>78.899</ele><time>2026-04-20T22:29:01.000Z</time></trkpt>
   <trkpt lat="59.055554161" lon="29.9640082125"><ele>78.389</ele><time>2026-04-20T22:29:23.000Z</time></trkpt>
   <trkpt lat="59.0556449371" lon="29.9640982341"><ele>77.579</ele><time>2026-04-20T22:29:41.000Z</time></trkpt>
   <trkpt lat="59.0557020178" lon="29.9641462624"><ele>74.439</ele><time>2026-04-20T22:29:52.000Z</time></trkpt>
   <trkpt lat="59.0557430891" lon="29.964239553"><ele>77.099</ele><time>2026-04-20T22:30:09.000Z</time></trkpt>
   <trkpt lat="59.0557977392" lon="29.9643973843"><ele>77.809</ele><time>2026-04-20T22:30:31.000Z</time></trkpt>
   <trkpt lat="59.0558873417" lon="29.9643213604"><ele>77.309</ele><time>2026-04-20T22:30:54.000Z</time></trkpt>
   <trkpt lat="59.055952972" lon="29.9642947898"><ele>77.139</ele><time>2026-04-20T22:31:06.000Z</time></trkpt>
   <trkpt lat="59.0560310913" lon="29.9642547243"><ele>74.629</ele><time>2026-04-20T22:31:22.000Z</time></trkpt>
   <trkpt lat="59.0561315904" lon="29.9642833904"><ele>75.819</ele><time>2026-04-20T22:31:40.000Z</time></trkpt>
   <trkpt lat="59.0561798701" lon="29.9642040138"><ele>75.969</ele><time>2026-04-20T22:31:55.000Z</time></trkpt>
   <trkpt lat="59.056230413" lon="29.9641776108"><ele>74.829</ele><time>2026-04-20T22:32:07.000Z</time></trkpt>
   <trkpt lat="59.0563216919" lon="29.9641745933"><ele>75.679</ele><time>2026-04-20T22:32:21.000Z</time></trkpt>
   <trkpt lat="59.0564191735" lon="29.9641616851"><ele>77.939</ele><time>2026-04-20T22:32:36.000Z</time></trkpt>
   <trkpt lat="59.0564034155" lon="29.9641872499"><ele>78.069</ele><time>2026-04-20T22:32:52.000Z</time></trkpt>
   <trkpt lat="59.0564024096" lon="29.9641776108"><ele>76.919</ele><time>2026-04-20T22:33:14.000Z</time></trkpt>
   <trkpt lat="59.056406433" lon="29.9641489447"><ele>75.679</ele><time>2026-04-20T22:33:43.000Z</time></trkpt>
   <trkpt lat="59.0564093666" lon="29.9641795386"><ele>76.229</ele><time>2026-04-20T22:34:06.000Z</time></trkpt>
   <trkpt lat="59.056408277" lon="29.9641844839"><ele>77.459</ele><time>2026-04-20T22:34:39.000Z</time></trkpt>
   <trkpt lat="59.0564163236" lon="29.9641859088"><ele>78.699</ele><time>2026-04-20T22:35:11.000Z</time></trkpt>
   <trkpt lat="59.0564151501" lon="29.9641954642"><ele>78.429</ele><time>2026-04-20T22:36:08.000Z</time></trkpt>
   <trkpt lat="59.0564163236" lon="29.9642002419"><ele>79.549</ele><time>2026-04-20T22:36:44.000Z</time></trkpt>
   <trkpt lat="59.0564687105" lon="29.9641600926"><ele>79.959</ele><time>2026-04-20T22:37:08.000Z</time></trkpt>
   <trkpt lat="59.0565394538" lon="29.9642002419"><ele>79.729</ele><time>2026-04-20T22:37:21.000Z</time></trkpt>
   <trkpt lat="59.0566326605" lon="29.9641792871"><ele>79.059</ele><time>2026-04-20T22:37:35.000Z</time></trkpt>
   <trkpt lat="59.0567129592" lon="29.9642308358"><ele>77.689</ele><time>2026-04-20T22:37:48.000Z</time></trkpt>
   <trkpt lat="59.0567146355" lon="29.9642331828"><ele>77.719</ele><time>2026-04-20T22:37:49.000Z</time></trkpt>
   <trkpt lat="59.0568110274" lon="29.9642501142"><ele>78.849</ele><time>2026-04-20T22:38:00.000Z</time></trkpt>
   <trkpt lat="59.056909431" lon="29.9642616812"><ele>79.129</ele><time>2026-04-20T22:38:16.000Z</time></trkpt>
   <trkpt lat="59.056983527" lon="29.9642521259"><ele>79.329</ele><time>2026-04-20T22:38:25.000Z</time></trkpt>
   <trkpt lat="59.0570522586" lon="29.9641123157"><ele>80.159</ele><time>2026-04-20T22:38:37.000Z</time></trkpt>
   <trkpt lat="59.0570611434" lon="29.964169145"><ele>79.959</ele><time>2026-04-20T22:39:00.000Z</time></trkpt>
   <trkpt lat="59.0570865406" lon="29.964331251"><ele>78.319</ele><time>2026-04-20T22:39:16.000Z</time></trkpt>
   <trkpt lat="59.0571004545" lon="29.9643574026"><ele>78.239</ele><time>2026-04-20T22:39:19.000Z</time></trkpt>
   <trkpt lat="59.0571440404" lon="29.9644239549"><ele>79.979</ele><time>2026-04-20T22:39:24.000Z</time></trkpt>
   <trkpt lat="59.0571736286" lon="29.9645444867"><ele>80.369</ele><time>2026-04-20T22:39:36.000Z</time></trkpt>
   <trkpt lat="59.0572156219" lon="29.9646619171"><ele>79.899</ele><time>2026-04-20T22:39:48.000Z</time></trkpt>
   <trkpt lat="59.0572398456" lon="29.9647060059"><ele>78.379</ele><time>2026-04-20T22:40:12.000Z</time></trkpt>
   <trkpt lat="59.0572480599" lon="29.9647334986"><ele>77.139</ele><time>2026-04-20T22:40:19.000Z</time></trkpt>
   <trkpt lat="59.0572791567" lon="29.9648500909"><ele>77.909</ele><time>2026-04-20T22:40:28.000Z</time></trkpt>
   <trkpt lat="59.0573223235" lon="29.9648704589"><ele>78.039</ele><time>2026-04-20T22:40:35.000Z</time></trkpt>
   <trkpt lat="59.0573754648" lon="29.9648976162"><ele>76.809</ele><time>2026-04-20T22:40:45.000Z</time></trkpt>
   <trkpt lat="59.0574609602" lon="29.9649115302"><ele>77.349</ele><time>2026-04-20T22:40:58.000Z</time></trkpt>
   <trkpt lat="59.0575230701" lon="29.9649367597"><ele>76.599</ele><time>2026-04-20T22:41:10.000Z</time></trkpt>
   <trkpt lat="59.0575719366" lon="29.9649349995"><ele>76.319</ele><time>2026-04-20T22:41:19.000Z</time></trkpt>
   <trkpt lat="59.0576276763" lon="29.964935251"><ele>75.379</ele><time>2026-04-20T22:41:30.000Z</time></trkpt>
   <trkpt lat="59.0576429313" lon="29.9649595585"><ele>73.589</ele><time>2026-04-20T22:41:36.000Z</time></trkpt>
   <trkpt lat="59.057714848" lon="29.9649463989"><ele>75.719</ele><time>2026-04-20T22:41:51.000Z</time></trkpt>
   <trkpt lat="59.057719961" lon="29.9649676051"><ele>76.229</ele><time>2026-04-20T22:42:11.000Z</time></trkpt>
   <trkpt lat="59.0577290135" lon="29.9649771605"><ele>79.029</ele><time>2026-04-20T22:42:56.000Z</time></trkpt>
   <trkpt lat="59.0577340426" lon="29.964945896"><ele>77.669</ele><time>2026-04-20T22:43:57.000Z</time></trkpt>
   <trkpt lat="59.0576961564" lon="29.9649721314"><ele>77.519</ele><time>2026-04-20T22:44:19.000Z</time></trkpt>
   <trkpt lat="59.0577156862" lon="29.9649854586"><ele>77.279</ele><time>2026-04-20T22:44:40.000Z</time></trkpt>
   <trkpt lat="59.0577172788" lon="29.9649867159"><ele>76.979</ele><time>2026-04-20T22:45:27.000Z</time></trkpt>
   <trkpt lat="59.0577161891" lon="29.9649629951"><ele>77.299</ele><time>2026-04-20T22:46:07.000Z</time></trkpt>
   <trkpt lat="59.0577235652" lon="29.9650044855"><ele>77.059</ele><time>2026-04-20T22:47:17.000Z</time></trkpt>
   <trkpt lat="59.0577350484" lon="29.9649696168"><ele>76.879</ele><time>2026-04-20T22:48:22.000Z</time></trkpt>
   <trkpt lat="59.0577385688" lon="29.9649728857"><ele>77.659</ele><time>2026-04-20T22:48:47.000Z</time></trkpt>
   <trkpt lat="59.0577209668" lon="29.9649414536"><ele>77.629</ele><time>2026-04-20T22:49:11.000Z</time></trkpt>
   <trkpt lat="59.0577302707" lon="29.9649629951"><ele>78.309</ele><time>2026-04-20T22:49:37.000Z</time></trkpt>
   <trkpt lat="59.0577263313" lon="29.9649450578"><ele>79.199</ele><time>2026-04-20T22:50:14.000Z</time></trkpt>
   <trkpt lat="59.0577347132" lon="29.9649415374"><ele>80.959</ele><time>2026-04-20T22:51:07.000Z</time></trkpt>
   <trkpt lat="59.0577447714" lon="29.9649650906"><ele>79.539</ele><time>2026-04-20T22:51:43.000Z</time></trkpt>
   <trkpt lat="59.0577328691" lon="29.9649629113"><ele>78.549</ele><time>2026-04-20T22:52:19.000Z</time></trkpt>
   <trkpt lat="59.0577215536" lon="29.9649627436"><ele>78.849</ele><time>2026-04-20T22:52:44.000Z</time></trkpt>
   <trkpt lat="59.0577134231" lon="29.9649752327"><ele>80.179</ele><time>2026-04-20T22:53:28.000Z</time></trkpt>
   <trkpt lat="59.0576987548" lon="29.9649939243"><ele>79.099</ele><time>2026-04-20T22:53:43.000Z</time></trkpt>
   <trkpt lat="59.0577670673" lon="29.9652000353"><ele>78.669</ele><time>2026-04-20T22:53:57.000Z</time></trkpt>
   <trkpt lat="59.0577972422" lon="29.965359962"><ele>78.969</ele><time>2026-04-20T22:54:09.000Z</time></trkpt>
   <trkpt lat="59.0578423368" lon="29.965486864"><ele>78.489</ele><time>2026-04-20T22:54:25.000Z</time></trkpt>
   <trkpt lat="59.0579287542" lon="29.9656436056"><ele>80.019</ele><time>2026-04-20T22:54:40.000Z</time></trkpt>
   <trkpt lat="59.0579914508" lon="29.9656099942"><ele>80.039</ele><time>2026-04-20T22:54:53.000Z</time></trkpt>
   <trkpt lat="59.0580243917" lon="29.9655353953"><ele>80.179</ele><time>2026-04-20T22:55:05.000Z</time></trkpt>
   <trkpt lat="59.0580782874" lon="29.9654807452"><ele>82.129</ele><time>2026-04-20T22:55:18.000Z</time></trkpt>
   <trkpt lat="59.0581086299" lon="29.9653675896"><ele>80.319</ele><time>2026-04-20T22:55:31.000Z</time></trkpt>
   <trkpt lat="59.0581171794" lon="29.965348395"><ele>80.219</ele><time>2026-04-20T22:55:46.000Z</time></trkpt>
   <trkpt lat="59.058096979" lon="29.9651636578"><ele>82.529</ele><time>2026-04-20T22:56:06.000Z</time></trkpt>
   <trkpt lat="59.0580999127" lon="29.9650883045"><ele>82.509</ele><time>2026-04-20T22:56:18.000Z</time></trkpt>
   <trkpt lat="59.058090022" lon="29.964979256"><ele>80.749</ele><time>2026-04-20T22:56:37.000Z</time></trkpt>
   <trkpt lat="59.0580913631" lon="29.9648332432"><ele>80.919</ele><time>2026-04-20T22:56:55.000Z</time></trkpt>
   <trkpt lat="59.0581220409" lon="29.9646732327"><ele>82.609</ele><time>2026-04-20T22:57:09.000Z</time></trkpt>
   <trkpt lat="59.0581758527" lon="29.9646032438"><ele>80.729</ele><time>2026-04-20T22:57:26.000Z</time></trkpt>
   <trkpt lat="59.0582524633" lon="29.964645321"><ele>81.219</ele><time>2026-04-20T22:57:37.000Z</time></trkpt>
   <trkpt lat="59.0583429879" lon="29.9646412138"><ele>82.719</ele><time>2026-04-20T22:57:52.000Z</time></trkpt>
   <trkpt lat="59.0583917705" lon="29.9646390345"><ele>81.719</ele><time>2026-04-20T22:58:04.000Z</time></trkpt>
   <trkpt lat="59.0584437383" lon="29.9647083529"><ele>82.259</ele><time>2026-04-20T22:58:20.000Z</time></trkpt>
   <trkpt lat="59.0584813731" lon="29.9647547886"><ele>81.119</ele><time>2026-04-20T22:58:39.000Z</time></trkpt>
   <trkpt lat="59.0584954547" lon="29.9647896573"><ele>80.329</ele><time>2026-04-20T22:59:07.000Z</time></trkpt>
   <trkpt lat="59.0584935268" lon="29.9648134619"><ele>78.879</ele><time>2026-04-20T22:59:36.000Z</time></trkpt>
   <trkpt lat="59.0584863184" lon="29.9647967819"><ele>80.859</ele><time>2026-04-20T23:00:46.000Z</time></trkpt>
   <trkpt lat="59.0584651122" lon="29.9647604045"><ele>81.089</ele><time>2026-04-20T23:01:20.000Z</time></trkpt>
   <trkpt lat="59.0584626814" lon="29.9648031522"><ele>81.909</ele><time>2026-04-20T23:03:01.000Z</time></trkpt>
   <trkpt lat="59.058504088" lon="29.9648709618"><ele>81.889</ele><time>2026-04-20T23:03:30.000Z</time></trkpt>
   <trkpt lat="59.0585341791" lon="29.9649163079"><ele>80.949</ele><time>2026-04-20T23:03:50.000Z</time></trkpt>
   <trkpt lat="59.0585463328" lon="29.9649991211"><ele>79.689</ele><time>2026-04-20T23:04:09.000Z</time></trkpt>
   <trkpt lat="59.0585963728" lon="29.9651007098"><ele>79.809</ele><time>2026-04-20T23:04:24.000Z</time></trkpt>
   <trkpt lat="59.0586639309" lon="29.9651406914"><ele>79.399</ele><time>2026-04-20T23:04:38.000Z</time></trkpt>
   <trkpt lat="59.0587362668" lon="29.9651193176"><ele>79.889</ele><time>2026-04-20T23:04:51.000Z</time></trkpt>
   <trkpt lat="59.0587814452" lon="29.9650808446"><ele>79.769</ele><time>2026-04-20T23:05:09.000Z</time></trkpt>
   <trkpt lat="59.0588509312" lon="29.9650175613"><ele>79.379</ele><time>2026-04-20T23:05:24.000Z</time></trkpt>
   <trkpt lat="59.0589046592" lon="29.9650049884"><ele>79.349</ele><time>2026-04-20T23:05:41.000Z</time></trkpt>
   <trkpt lat="59.0589870533" lon="29.9650416173"><ele>79.159</ele><time>2026-04-20T23:05:54.000Z</time></trkpt>
   <trkpt lat="59.0590609817" lon="29.9651182279"><ele>79.059</ele><time>2026-04-20T23:06:09.000Z</time></trkpt>
   <trkpt lat="59.0591287913" lon="29.9651513365"><ele>79.149</ele><time>2026-04-20T23:06:22.000Z</time></trkpt>
   <trkpt lat="59.0592309667" lon="29.9652009573"><ele>78.559</ele><time>2026-04-20T23:06:42.000Z</time></trkpt>
   <trkpt lat="59.0593392609" lon="29.9653304577"><ele>78.599</ele><time>2026-04-20T23:06:56.000Z</time></trkpt>
   <trkpt lat="59.0594272709" lon="29.965279831"><ele>78.819</ele><time>2026-04-20T23:07:08.000Z</time></trkpt>
   <trkpt lat="59.0595150294" lon="29.96523306"><ele>79.159</ele><time>2026-04-20T23:07:21.000Z</time></trkpt>
   <trkpt lat="59.0595876167" lon="29.9652410228"><ele>79.459</ele><time>2026-04-20T23:07:36.000Z</time></trkpt>
   <trkpt lat="59.0596508162" lon="29.9652933259"><ele>79.209</ele><time>2026-04-20T23:07:48.000Z</time></trkpt>
   <trkpt lat="59.0597409217" lon="29.9653033004"><ele>80.829</ele><time>2026-04-20T23:07:58.000Z</time></trkpt>
   <trkpt lat="59.0597819092" lon="29.965386365"><ele>80.629</ele><time>2026-04-20T23:08:08.000Z</time></trkpt>
   <trkpt lat="59.0598058814" lon="29.9654825893"><ele>81.609</ele><time>2026-04-20T23:08:21.000Z</time></trkpt>
   <trkpt lat="59.0598393252" lon="29.9656545859"><ele>77.729</ele><time>2026-04-20T23:08:38.000Z</time></trkpt>
   <trkpt lat="59.0599105714" lon="29.9657512293"><ele>78.649</ele><time>2026-04-20T23:08:52.000Z</time></trkpt>
   <trkpt lat="59.0599478709" lon="29.9657186237"><ele>77.779</ele><time>2026-04-20T23:09:06.000Z</time></trkpt>
   <trkpt lat="59.0599849189" lon="29.965704123"><ele>79.269</ele><time>2026-04-20T23:09:47.000Z</time></trkpt>
   <trkpt lat="59.0599826558" lon="29.965726335"><ele>77.709</ele><time>2026-04-20T23:10:34.000Z</time></trkpt>
   <trkpt lat="59.0599675683" lon="29.9656718526"><ele>78.029</ele><time>2026-04-20T23:11:37.000Z</time></trkpt>
   <trkpt lat="59.0599681551" lon="29.9656350561"><ele>80.379</ele><time>2026-04-20T23:12:50.000Z</time></trkpt>
   <trkpt lat="59.0599704182" lon="29.9656415101"><ele>80.069</ele><time>2026-04-20T23:14:17.000Z</time></trkpt>
   <trkpt lat="59.0599994196" lon="29.9656208907"><ele>80.329</ele><time>2026-04-20T23:14:40.000Z</time></trkpt>
   <trkpt lat="59.0600480346" lon="29.9655938171"><ele>79.829</ele><time>2026-04-20T23:14:52.000Z</time></trkpt>
   <trkpt lat="59.0600967335" lon="29.9655703478"><ele>79.599</ele><time>2026-04-20T23:15:05.000Z</time></trkpt>
   <trkpt lat="59.0601322727" lon="29.9655718565"><ele>80.829</ele><time>2026-04-20T23:15:20.000Z</time></trkpt>
   <trkpt lat="59.0602131581" lon="29.9655345571"><ele>80.859</ele><time>2026-04-20T23:15:35.000Z</time></trkpt>
   <trkpt lat="59.0602503738" lon="29.9655657377"><ele>80.459</ele><time>2026-04-20T23:15:48.000Z</time></trkpt>
   <trkpt lat="59.060322039" lon="29.9656982556"><ele>81.319</ele><time>2026-04-20T23:16:09.000Z</time></trkpt>
   <trkpt lat="59.0603647867" lon="29.9656798154"><ele>79.599</ele><time>2026-04-20T23:16:30.000Z</time></trkpt>
   <trkpt lat="59.0604213646" lon="29.9655967508"><ele>75.669</ele><time>2026-04-20T23:16:47.000Z</time></trkpt>
   <trkpt lat="59.0604630226" lon="29.965532294"><ele>79.029</ele><time>2026-04-20T23:17:03.000Z</time></trkpt>
   <trkpt lat="59.0605321733" lon="29.9655242473"><ele>79.469</ele><time>2026-04-20T23:17:17.000Z</time></trkpt>
   <trkpt lat="59.0605660362" lon="29.9654991016"><ele>78.279</ele><time>2026-04-20T23:17:39.000Z</time></trkpt>
   <trkpt lat="59.0605909305" lon="29.9655113392"><ele>78.029</ele><time>2026-04-20T23:17:54.000Z</time></trkpt>
   <trkpt lat="59.060663853" lon="29.9655258399"><ele>78.849</ele><time>2026-04-20T23:18:08.000Z</time></trkpt>
   <trkpt lat="59.0607484264" lon="29.9655384127"><ele>85.979</ele><time>2026-04-20T23:18:19.000Z</time></trkpt>
   <trkpt lat="59.0607997237" lon="29.9655181285"><ele>80.429</ele><time>2026-04-20T23:18:33.000Z</time></trkpt>
   <trkpt lat="59.0608561339" lon="29.9654917255"><ele>82.339</ele><time>2026-04-20T23:18:52.000Z</time></trkpt>
   <trkpt lat="59.0608755799" lon="29.9654916417"><ele>82.329</ele><time>2026-04-20T23:19:08.000Z</time></trkpt>
   <trkpt lat="59.0609206746" lon="29.9654714413"><ele>82.599</ele><time>2026-04-20T23:19:21.000Z</time></trkpt>
   <trkpt lat="59.0609549565" lon="29.9655015324"><ele>80.599</ele><time>2026-04-20T23:19:45.000Z</time></trkpt>
   <trkpt lat="59.0609486701" lon="29.9655079864"><ele>78.779</ele><time>2026-04-20T23:20:27.000Z</time></trkpt>
   <trkpt lat="59.0609717203" lon="29.9655269295"><ele>78.239</ele><time>2026-04-20T23:20:47.000Z</time></trkpt>
   <trkpt lat="59.0610086845" lon="29.9656493891"><ele>78.619</ele><time>2026-04-20T23:21:01.000Z</time></trkpt>
   <trkpt lat="59.0610078463" lon="29.9657262512"><ele>78.259</ele><time>2026-04-20T23:21:09.000Z</time></trkpt>
   <trkpt lat="59.0610143842" lon="29.9657037039"><ele>81.109</ele><time>2026-04-20T23:21:25.000Z</time></trkpt>
   <trkpt lat="59.0610322377" lon="29.9657575995"><ele>78.389</ele><time>2026-04-20T23:21:53.000Z</time></trkpt>
   <trkpt lat="59.0610801822" lon="29.9657792248"><ele>83.619</ele><time>2026-04-20T23:22:06.000Z</time></trkpt>
   <trkpt lat="59.0611105247" lon="29.9658415862"><ele>81.919</ele><time>2026-04-20T23:22:20.000Z</time></trkpt>
   <trkpt lat="59.0611705391" lon="29.9658956495"><ele>79.889</ele><time>2026-04-20T23:22:37.000Z</time></trkpt>
   <trkpt lat="59.0612255244" lon="29.9659371399"><ele>80.639</ele><time>2026-04-20T23:22:51.000Z</time></trkpt>
   <trkpt lat="59.0612688588" lon="29.9658184521"><ele>80.449</ele><time>2026-04-20T23:23:10.000Z</time></trkpt>
   <trkpt lat="59.0612893107" lon="29.9657423444"><ele>81.289</ele><time>2026-04-20T23:23:21.000Z</time></trkpt>
   <trkpt lat="59.0613414461" lon="29.9656869401"><ele>79.509</ele><time>2026-04-20T23:23:43.000Z</time></trkpt>
   <trkpt lat="59.0613587128" lon="29.965672607"><ele>79.519</ele><time>2026-04-20T23:23:45.000Z</time></trkpt>
   <trkpt lat="59.0614648277" lon="29.9656477966"><ele>78.499</ele><time>2026-04-20T23:23:58.000Z</time></trkpt>
   <trkpt lat="59.0614685157" lon="29.9656415101"><ele>79.119</ele><time>2026-04-20T23:24:07.000Z</time></trkpt>
   <trkpt lat="59.0614509137" lon="29.9656182085"><ele>78.489</ele><time>2026-04-20T23:24:26.000Z</time></trkpt>
   <trkpt lat="59.0614551885" lon="29.9656249978"><ele>78.549</ele><time>2026-04-20T23:24:54.000Z</time></trkpt>
   <trkpt lat="59.0614685157" lon="29.9656469584"><ele>78.229</ele><time>2026-04-20T23:25:44.000Z</time></trkpt>
   <trkpt lat="59.0614718685" lon="29.9656335473"><ele>78.319</ele><time>2026-04-20T23:26:30.000Z</time></trkpt>
   <trkpt lat="59.061498523" lon="29.9656215612"><ele>74.989</ele><time>2026-04-20T23:26:46.000Z</time></trkpt>
   <trkpt lat="59.0615887122" lon="29.965622148"><ele>76.259</ele><time>2026-04-20T23:26:57.000Z</time></trkpt>
   <trkpt lat="59.0616174622" lon="29.965608234"><ele>76.989</ele><time>2026-04-20T23:27:01.000Z</time></trkpt>
   <trkpt lat="59.061700443" lon="29.9656835873"><ele>78.459</ele><time>2026-04-20T23:27:14.000Z</time></trkpt>
   <trkpt lat="59.0617643131" lon="29.9657133431"><ele>76.999</ele><time>2026-04-20T23:27:27.000Z</time></trkpt>
   <trkpt lat="59.061813934" lon="29.965727257"><ele>78.399</ele><time>2026-04-20T23:27:44.000Z</time></trkpt>
   <trkpt lat="59.0618451147" lon="29.9656703439"><ele>77.649</ele><time>2026-04-20T23:27:58.000Z</time></trkpt>
   <trkpt lat="59.0619310292" lon="29.9656861857"><ele>78.469</ele><time>2026-04-20T23:28:12.000Z</time></trkpt>
   <trkpt lat="59.0619981682" lon="29.9656845093"><ele>76.769</ele><time>2026-04-20T23:28:25.000Z</time></trkpt>
   <trkpt lat="59.0620985834" lon="29.9657094874"><ele>76.949</ele><time>2026-04-20T23:28:38.000Z</time></trkpt>
   <trkpt lat="59.0621607771" lon="29.9657120858"><ele>77.539</ele><time>2026-04-20T23:28:48.000Z</time></trkpt>
   <trkpt lat="59.062221043" lon="29.9657052126"><ele>77.339</ele><time>2026-04-20T23:29:02.000Z</time></trkpt>
   <trkpt lat="59.062271083" lon="29.9657309451"><ele>78.419</ele><time>2026-04-20T23:29:15.000Z</time></trkpt>
   <trkpt lat="59.0623284152" lon="29.9657316156"><ele>77.949</ele><time>2026-04-20T23:29:29.000Z</time></trkpt>
   <trkpt lat="59.0623672234" lon="29.9656666559"><ele>77.559</ele><time>2026-04-20T23:29:39.000Z</time></trkpt>
   <trkpt lat="59.0624161737" lon="29.9656539992"><ele>77.449</ele><time>2026-04-20T23:29:56.000Z</time></trkpt>
   <trkpt lat="59.0624697341" lon="29.9657189589"><ele>78.159</ele><time>2026-04-20T23:30:06.000Z</time></trkpt>
   <trkpt lat="59.0625256414" lon="29.9657326214"><ele>79.829</ele><time>2026-04-20T23:30:18.000Z</time></trkpt>
   <trkpt lat="59.0625696464" lon="29.9656801507"><ele>75.959</ele><time>2026-04-20T23:30:32.000Z</time></trkpt>
   <trkpt lat="59.0626113882" lon="29.9656907957"><ele>75.919</ele><time>2026-04-20T23:30:48.000Z</time></trkpt>
   <trkpt lat="59.0626393838" lon="29.9656940647"><ele>75.829</ele><time>2026-04-20T23:30:52.000Z</time></trkpt>
   <trkpt lat="59.062751366" lon="29.9657379859"><ele>77.729</ele><time>2026-04-20T23:31:04.000Z</time></trkpt>
   <trkpt lat="59.062764358" lon="29.9658448551"><ele>77.089</ele><time>2026-04-20T23:31:16.000Z</time></trkpt>
   <trkpt lat="59.0628197624" lon="29.9659600225"><ele>76.869</ele><time>2026-04-20T23:31:38.000Z</time></trkpt>
   <trkpt lat="59.0628659466" lon="29.9659668956"><ele>81.319</ele><time>2026-04-20T23:31:53.000Z</time></trkpt>
   <trkpt lat="59.0629261287" lon="29.9660328612"><ele>83.899</ele><time>2026-04-20T23:32:06.000Z</time></trkpt>
   <trkpt lat="59.0629360193" lon="29.9660800513"><ele>82.279</ele><time>2026-04-20T23:32:24.000Z</time></trkpt>
   <trkpt lat="59.0629714748" lon="29.9661201168"><ele>82.149</ele><time>2026-04-20T23:32:35.000Z</time></trkpt>
   <trkpt lat="59.062985724" lon="29.9661626969"><ele>81.079</ele><time>2026-04-20T23:32:50.000Z</time></trkpt>
   <trkpt lat="59.0629786832" lon="29.9661578354"><ele>79.969</ele><time>2026-04-20T23:33:13.000Z</time></trkpt>
   <trkpt lat="59.0629821198" lon="29.9661456816"><ele>79.069</ele><time>2026-04-20T23:33:38.000Z</time></trkpt>
   <trkpt lat="59.0629860593" lon="29.9661195301"><ele>79.379</ele><time>2026-04-20T23:34:01.000Z</time></trkpt>
   <trkpt lat="59.0629770907" lon="29.9661243916"><ele>79.479</ele><time>2026-04-20T23:34:42.000Z</time></trkpt>
   <trkpt lat="59.0630184135" lon="29.9661124893"><ele>80.289</ele><time>2026-04-20T23:35:06.000Z</time></trkpt>
   <trkpt lat="59.063104328" lon="29.9660982401"><ele>78.919</ele><time>2026-04-20T23:35:19.000Z</time></trkpt>
   <trkpt lat="59.0631803518" lon="29.9661022634"><ele>77.069</ele><time>2026-04-20T23:35:35.000Z</time></trkpt>
   <trkpt lat="59.0631926732" lon="29.9660245631"><ele>77.699</ele><time>2026-04-20T23:35:45.000Z</time></trkpt>
   <trkpt lat="59.0632467365" lon="29.9659962323"><ele>79.849</ele><time>2026-04-20T23:35:54.000Z</time></trkpt>
   <trkpt lat="59.0633375125" lon="29.9660253175"><ele>79.979</ele><time>2026-04-20T23:36:07.000Z</time></trkpt>
   <trkpt lat="59.0633922463" lon="29.9660373874"><ele>79.179</ele><time>2026-04-20T23:36:21.000Z</time></trkpt>
   <trkpt lat="59.0635178911" lon="29.9660365492"><ele>78.669</ele><time>2026-04-20T23:36:38.000Z</time></trkpt>
   <trkpt lat="59.0635832699" lon="29.9660998326"><ele>79.699</ele><time>2026-04-20T23:36:50.000Z</time></trkpt>
   <trkpt lat="59.0636587909" lon="29.9661600147"><ele>77.779</ele><time>2026-04-20T23:37:04.000Z</time></trkpt>
   <trkpt lat="59.0636720343" lon="29.9662165925"><ele>78.299</ele><time>2026-04-20T23:37:20.000Z</time></trkpt>
   <trkpt lat="59.063731462" lon="29.9662626092"><ele>78.189</ele><time>2026-04-20T23:37:44.000Z</time></trkpt>
   <trkpt lat="59.0638091622" lon="29.9663784471"><ele>78.229</ele><time>2026-04-20T23:38:16.000Z</time></trkpt>
   <trkpt lat="59.0638590345" lon="29.9666090332"><ele>79.089</ele><time>2026-04-20T23:38:39.000Z</time></trkpt>
   <trkpt lat="59.063900944" lon="29.9667743244"><ele>78.319</ele><time>2026-04-20T23:39:02.000Z</time></trkpt>
   <trkpt lat="59.0639901275" lon="29.9668707162"><ele>80.419</ele><time>2026-04-20T23:39:23.000Z</time></trkpt>
   <trkpt lat="59.0640989246" lon="29.9669846263"><ele>79.649</ele><time>2026-04-20T23:39:49.000Z</time></trkpt>
   <trkpt lat="59.0641412532" lon="29.9670285475"><ele>80.289</ele><time>2026-04-20T23:40:04.000Z</time></trkpt>
   <trkpt lat="59.0641590228" lon="29.9670132086"><ele>75.879</ele><time>2026-04-20T23:40:18.000Z</time></trkpt>
   <trkpt lat="59.0642032793" lon="29.9669943493"><ele>74.809</ele><time>2026-04-20T23:40:38.000Z</time></trkpt>
   <trkpt lat="59.0642832426" lon="29.9669205048"><ele>73.639</ele><time>2026-04-20T23:40:53.000Z</time></trkpt>
   <trkpt lat="59.0643217156" lon="29.9669219297"><ele>75.499</ele><time>2026-04-20T23:41:23.000Z</time></trkpt>
   <trkpt lat="59.0643569196" lon="29.9669312336"><ele>75.699</ele><time>2026-04-20T23:41:42.000Z</time></trkpt>
   <trkpt lat="59.0643581769" lon="29.9669269588"><ele>75.949</ele><time>2026-04-20T23:42:12.000Z</time></trkpt>
   <trkpt lat="59.0643664749" lon="29.9669360113"><ele>76.789</ele><time>2026-04-20T23:43:16.000Z</time></trkpt>
   <trkpt lat="59.0643656368" lon="29.9669542838"><ele>77.799</ele><time>2026-04-20T23:43:57.000Z</time></trkpt>
   <trkpt lat="59.064361362" lon="29.9669451475"><ele>78.219</ele><time>2026-04-20T23:44:47.000Z</time></trkpt>
   <trkpt lat="59.0643936323" lon="29.9669428006"><ele>79.199</ele><time>2026-04-20T23:45:20.000Z</time></trkpt>
   <trkpt lat="59.0645123201" lon="29.9669070937"><ele>80.139</ele><time>2026-04-20T23:45:32.000Z</time></trkpt>
   <trkpt lat="59.0645974802" lon="29.9669509311"><ele>79.769</ele><time>2026-04-20T23:45:45.000Z</time></trkpt>
   <trkpt lat="59.0646785332" lon="29.9669521883"><ele>79.629</ele><time>2026-04-20T23:46:00.000Z</time></trkpt>
   <trkpt lat="59.0647422357" lon="29.9669308145"><ele>79.409</ele><time>2026-04-20T23:46:18.000Z</time></trkpt>
   <trkpt lat="59.0647583289" lon="29.9668930959"><ele>79.259</ele><time>2026-04-20T23:46:26.000Z</time></trkpt>
   <trkpt lat="59.06484768" lon="29.9667720612"><ele>79.889</ele><time>2026-04-20T23:46:38.000Z</time></trkpt>
   <trkpt lat="59.0649317505" lon="29.9667394556"><ele>79.559</ele><time>2026-04-20T23:46:52.000Z</time></trkpt>
   <trkpt lat="59.0650177488" lon="29.9667421379"><ele>80.619</ele><time>2026-04-20T23:47:03.000Z</time></trkpt>
   <trkpt lat="59.0650413858" lon="29.9667221051"><ele>80.509</ele><time>2026-04-20T23:47:08.000Z</time></trkpt>
   <trkpt lat="59.0650976284" lon="29.9667261284"><ele>76.699</ele><time>2026-04-20T23:47:20.000Z</time></trkpt>
   <trkpt lat="59.0651978759" lon="29.9667312414"><ele>76.969</ele><time>2026-04-20T23:47:36.000Z</time></trkpt>
   <trkpt lat="59.0652284699" lon="29.9667798564"><ele>78.479</ele><time>2026-04-20T23:48:10.000Z</time></trkpt>
   <trkpt lat="59.065245569" lon="29.9668808584"><ele>78.459</ele><time>2026-04-20T23:48:32.000Z</time></trkpt>
   <trkpt lat="59.0652424676" lon="29.9670225125"><ele>78.249</ele><time>2026-04-20T23:48:52.000Z</time></trkpt>
   <trkpt lat="59.0652663561" lon="29.9671129533"><ele>77.799</ele><time>2026-04-20T23:49:13.000Z</time></trkpt>
   <trkpt lat="59.0652709661" lon="29.9672533501"><ele>78.039</ele><time>2026-04-20T23:49:28.000Z</time></trkpt>
   <trkpt lat="59.0652854668" lon="29.9674275261"><ele>79.419</ele><time>2026-04-20T23:49:40.000Z</time></trkpt>
   <trkpt lat="59.0652646797" lon="29.967561888"><ele>78.689</ele><time>2026-04-20T23:49:53.000Z</time></trkpt>
   <trkpt lat="59.0652926752" lon="29.9676752113"><ele>78.789</ele><time>2026-04-20T23:50:16.000Z</time></trkpt>
   <trkpt lat="59.0652954413" lon="29.967791636"><ele>80.299</ele><time>2026-04-20T23:50:37.000Z</time></trkpt>
   <trkpt lat="59.065314552" lon="29.9679140956"><ele>79.849</ele><time>2026-04-20T23:50:48.000Z</time></trkpt>
   <trkpt lat="59.0653239397" lon="29.9679254111"><ele>78.789</ele><time>2026-04-20T23:51:23.000Z</time></trkpt>
   <trkpt lat="59.0653190782" lon="29.9679248244"><ele>77.599</ele><time>2026-04-20T23:52:02.000Z</time></trkpt>
   <trkpt lat="59.0653231854" lon="29.9680326157"><ele>77.639</ele><time>2026-04-20T23:52:47.000Z</time></trkpt>
   <trkpt lat="59.0653331598" lon="29.9681867589"><ele>77.859</ele><time>2026-04-20T23:53:01.000Z</time></trkpt>
   <trkpt lat="59.0653709622" lon="29.9683355376"><ele>77.539</ele><time>2026-04-20T23:53:17.000Z</time></trkpt>
   <trkpt lat="59.0653587246" lon="29.9685500306"><ele>78.449</ele><time>2026-04-20T23:53:33.000Z</time></trkpt>
   <trkpt lat="59.0653541146" lon="29.9686924391"><ele>78.019</ele><time>2026-04-20T23:53:44.000Z</time></trkpt>
   <trkpt lat="59.065385882" lon="29.9688949459"><ele>78.979</ele><time>2026-04-20T23:53:56.000Z</time></trkpt>
   <trkpt lat="59.0653885642" lon="29.9690357618"><ele>78.339</ele><time>2026-04-20T23:54:14.000Z</time></trkpt>
   <trkpt lat="59.0653950183" lon="29.9691321537"><ele>77.789</ele><time>2026-04-20T23:54:30.000Z</time></trkpt>
   <trkpt lat="59.0654073397" lon="29.969256625"><ele>76.589</ele><time>2026-04-20T23:54:48.000Z</time></trkpt>
   <trkpt lat="59.0654193258" lon="29.9694273644"><ele>75.929</ele><time>2026-04-20T23:55:07.000Z</time></trkpt>
   <trkpt lat="59.0654256122" lon="29.9695291207"><ele>75.479</ele><time>2026-04-20T23:55:20.000Z</time></trkpt>
   <trkpt lat="59.0654434657" lon="29.969632721"><ele>75.699</ele><time>2026-04-20T23:55:41.000Z</time></trkpt>
   <trkpt lat="59.0654569605" lon="29.9697581981"><ele>76.469</ele><time>2026-04-20T23:55:56.000Z</time></trkpt>
   <trkpt lat="59.0654487463" lon="29.9697688431"><ele>77.559</ele><time>2026-04-20T23:56:41.000Z</time></trkpt>
   <trkpt lat="59.0654598104" lon="29.969786948"><ele>77.919</ele><time>2026-04-20T23:57:20.000Z</time></trkpt>
   <trkpt lat="59.0654906558" lon="29.9699457012"><ele>78.639</ele><time>2026-04-20T23:57:36.000Z</time></trkpt>
   <trkpt lat="59.0654858781" lon="29.9701204639"><ele>77.979</ele><time>2026-04-20T23:57:51.000Z</time></trkpt>
   <trkpt lat="59.0655020552" lon="29.9702948075"><ele>77.909</ele><time>2026-04-20T23:58:03.000Z</time></trkpt>
   <trkpt lat="59.0655223394" lon="29.9703316879"><ele>77.099</ele><time>2026-04-20T23:58:09.000Z</time></trkpt>
   <trkpt lat="59.0655162206" lon="29.9703921214"><ele>74.839</ele><time>2026-04-20T23:58:15.000Z</time></trkpt>
   <trkpt lat="59.0655301346" lon="29.9704645411"><ele>74.699</ele><time>2026-04-20T23:58:30.000Z</time></trkpt>
   <trkpt lat="59.0655284582" lon="29.9706377112"><ele>75.679</ele><time>2026-04-20T23:58:46.000Z</time></trkpt>
   <trkpt lat="59.0655332359" lon="29.9707876634"><ele>76.029</ele><time>2026-04-20T23:59:04.000Z</time></trkpt>
   <trkpt lat="59.0655645842" lon="29.9709765077"><ele>76.679</ele><time>2026-04-20T23:59:19.000Z</time></trkpt>
   <trkpt lat="59.0655781629" lon="29.971155629"><ele>77.529</ele><time>2026-04-20T23:59:33.000Z</time></trkpt>
   <trkpt lat="59.0656038115" lon="29.9713197466"><ele>78.069</ele><time>2026-04-20T23:59:45.000Z</time></trkpt>
   <trkpt lat="59.0656304659" lon="29.9713974469"><ele>78.549</ele><time>2026-04-21T00:00:10.000Z</time></trkpt>
   <trkpt lat="59.0656527618" lon="29.9715504166"><ele>77.989</ele><time>2026-04-21T00:00:25.000Z</time></trkpt>
   <trkpt lat="59.0656601379" lon="29.9716082517"><ele>80.629</ele><time>2026-04-21T00:00:43.000Z</time></trkpt>
   <trkpt lat="59.0656701123" lon="29.9716963455"><ele>78.739</ele><time>2026-04-21T00:01:00.000Z</time></trkpt>
   <trkpt lat="59.0656743871" lon="29.9717996944"><ele>78.579</ele><time>2026-04-21T00:01:20.000Z</time></trkpt>
   <trkpt lat="59.0656724593" lon="29.9718968407"><ele>78.279</ele><time>2026-04-21T00:01:39.000Z</time></trkpt>
   <trkpt lat="59.0656636583" lon="29.9720115051"><ele>78.749</ele><time>2026-04-21T00:01:59.000Z</time></trkpt>
   <trkpt lat="59.0656342378" lon="29.9721472919"><ele>78.529</ele><time>2026-04-21T00:02:17.000Z</time></trkpt>
   <trkpt lat="59.0656509178" lon="29.9722564243"><ele>77.759</ele><time>2026-04-21T00:02:32.000Z</time></trkpt>
   <trkpt lat="59.0656650832" lon="29.972314008"><ele>78.309</ele><time>2026-04-21T00:02:47.000Z</time></trkpt>
   <trkpt lat="59.0656680169" lon="29.972326497"><ele>76.969</ele><time>2026-04-21T00:03:01.000Z</time></trkpt>
   <trkpt lat="59.0656647479" lon="29.9723051232"><ele>77.409</ele><time>2026-04-21T00:03:28.000Z</time></trkpt>
   <trkpt lat="59.0656638259" lon="29.972311242"><ele>78.209</ele><time>2026-04-21T00:04:16.000Z</time></trkpt>
   <trkpt lat="59.0656490738" lon="29.9723035306"><ele>77.989</ele><time>2026-04-21T00:04:53.000Z</time></trkpt>
   <trkpt lat="59.0656569528" lon="29.9723175284"><ele>77.819</ele><time>2026-04-21T00:05:19.000Z</time></trkpt>
   <trkpt lat="59.065668436" lon="29.9723233957"><ele>78.329</ele><time>2026-04-21T00:06:02.000Z</time></trkpt>
   <trkpt lat="59.0656771531" lon="29.9723071348"><ele>78.939</ele><time>2026-04-21T00:07:02.000Z</time></trkpt>
   <trkpt lat="59.0656616466" lon="29.9723062128"><ele>79.369</ele><time>2026-04-21T00:07:56.000Z</time></trkpt>
   <trkpt lat="59.0656871276" lon="29.9724249844"><ele>78.939</ele><time>2026-04-21T00:08:18.000Z</time></trkpt>
   <trkpt lat="59.0656812603" lon="29.9725274951"><ele>78.579</ele><time>2026-04-21T00:08:36.000Z</time></trkpt>
   <trkpt lat="59.0656882173" lon="29.9726504576"><ele>81.959</ele><time>2026-04-21T00:08:47.000Z</time></trkpt>
   <trkpt lat="59.0657111837" lon="29.9728639447"><ele>81.249</ele><time>2026-04-21T00:09:00.000Z</time></trkpt>
   <trkpt lat="59.0657532608" lon="29.9730050121"><ele>81.139</ele><time>2026-04-21T00:09:13.000Z</time></trkpt>
   <trkpt lat="59.0657762272" lon="29.9731003143"><ele>78.939</ele><time>2026-04-21T00:09:29.000Z</time></trkpt>
   <trkpt lat="59.0657827651" lon="29.973215817"><ele>78.609</ele><time>2026-04-21T00:09:44.000Z</time></trkpt>
   <trkpt lat="59.0657827651" lon="29.9732861411"><ele>78.899</ele><time>2026-04-21T00:09:49.000Z</time></trkpt>
   <trkpt lat="59.0657908118" lon="29.9733516038"><ele>78.889</ele><time>2026-04-21T00:09:53.000Z</time></trkpt>
   <trkpt lat="59.0658168795" lon="29.9733777553"><ele>79.029</ele><time>2026-04-21T00:10:13.000Z</time></trkpt>
   <trkpt lat="59.0658107607" lon="29.9734964431"><ele>79.859</ele><time>2026-04-21T00:10:33.000Z</time></trkpt>
   <trkpt lat="59.0658034684" lon="29.9735730537"><ele>79.359</ele><time>2026-04-21T00:10:49.000Z</time></trkpt>
   <trkpt lat="59.06579626" lon="29.9736110237"><ele>78.779</ele><time>2026-04-21T00:11:09.000Z</time></trkpt>
   <trkpt lat="59.065816628" lon="29.9738089204"><ele>78.669</ele><time>2026-04-21T00:11:22.000Z</time></trkpt>
   <trkpt lat="59.0658274407" lon="29.9739283625"><ele>79.149</ele><time>2026-04-21T00:11:35.000Z</time></trkpt>
   <trkpt lat="59.0658456294" lon="29.9740364053"><ele>81.289</ele><time>2026-04-21T00:11:50.000Z</time></trkpt>
   <trkpt lat="59.0658480602" lon="29.9740535044"><ele>80.929</ele><time>2026-04-21T00:11:52.000Z</time></trkpt>
   <trkpt lat="59.0658540113" lon="29.9741299473"><ele>81.159</ele><time>2026-04-21T00:12:06.000Z</time></trkpt>
   <trkpt lat="59.0658340624" lon="29.9742175382"><ele>82.649</ele><time>2026-04-21T00:12:19.000Z</time></trkpt>
   <trkpt lat="59.0658459647" lon="29.9741789814"><ele>80.759</ele><time>2026-04-21T00:12:34.000Z</time></trkpt>
   <trkpt lat="59.0658577832" lon="29.9742132634"><ele>80.559</ele><time>2026-04-21T00:12:52.000Z</time></trkpt>
   <trkpt lat="59.065858789" lon="29.9742027861"><ele>80.479</ele><time>2026-04-21T00:13:32.000Z</time></trkpt>
   <trkpt lat="59.0658542628" lon="29.9742006068"><ele>80.029</ele><time>2026-04-21T00:14:10.000Z</time></trkpt>
   <trkpt lat="59.0658234174" lon="29.9743606173"><ele>34.669</ele><time>2026-04-21T00:18:02.000Z</time></trkpt>
   <trkpt lat="59.0658751337" lon="29.9743570969"><ele>32.409</ele><time>2026-04-21T00:18:11.000Z</time></trkpt>
   <trkpt lat="59.065935651" lon="29.9747740966"><ele>44.749</ele><time>2026-04-21T00:18:25.000Z</time></trkpt>
   <trkpt lat="59.0659739563" lon="29.9749519606"><ele>58.319</ele><time>2026-04-21T00:18:36.000Z</time></trkpt>
   <trkpt lat="59.06590095" lon="29.9751381226"><ele>65.029</ele><time>2026-04-21T00:18:46.000Z</time></trkpt>
   <trkpt lat="59.0658957532" lon="29.9752692994"><ele>65.229</ele><time>2026-04-21T00:19:00.000Z</time></trkpt>
   <trkpt lat="59.0659041351" lon="29.9754012306"><ele>64.879</ele><time>2026-04-21T00:19:12.000Z</time></trkpt>
   <trkpt lat="59.0659111759" lon="29.9755473271"><ele>64.929</ele><time>2026-04-21T00:19:24.000Z</time></trkpt>
   <trkpt lat="59.065906482" lon="29.9757272028"><ele>64.639</ele><time>2026-04-21T00:19:38.000Z</time></trkpt>
   <trkpt lat="59.0659408478" lon="29.9758652527"><ele>65.999</ele><time>2026-04-21T00:19:55.000Z</time></trkpt>
   <trkpt lat="59.0659667479" lon="29.9760783207"><ele>73.149</ele><time>2026-04-21T00:20:28.000Z</time></trkpt>
   <trkpt lat="59.0659763871" lon="29.9761545122"><ele>77.189</ele><time>2026-04-21T00:21:04.000Z</time></trkpt>
   <trkpt lat="59.0659758842" lon="29.9761053104"><ele>77.729</ele><time>2026-04-21T00:21:59.000Z</time></trkpt>
   <trkpt lat="59.0660104176" lon="29.9761434481"><ele>79.239</ele><time>2026-04-21T00:22:43.000Z</time></trkpt>
   <trkpt lat="59.066000527" lon="29.9762752116"><ele>77.519</ele><time>2026-04-21T00:22:54.000Z</time></trkpt>
   <trkpt lat="59.0660028739" lon="29.9764032033"><ele>77.689</ele><time>2026-04-21T00:23:09.000Z</time></trkpt>
   <trkpt lat="59.0660099147" lon="29.9765337933"><ele>77.829</ele><time>2026-04-21T00:23:27.000Z</time></trkpt>
   <trkpt lat="59.0660125131" lon="29.9766025249"><ele>79.349</ele><time>2026-04-21T00:23:43.000Z</time></trkpt>
   <trkpt lat="59.0660280196" lon="29.9765748646"><ele>78.359</ele><time>2026-04-21T00:24:03.000Z</time></trkpt>
   <trkpt lat="59.0660063105" lon="29.9765407503"><ele>77.779</ele><time>2026-04-21T00:24:18.000Z</time></trkpt>
   <trkpt lat="59.0659619702" lon="29.9765906226"><ele>78.149</ele><time>2026-04-21T00:24:32.000Z</time></trkpt>
   <trkpt lat="59.0659246707" lon="29.9765880242"><ele>77.249</ele><time>2026-04-21T00:25:04.000Z</time></trkpt>
   <trkpt lat="59.0658182206" lon="29.9765398283"><ele>77.179</ele><time>2026-04-21T00:25:20.000Z</time></trkpt>
   <trkpt lat="59.0657165481" lon="29.976520047"><ele>77.239</ele><time>2026-04-21T00:25:35.000Z</time></trkpt>
   <trkpt lat="59.0656982755" lon="29.9764601164"><ele>77.889</ele><time>2026-04-21T00:25:41.000Z</time></trkpt>
   <trkpt lat="59.0655820185" lon="29.9764109146"><ele>77.029</ele><time>2026-04-21T00:25:53.000Z</time></trkpt>
   <trkpt lat="59.0655465631" lon="29.9763351422"><ele>77.959</ele><time>2026-04-21T00:26:06.000Z</time></trkpt>
   <trkpt lat="59.065516975" lon="29.9761872016"><ele>78.619</ele><time>2026-04-21T00:26:14.000Z</time></trkpt>
   <trkpt lat="59.0654862134" lon="29.9760239222"><ele>76.799</ele><time>2026-04-21T00:26:25.000Z</time></trkpt>
   <trkpt lat="59.0654361734" lon="29.9759657517"><ele>76.699</ele><time>2026-04-21T00:26:44.000Z</time></trkpt>
   <trkpt lat="59.0652959442" lon="29.9759119399"><ele>77.299</ele><time>2026-04-21T00:26:56.000Z</time></trkpt>
   <trkpt lat="59.0651592353" lon="29.9759238422"><ele>77.609</ele><time>2026-04-21T00:27:19.000Z</time></trkpt>
   <trkpt lat="59.0650906714" lon="29.9759452999"><ele>76.849</ele><time>2026-04-21T00:27:35.000Z</time></trkpt>
   <trkpt lat="59.0649513641" lon="29.9759939988"><ele>77.679</ele><time>2026-04-21T00:27:48.000Z</time></trkpt>
   <trkpt lat="59.0648609234" lon="29.9760211561"><ele>79.909</ele><time>2026-04-21T00:28:03.000Z</time></trkpt>
   <trkpt lat="59.0648276473" lon="29.9760621436"><ele>79.309</ele><time>2026-04-21T00:28:23.000Z</time></trkpt>
   <trkpt lat="59.0648076145" lon="29.9760530912"><ele>79.259</ele><time>2026-04-21T00:28:45.000Z</time></trkpt>
   <trkpt lat="59.0647725782" lon="29.9761337251"><ele>78.839</ele><time>2026-04-21T00:29:00.000Z</time></trkpt>
   <trkpt lat="59.0647553114" lon="29.9761252594"><ele>78.979</ele><time>2026-04-21T00:29:23.000Z</time></trkpt>
   <trkpt lat="59.0647474324" lon="29.9759912327"><ele>79.509</ele><time>2026-04-21T00:30:02.000Z</time></trkpt>
   <trkpt lat="59.0646983145" lon="29.9755174037"><ele>80.439</ele><time>2026-04-21T00:30:23.000Z</time></trkpt>
   <trkpt lat="59.0646974763" lon="29.9753523641"><ele>81.149</ele><time>2026-04-21T00:30:47.000Z</time></trkpt>
   <trkpt lat="59.0646778626" lon="29.9750961293"><ele>81.909</ele><time>2026-04-21T00:31:14.000Z</time></trkpt>
   <trkpt lat="59.0646942912" lon="29.9748169281"><ele>81.309</ele><time>2026-04-21T00:31:32.000Z</time></trkpt>
   <trkpt lat="59.0647157489" lon="29.9747155909"><ele>81.159</ele><time>2026-04-21T00:31:55.000Z</time></trkpt>
   <trkpt lat="59.0647433253" lon="29.9745041993"><ele>80.229</ele><time>2026-04-21T00:32:30.000Z</time></trkpt>
   <trkpt lat="59.0647963828" lon="29.9744539917"><ele>79.769</ele><time>2026-04-21T00:32:54.000Z</time></trkpt>
   <trkpt lat="59.0648113864" lon="29.9741139379"><ele>79.519</ele><time>2026-04-21T00:33:21.000Z</time></trkpt>
   <trkpt lat="59.0648262223" lon="29.9740330525"><ele>80.079</ele><time>2026-04-21T00:33:45.000Z</time></trkpt>
   <trkpt lat="59.0648327602" lon="29.9739779834"><ele>80.279</ele><time>2026-04-21T00:34:09.000Z</time></trkpt>
   <trkpt lat="59.0647945387" lon="29.9738669232"><ele>82.749</ele><time>2026-04-21T00:34:31.000Z</time></trkpt>
   <trkpt lat="59.0648035912" lon="29.9737960961"><ele>82.879</ele><time>2026-04-21T00:34:51.000Z</time></trkpt>
   <trkpt lat="59.0647707341" lon="29.9738061544"><ele>81.269</ele><time>2026-04-21T00:35:32.000Z</time></trkpt>
   <trkpt lat="59.0647606759" lon="29.9738945835"><ele>79.879</ele><time>2026-04-21T00:36:07.000Z</time></trkpt>
   <trkpt lat="59.0647769367" lon="29.9739195615"><ele>78.879</ele><time>2026-04-21T00:36:34.000Z</time></trkpt>
   <trkpt lat="59.0647861568" lon="29.9739465513"><ele>78.519</ele><time>2026-04-21T00:37:30.000Z</time></trkpt>
   <trkpt lat="59.0647806248" lon="29.9739167117"><ele>78.689</ele><time>2026-04-21T00:38:36.000Z</time></trkpt>
   <trkpt lat="59.0647904316" lon="29.9739544303"><ele>78.989</ele><time>2026-04-21T00:39:07.000Z</time></trkpt>
   <trkpt lat="59.0647843128" lon="29.9739662487"><ele>79.139</ele><time>2026-04-21T00:39:48.000Z</time></trkpt>
   <trkpt lat="59.0648072792" lon="29.9739864491"><ele>81.939</ele><time>2026-04-21T00:40:40.000Z</time></trkpt>
   <trkpt lat="59.0647331832" lon="29.9738924042"><ele>80.879</ele><time>2026-04-21T00:41:04.000Z</time></trkpt>
   <trkpt lat="59.0646493642" lon="29.9736323975"><ele>80.199</ele><time>2026-04-21T00:41:25.000Z</time></trkpt>
   <trkpt lat="59.064579962" lon="29.9735198286"><ele>79.059</ele><time>2026-04-21T00:41:40.000Z</time></trkpt>
   <trkpt lat="59.0645196123" lon="29.9732967861"><ele>78.409</ele><time>2026-04-21T00:41:56.000Z</time></trkpt>
   <trkpt lat="59.0644772837" lon="29.9731234484"><ele>75.539</ele><time>2026-04-21T00:42:08.000Z</time></trkpt>
   <trkpt lat="59.0644496234" lon="29.9729459197"><ele>75.469</ele><time>2026-04-21T00:42:21.000Z</time></trkpt>
   <trkpt lat="59.064453982" lon="29.97294022"><ele>74.999</ele><time>2026-04-21T00:42:46.000Z</time></trkpt>
   <trkpt lat="59.0644796306" lon="29.9728629388"><ele>75.109</ele><time>2026-04-21T00:42:59.000Z</time></trkpt>
   <trkpt lat="59.0644861685" lon="29.9727988173"><ele>75.229</ele><time>2026-04-21T00:43:12.000Z</time></trkpt>
   <trkpt lat="59.0644878449" lon="29.9728017509"><ele>76.019</ele><time>2026-04-21T00:43:33.000Z</time></trkpt>
   <trkpt lat="59.0644622801" lon="29.9727919441"><ele>75.899</ele><time>2026-04-21T00:43:45.000Z</time></trkpt>
   <trkpt lat="59.0644420797" lon="29.9727766052"><ele>75.849</ele><time>2026-04-21T00:44:04.000Z</time></trkpt>
   <trkpt lat="59.0644538144" lon="29.9728189338"><ele>75.579</ele><time>2026-04-21T00:44:38.000Z</time></trkpt>
   <trkpt lat="59.0644289201" lon="29.9727626074"><ele>75.169</ele><time>2026-04-21T00:44:59.000Z</time></trkpt>
   <trkpt lat="59.064423891" lon="29.9726281617"><ele>73.689</ele><time>2026-04-21T00:45:11.000Z</time></trkpt>
   <trkpt lat="59.0644343684" lon="29.9725083005"><ele>74.669</ele><time>2026-04-21T00:45:20.000Z</time></trkpt>
   <trkpt lat="59.0644402357" lon="29.9724439275"><ele>74.649</ele><time>2026-04-21T00:45:34.000Z</time></trkpt>
   <trkpt lat="59.0644344522" lon="29.9724243977"><ele>74.689</ele><time>2026-04-21T00:46:04.000Z</time></trkpt>
   <trkpt lat="59.0644171855" lon="29.9723788839"><ele>73.589</ele><time>2026-04-21T00:46:28.000Z</time></trkpt>
   <trkpt lat="59.0644168502" lon="29.972200517"><ele>75.099</ele><time>2026-04-21T00:46:43.000Z</time></trkpt>
   <trkpt lat="59.0644076301" lon="29.9720509"><ele>73.929</ele><time>2026-04-21T00:46:56.000Z</time></trkpt>
   <trkpt lat="59.0644010922" lon="29.9718700186"><ele>73.579</ele><time>2026-04-21T00:47:09.000Z</time></trkpt>
   <trkpt lat="59.0643753598" lon="29.9716698587"><ele>74.059</ele><time>2026-04-21T00:47:22.000Z</time></trkpt>
   <trkpt lat="59.0643511361" lon="29.9715095129"><ele>73.929</ele><time>2026-04-21T00:47:34.000Z</time></trkpt>
   <trkpt lat="59.0643563328" lon="29.971490486"><ele>74.559</ele><time>2026-04-21T00:47:39.000Z</time></trkpt>
   <trkpt lat="59.0643353781" lon="29.9714051582"><ele>72.639</ele><time>2026-04-21T00:47:52.000Z</time></trkpt>
   <trkpt lat="59.0643187819" lon="29.9711791821"><ele>73.329</ele><time>2026-04-21T00:48:13.000Z</time></trkpt>
   <trkpt lat="59.0643098133" lon="29.9710029107"><ele>73.859</ele><time>2026-04-21T00:48:32.000Z</time></trkpt>
   <trkpt lat="59.0642879365" lon="29.9708403018"><ele>74.629</ele><time>2026-04-21T00:48:51.000Z</time></trkpt>
   <trkpt lat="59.0642823206" lon="29.9707108014"><ele>75.279</ele><time>2026-04-21T00:49:06.000Z</time></trkpt>
   <trkpt lat="59.0642657245" lon="29.9705108092"><ele>75.789</ele><time>2026-04-21T00:49:20.000Z</time></trkpt>
   <trkpt lat="59.0642291794" lon="29.9703888525"><ele>77.289</ele><time>2026-04-21T00:49:33.000Z</time></trkpt>
   <trkpt lat="59.0642429257" lon="29.9702175264"><ele>77.049</ele><time>2026-04-21T00:49:59.000Z</time></trkpt>
   <trkpt lat="59.0642376451" lon="29.9700612039"><ele>76.599</ele><time>2026-04-21T00:50:14.000Z</time></trkpt>
   <trkpt lat="59.0642362202" lon="29.970105628"><ele>77.329</ele><time>2026-04-21T00:50:38.000Z</time></trkpt>
   <trkpt lat="59.0642424228" lon="29.9700568453"><ele>76.779</ele><time>2026-04-21T00:51:19.000Z</time></trkpt>
   <trkpt lat="59.0642193725" lon="29.9698716052"><ele>77.069</ele><time>2026-04-21T00:51:32.000Z</time></trkpt>
   <trkpt lat="59.0642015191" lon="29.9696499039"><ele>76.999</ele><time>2026-04-21T00:51:48.000Z</time></trkpt>
   <trkpt lat="59.0641808158" lon="29.9694716208"><ele>76.689</ele><time>2026-04-21T00:52:01.000Z</time></trkpt>
   <trkpt lat="59.0641708413" lon="29.9693598062"><ele>76.609</ele><time>2026-04-21T00:52:16.000Z</time></trkpt>
   <trkpt lat="59.0641781336" lon="29.9692117818"><ele>75.389</ele><time>2026-04-21T00:52:36.000Z</time></trkpt>
   <trkpt lat="59.0641857611" lon="29.9691321537"><ele>75.459</ele><time>2026-04-21T00:52:50.000Z</time></trkpt>
   <trkpt lat="59.0641283451" lon="29.9689883203"><ele>75.789</ele><time>2026-04-21T00:53:10.000Z</time></trkpt>
   <trkpt lat="59.064095488" lon="29.9689265456"><ele>76.259</ele><time>2026-04-21T00:53:26.000Z</time></trkpt>
   <trkpt lat="59.0640933925" lon="29.9687790241"><ele>76.509</ele><time>2026-04-21T00:53:46.000Z</time></trkpt>
   <trkpt lat="59.0640815741" lon="29.9687069398"><ele>77.129</ele><time>2026-04-21T00:54:02.000Z</time></trkpt>
   <trkpt lat="59.0640817417" lon="29.9686965462"><ele>76.869</ele><time>2026-04-21T00:54:19.000Z</time></trkpt>
   <trkpt lat="59.0640685821" lon="29.9687137291"><ele>77.169</ele><time>2026-04-21T00:54:50.000Z</time></trkpt>
   <trkpt lat="59.0640742818" lon="29.9686988093"><ele>77.359</ele><time>2026-04-21T00:55:35.000Z</time></trkpt>
   <trkpt lat="59.0640711805" lon="29.9686845601"><ele>76.679</ele><time>2026-04-21T00:56:27.000Z</time></trkpt>
   <trkpt lat="59.064046873" lon="29.9686873261"><ele>77.489</ele><time>2026-04-21T00:56:56.000Z</time></trkpt>
   <trkpt lat="59.063994067" lon="29.968688332"><ele>77.789</ele><time>2026-04-21T00:57:07.000Z</time></trkpt>
   <trkpt lat="59.0639119243" lon="29.9686474283"><ele>77.879</ele><time>2026-04-21T00:57:20.000Z</time></trkpt>
   <trkpt lat="59.0638335535" lon="29.968682297"><ele>77.639</ele><time>2026-04-21T00:57:35.000Z</time></trkpt>
   <trkpt lat="59.0637946615" lon="29.9686529603"><ele>78.089</ele><time>2026-04-21T00:57:51.000Z</time></trkpt>
   <trkpt lat="59.0637424423" lon="29.9686566484"><ele>77.839</ele><time>2026-04-21T00:58:04.000Z</time></trkpt>
   <trkpt lat="59.0636687653" lon="29.9686659523"><ele>77.489</ele><time>2026-04-21T00:58:16.000Z</time></trkpt>
   <trkpt lat="59.0635928253" lon="29.9687164951"><ele>77.779</ele><time>2026-04-21T00:58:29.000Z</time></trkpt>
   <trkpt lat="59.0635303801" lon="29.9687710613"><ele>77.859</ele><time>2026-04-21T00:58:42.000Z</time></trkpt>
   <trkpt lat="59.063469276" lon="29.9687836342"><ele>78.289</ele><time>2026-04-21T00:59:01.000Z</time></trkpt>
   <trkpt lat="59.0633978622" lon="29.9688687105"><ele>78.489</ele><time>2026-04-21T00:59:16.000Z</time></trkpt>
   <trkpt lat="59.0633401109" lon="29.9688964546"><ele>79.209</ele><time>2026-04-21T00:59:27.000Z</time></trkpt>
   <trkpt lat="59.0632869696" lon="29.9689348437"><ele>79.309</ele><time>2026-04-21T00:59:38.000Z</time></trkpt>
   <trkpt lat="59.0631964451" lon="29.9689742387"><ele>78.939</ele><time>2026-04-21T00:59:54.000Z</time></trkpt>
   <trkpt lat="59.0631343352" lon="29.968984716"><ele>78.439</ele><time>2026-04-21T01:00:07.000Z</time></trkpt>
   <trkpt lat="59.0631327426" lon="29.9689871468"><ele>77.059</ele><time>2026-04-21T01:00:31.000Z</time></trkpt>
   <trkpt lat="59.0631406216" lon="29.9691148032"><ele>77.539</ele><time>2026-04-21T01:00:52.000Z</time></trkpt>
   <trkpt lat="59.0631542841" lon="29.969280262"><ele>77.439</ele><time>2026-04-21T01:01:07.000Z</time></trkpt>
   <trkpt lat="59.0631421303" lon="29.9693256919"><ele>77.159</ele><time>2026-04-21T01:01:24.000Z</time></trkpt>
   <trkpt lat="59.063136263" lon="29.9693577107"><ele>76.619</ele><time>2026-04-21T01:01:42.000Z</time></trkpt>
   <trkpt lat="59.0631472433" lon="29.9695115187"><ele>77.169</ele><time>2026-04-21T01:01:59.000Z</time></trkpt>
   <trkpt lat="59.063149255" lon="29.969533144"><ele>77.119</ele><time>2026-04-21T01:02:00.000Z</time></trkpt>
   <trkpt lat="59.0631560443" lon="29.9697387521"><ele>78.589</ele><time>2026-04-21T01:02:13.000Z</time></trkpt>
   <trkpt lat="59.0631715508" lon="29.9698933982"><ele>77.909</ele><time>2026-04-21T01:02:29.000Z</time></trkpt>
   <trkpt lat="59.0631713832" lon="29.9699419294"><ele>77.589</ele><time>2026-04-21T01:02:45.000Z</time></trkpt>
   <trkpt lat="59.0632025639" lon="29.9699552566"><ele>77.319</ele><time>2026-04-21T01:03:23.000Z</time></trkpt>
   <trkpt lat="59.0631925894" lon="29.9700032011"><ele>76.839</ele><time>2026-04-21T01:04:02.000Z</time></trkpt>
   <trkpt lat="59.0631925894" lon="29.9702200409"><ele>81.219</ele><time>2026-04-21T01:04:15.000Z</time></trkpt>
   <trkpt lat="59.063211784" lon="29.9704224639"><ele>80.229</ele><time>2026-04-21T01:04:30.000Z</time></trkpt>
   <trkpt lat="59.0632259494" lon="29.9705874198"><ele>80.779</ele><time>2026-04-21T01:04:48.000Z</time></trkpt>
   <trkpt lat="59.0632231834" lon="29.9706704006"><ele>79.439</ele><time>2026-04-21T01:05:03.000Z</time></trkpt>
   <trkpt lat="59.0632345827" lon="29.970798057"><ele>78.729</ele><time>2026-04-21T01:05:21.000Z</time></trkpt>
   <trkpt lat="59.0632315653" lon="29.9709791061"><ele>78.369</ele><time>2026-04-21T01:05:41.000Z</time></trkpt>
   <trkpt lat="59.0632649252" lon="29.9711354286"><ele>77.849</ele><time>2026-04-21T01:06:11.000Z</time></trkpt>
   <trkpt lat="59.0632778334" lon="29.971539604"><ele>77.439</ele><time>2026-04-21T01:06:29.000Z</time></trkpt>
   <trkpt lat="59.0633134564" lon="29.9717656639"><ele>77.269</ele><time>2026-04-21T01:06:46.000Z</time></trkpt>
   <trkpt lat="59.0633417873" lon="29.9718991876"><ele>76.639</ele><time>2026-04-21T01:07:00.000Z</time></trkpt>
   <trkpt lat="59.0633654242" lon="29.9720845115"><ele>76.279</ele><time>2026-04-21T01:07:12.000Z</time></trkpt>
   <trkpt lat="59.0633598922" lon="29.9723106552"><ele>76.929</ele><time>2026-04-21T01:07:31.000Z</time></trkpt>
   <trkpt lat="59.0633642508" lon="29.9723277543"><ele>76.339</ele><time>2026-04-21T01:08:02.000Z</time></trkpt>
   <trkpt lat="59.0633722136" lon="29.9723197915"><ele>76.389</ele><time>2026-04-21T01:08:53.000Z</time></trkpt>
   <trkpt lat="59.0633588864" lon="29.9723004293"><ele>76.599</ele><time>2026-04-21T01:10:02.000Z</time></trkpt>
   <trkpt lat="59.0633568747" lon="29.9723151815"><ele>76.409</ele><time>2026-04-21T01:10:28.000Z</time></trkpt>
   <trkpt lat="59.0633554498" lon="29.9723324482"><ele>75.899</ele><time>2026-04-21T01:11:13.000Z</time></trkpt>
   <trkpt lat="59.0633764884" lon="29.9723661434"><ele>75.689</ele><time>2026-04-21T01:11:39.000Z</time></trkpt>
   <trkpt lat="59.0633969402" lon="29.9725476954"><ele>76.069</ele><time>2026-04-21T01:11:53.000Z</time></trkpt>
   <trkpt lat="59.0634038134" lon="29.9727462627"><ele>75.999</ele><time>2026-04-21T01:12:08.000Z</time></trkpt>
   <trkpt lat="59.0634180626" lon="29.9728530482"><ele>75.529</ele><time>2026-04-21T01:12:17.000Z</time></trkpt>
   <trkpt lat="59.0634393526" lon="29.9729486019"><ele>73.959</ele><time>2026-04-21T01:12:27.000Z</time></trkpt>
   <trkpt lat="59.0634451361" lon="29.9731506057"><ele>74.359</ele><time>2026-04-21T01:12:37.000Z</time></trkpt>
   <trkpt lat="59.0634483213" lon="29.9733250332"><ele>74.939</ele><time>2026-04-21T01:12:50.000Z</time></trkpt>
   <trkpt lat="59.0634754786" lon="29.9734291364"><ele>74.639</ele><time>2026-04-21T01:13:02.000Z</time></trkpt>
   <trkpt lat="59.063485034" lon="29.9735230137"><ele>73.899</ele><time>2026-04-21T01:13:19.000Z</time></trkpt>
   <trkpt lat="59.0634996185" lon="29.9736670148"><ele>74.239</ele><time>2026-04-21T01:13:35.000Z</time></trkpt>
   <trkpt lat="59.0635066593" lon="29.9737746384"><ele>74.439</ele><time>2026-04-21T01:13:52.000Z</time></trkpt>
   <trkpt lat="59.0634913204" lon="29.9738658335"><ele>75.349</ele><time>2026-04-21T01:14:10.000Z</time></trkpt>
   <trkpt lat="59.0634876324" lon="29.9739715293"><ele>75.259</ele><time>2026-04-21T01:14:23.000Z</time></trkpt>
   <trkpt lat="59.0634891411" lon="29.9741387483"><ele>75.259</ele><time>2026-04-21T01:14:37.000Z</time></trkpt>
   <trkpt lat="59.0635269435" lon="29.9743246589"><ele>75.599</ele><time>2026-04-21T01:14:52.000Z</time></trkpt>
   <trkpt lat="59.063542953" lon="29.9745579273"><ele>75.269</ele><time>2026-04-21T01:15:08.000Z</time></trkpt>
   <trkpt lat="59.0635628181" lon="29.9747319356"><ele>75.309</ele><time>2026-04-21T01:15:21.000Z</time></trkpt>
   <trkpt lat="59.0635777379" lon="29.9748817202"><ele>75.529</ele><time>2026-04-21T01:15:32.000Z</time></trkpt>
   <trkpt lat="59.0635968486" lon="29.9750780244"><ele>75.399</ele><time>2026-04-21T01:15:44.000Z</time></trkpt>
   <trkpt lat="59.0636192283" lon="29.9753413838"><ele>76.129</ele><time>2026-04-21T01:16:03.000Z</time></trkpt>
   <trkpt lat="59.0636440387" lon="29.9754925933"><ele>74.919</ele><time>2026-04-21T01:16:24.000Z</time></trkpt>
   <trkpt lat="59.0636251794" lon="29.9757297174"><ele>74.869</ele><time>2026-04-21T01:16:41.000Z</time></trkpt>
   <trkpt lat="59.0636455475" lon="29.9759548553"><ele>76.349</ele><time>2026-04-21T01:16:55.000Z</time></trkpt>
   <trkpt lat="59.0636372494" lon="29.976102712"><ele>76.279</ele><time>2026-04-21T01:17:06.000Z</time></trkpt>
   <trkpt lat="59.0636581203" lon="29.9762746249"><ele>76.179</ele><time>2026-04-21T01:17:23.000Z</time></trkpt>
   <trkpt lat="59.063681422" lon="29.9765171133"><ele>75.429</ele><time>2026-04-21T01:17:40.000Z</time></trkpt>
   <trkpt lat="59.0637258461" lon="29.9766952288"><ele>74.769</ele><time>2026-04-21T01:17:56.000Z</time></trkpt>
   <trkpt lat="59.0637428613" lon="29.9769345321"><ele>75.829</ele><time>2026-04-21T01:18:19.000Z</time></trkpt>
   <trkpt lat="59.0637790712" lon="29.9772339337"><ele>75.329</ele><time>2026-04-21T01:18:35.000Z</time></trkpt>
   <trkpt lat="59.0637933204" lon="29.9774609156"><ele>75.929</ele><time>2026-04-21T01:18:53.000Z</time></trkpt>
   <trkpt lat="59.0638053903" lon="29.9776342534"><ele>76.029</ele><time>2026-04-21T01:19:05.000Z</time></trkpt>
   <trkpt lat="59.0638285244" lon="29.9778074235"><ele>76.069</ele><time>2026-04-21T01:19:25.000Z</time></trkpt>
   <trkpt lat="59.0638575258" lon="29.97822962"><ele>75.979</ele><time>2026-04-21T01:20:04.000Z</time></trkpt>
   <trkpt lat="59.0638881197" lon="29.9785912153"><ele>76.019</ele><time>2026-04-21T01:20:23.000Z</time></trkpt>
   <trkpt lat="59.0639186299" lon="29.9787982483"><ele>78.009</ele><time>2026-04-21T01:20:45.000Z</time></trkpt>
   <trkpt lat="59.0639345555" lon="29.9788036127"><ele>80.099</ele><time>2026-04-21T01:21:20.000Z</time></trkpt>
   <trkpt lat="59.0639181269" lon="29.9788678181"><ele>79.689</ele><time>2026-04-21T01:22:06.000Z</time></trkpt>
   <trkpt lat="59.0639277661" lon="29.9788187001"><ele>78.389</ele><time>2026-04-21T01:22:52.000Z</time></trkpt>
   <trkpt lat="59.0639114214" lon="29.9788153474"><ele>77.029</ele><time>2026-04-21T01:23:12.000Z</time></trkpt>
   <trkpt lat="59.063673543" lon="29.9788009305"><ele>74.569</ele><time>2026-04-21T01:23:43.000Z</time></trkpt>
   <trkpt lat="59.0635340681" lon="29.9787757848"><ele>74.439</ele><time>2026-04-21T01:24:01.000Z</time></trkpt>
   <trkpt lat="59.0634101836" lon="29.9787710909"><ele>74.179</ele><time>2026-04-21T01:24:15.000Z</time></trkpt>
   <trkpt lat="59.0633347465" lon="29.9787881062"><ele>74.039</ele><time>2026-04-21T01:24:32.000Z</time></trkpt>
   <trkpt lat="59.0632177351" lon="29.9787998408"><ele>74.899</ele><time>2026-04-21T01:24:44.000Z</time></trkpt>
   <trkpt lat="59.06310525" lon="29.9787782155"><ele>75.219</ele><time>2026-04-21T01:25:09.000Z</time></trkpt>
   <trkpt lat="59.062959321" lon="29.9787637148"><ele>75.239</ele><time>2026-04-21T01:25:29.000Z</time></trkpt>
   <trkpt lat="59.0629497657" lon="29.9787465319"><ele>73.629</ele><time>2026-04-21T01:25:44.000Z</time></trkpt>
   <trkpt lat="59.0629584829" lon="29.9787578475"><ele>75.359</ele><time>2026-04-21T01:26:24.000Z</time></trkpt>
   <trkpt lat="59.0629591534" lon="29.9787657265"><ele>75.399</ele><time>2026-04-21T01:27:05.000Z</time></trkpt>
   <trkpt lat="59.0629012345" lon="29.9786772136"><ele>76.289</ele><time>2026-04-21T01:27:43.000Z</time></trkpt>
   <trkpt lat="59.0628515298" lon="29.9786151875"><ele>77.539</ele><time>2026-04-21T01:28:00.000Z</time></trkpt>
   <trkpt lat="59.0628221093" lon="29.9787114118"><ele>76.979</ele><time>2026-04-21T01:28:30.000Z</time></trkpt>
   <trkpt lat="59.062753713" lon="29.9784835078"><ele>78.299</ele><time>2026-04-21T01:29:03.000Z</time></trkpt>
   <trkpt lat="59.0626012461" lon="29.978241187"><ele>77.879</ele><time>2026-04-21T01:29:31.000Z</time></trkpt>
   <trkpt lat="59.0624592567" lon="29.9781757243"><ele>75.729</ele><time>2026-04-21T01:29:47.000Z</time></trkpt>
   <trkpt lat="59.0623670558" lon="29.9781470582"><ele>75.609</ele><time>2026-04-21T01:30:04.000Z</time></trkpt>
   <trkpt lat="59.0623111485" lon="29.9780339864"><ele>75.319</ele><time>2026-04-21T01:30:19.000Z</time></trkpt>
   <trkpt lat="59.0622890202" lon="29.9780047335"><ele>72.239</ele><time>2026-04-21T01:30:44.000Z</time></trkpt>
   <trkpt lat="59.0622208754" lon="29.9779981956"><ele>76.139</ele><time>2026-04-21T01:30:56.000Z</time></trkpt>
   <trkpt lat="59.0622031896" lon="29.9779975251"><ele>74.249</ele><time>2026-04-21T01:31:12.000Z</time></trkpt>
   <trkpt lat="59.0622434227" lon="29.9780295439"><ele>76.579</ele><time>2026-04-21T01:31:40.000Z</time></trkpt>
   <trkpt lat="59.0623165129" lon="29.9780254368"><ele>77.419</ele><time>2026-04-21T01:31:53.000Z</time></trkpt>
   <trkpt lat="59.0623608532" lon="29.9778691981"><ele>76.869</ele><time>2026-04-21T01:32:06.000Z</time></trkpt>
   <trkpt lat="59.0623805506" lon="29.9778820224"><ele>77.369</ele><time>2026-04-21T01:32:20.000Z</time></trkpt>
   <trkpt lat="59.0624403136" lon="29.9777272925"><ele>78.089</ele><time>2026-04-21T01:32:33.000Z</time></trkpt>
   <trkpt lat="59.0624471868" lon="29.9777188268"><ele>78.079</ele><time>2026-04-21T01:32:34.000Z</time></trkpt>
   <trkpt lat="59.0625103863" lon="29.9775433936"><ele>78.299</ele><time>2026-04-21T01:32:48.000Z</time></trkpt>
   <trkpt lat="59.0625555648" lon="29.9773558904"><ele>78.169</ele><time>2026-04-21T01:33:02.000Z</time></trkpt>
   <trkpt lat="59.0625926128" lon="29.9772014957"><ele>78.369</ele><time>2026-04-21T01:33:16.000Z</time></trkpt>
   <trkpt lat="59.0626181776" lon="29.9770693969"><ele>78.879</ele><time>2026-04-21T01:33:30.000Z</time></trkpt>
   <trkpt lat="59.0626130646" lon="29.9769243062"><ele>77.479</ele><time>2026-04-21T01:33:44.000Z</time></trkpt>
   <trkpt lat="59.0626160821" lon="29.9768518865"><ele>78.859</ele><time>2026-04-21T01:33:57.000Z</time></trkpt>
   <trkpt lat="59.0625955464" lon="29.976842415"><ele>78.669</ele><time>2026-04-21T01:34:03.000Z</time></trkpt>
   <trkpt lat="59.0626174232" lon="29.9767238111"><ele>78.779</ele><time>2026-04-21T01:34:15.000Z</time></trkpt>
   <trkpt lat="59.0625908526" lon="29.9766169418"><ele>79.939</ele><time>2026-04-21T01:34:38.000Z</time></trkpt>
   <trkpt lat="59.0625704846" lon="29.9765679077"><ele>77.529</ele><time>2026-04-21T01:34:51.000Z</time></trkpt>
   <trkpt lat="59.0626065267" lon="29.9765124195"><ele>75.919</ele><time>2026-04-21T01:35:08.000Z</time></trkpt>
   <trkpt lat="59.0625575764" lon="29.9761778977"><ele>76.419</ele><time>2026-04-21T01:35:27.000Z</time></trkpt>
   <trkpt lat="59.0625300838" lon="29.9758078367"><ele>77.069</ele><time>2026-04-21T01:35:59.000Z</time></trkpt>
   <trkpt lat="59.0625082908" lon="29.9755002208"><ele>77.699</ele><time>2026-04-21T01:36:24.000Z</time></trkpt>
   <trkpt lat="59.0625051895" lon="29.9751011584"><ele>78.429</ele><time>2026-04-21T01:36:49.000Z</time></trkpt>
   <trkpt lat="59.0624315126" lon="29.9748164252"><ele>78.929</ele><time>2026-04-21T01:37:04.000Z</time></trkpt>
   <trkpt lat="59.062410474" lon="29.9746883497"><ele>80.779</ele><time>2026-04-21T01:37:16.000Z</time></trkpt>
   <trkpt lat="59.0624255614" lon="29.9744738568"><ele>81.479</ele><time>2026-04-21T01:37:28.000Z</time></trkpt>
   <trkpt lat="59.062426232" lon="29.9743236531"><ele>82.589</ele><time>2026-04-21T01:37:41.000Z</time></trkpt>
   <trkpt lat="59.0624241365" lon="29.9741273489"><ele>82.399</ele><time>2026-04-21T01:37:55.000Z</time></trkpt>
   <trkpt lat="59.0624017568" lon="29.9739363253"><ele>80.169</ele><time>2026-04-21T01:38:11.000Z</time></trkpt>
   <trkpt lat="59.0623802154" lon="29.9737835233"><ele>79.419</ele><time>2026-04-21T01:38:34.000Z</time></trkpt>
   <trkpt lat="59.0623358751" lon="29.9734754045"><ele>77.809</ele><time>2026-04-21T01:38:52.000Z</time></trkpt>
   <trkpt lat="59.0623217097" lon="29.9732868117"><ele>78.459</ele><time>2026-04-21T01:39:06.000Z</time></trkpt>
   <trkpt lat="59.0623056164" lon="29.9731262144"><ele>78.179</ele><time>2026-04-21T01:39:24.000Z</time></trkpt>
   <trkpt lat="59.0622967316" lon="29.9729315866"><ele>75.359</ele><time>2026-04-21T01:39:50.000Z</time></trkpt>
   <trkpt lat="59.0622842426" lon="29.9727749288"><ele>75.319</ele><time>2026-04-21T01:40:03.000Z</time></trkpt>
   <trkpt lat="59.0622621143" lon="29.9726510443"><ele>76.259</ele><time>2026-04-21T01:40:23.000Z</time></trkpt>
   <trkpt lat="59.0622366333" lon="29.9724419997"><ele>76.609</ele><time>2026-04-21T01:40:40.000Z</time></trkpt>
   <trkpt lat="59.0622558279" lon="29.9723144271"><ele>77.209</ele><time>2026-04-21T01:40:54.000Z</time></trkpt>
   <trkpt lat="59.0622305146" lon="29.9721661512"><ele>78.319</ele><time>2026-04-21T01:41:09.000Z</time></trkpt>
   <trkpt lat="59.0622056203" lon="29.9719975073"><ele>78.369</ele><time>2026-04-21T01:41:23.000Z</time></trkpt>
   <trkpt lat="59.0622073805" lon="29.9718440347"><ele>78.399</ele><time>2026-04-21T01:41:40.000Z</time></trkpt>
   <trkpt lat="59.0621671474" lon="29.9713479936"><ele>78.739</ele><time>2026-04-21T01:42:13.000Z</time></trkpt>
   <trkpt lat="59.0621683208" lon="29.9711836245"><ele>79.129</ele><time>2026-04-21T01:42:33.000Z</time></trkpt>
   <trkpt lat="59.0621446839" lon="29.9709651083"><ele>79.639</ele><time>2026-04-21T01:42:47.000Z</time></trkpt>
   <trkpt lat="59.0621326139" lon="29.9707992304"><ele>78.759</ele><time>2026-04-21T01:43:03.000Z</time></trkpt>
   <trkpt lat="59.0620990863" lon="29.9705807142"><ele>78.809</ele><time>2026-04-21T01:43:25.000Z</time></trkpt>
   <trkpt lat="59.0620835798" lon="29.9703647964"><ele>82.799</ele><time>2026-04-21T01:43:42.000Z</time></trkpt>
   <trkpt lat="59.0621040316" lon="29.9702415824"><ele>82.999</ele><time>2026-04-21T01:44:03.000Z</time></trkpt>
   <trkpt lat="59.0620754494" lon="29.9700488825"><ele>82.159</ele><time>2026-04-21T01:44:20.000Z</time></trkpt>
   <trkpt lat="59.0620444363" lon="29.9698195536"><ele>81.239</ele><time>2026-04-21T01:44:37.000Z</time></trkpt>
   <trkpt lat="59.0620270858" lon="29.9696556874"><ele>79.719</ele><time>2026-04-21T01:44:53.000Z</time></trkpt>
   <trkpt lat="59.0619913789" lon="29.9694945872"><ele>79.689</ele><time>2026-04-21T01:45:18.000Z</time></trkpt>
   <trkpt lat="59.0619731901" lon="29.9692248576"><ele>80.079</ele><time>2026-04-21T01:45:29.000Z</time></trkpt>
   <trkpt lat="59.0619740283" lon="29.9688877374"><ele>80.049</ele><time>2026-04-21T01:45:44.000Z</time></trkpt>
   <trkpt lat="59.0619258324" lon="29.9687056825"><ele>80.059</ele><time>2026-04-21T01:45:59.000Z</time></trkpt>
   <trkpt lat="59.0619189592" lon="29.9685112223"><ele>79.269</ele><time>2026-04-21T01:46:19.000Z</time></trkpt>
   <trkpt lat="59.0618894549" lon="29.9683318496"><ele>79.499</ele><time>2026-04-21T01:46:40.000Z</time></trkpt>
   <trkpt lat="59.0619003514" lon="29.9682144191"><ele>80.999</ele><time>2026-04-21T01:46:56.000Z</time></trkpt>
   <trkpt lat="59.0619090686" lon="29.9679921311"><ele>82.319</ele><time>2026-04-21T01:47:12.000Z</time></trkpt>
   <trkpt lat="59.0618600344" lon="29.9676959146"><ele>82.299</ele><time>2026-04-21T01:47:32.000Z</time></trkpt>
   <trkpt lat="59.061836146" lon="29.9675278575"><ele>81.569</ele><time>2026-04-21T01:47:52.000Z</time></trkpt>
   <trkpt lat="59.0618540833" lon="29.9676405102"><ele>82.289</ele><time>2026-04-21T01:48:06.000Z</time></trkpt>
   <trkpt lat="59.06183799" lon="29.9676646501"><ele>82.039</ele><time>2026-04-21T01:48:46.000Z</time></trkpt>
   <trkpt lat="59.0618347211" lon="29.9676569388"><ele>81.369</ele><time>2026-04-21T01:49:28.000Z</time></trkpt>
   <trkpt lat="59.0618471263" lon="29.9676445336"><ele>80.959</ele><time>2026-04-21T01:50:10.000Z</time></trkpt>
   <trkpt lat="59.0618407561" lon="29.9676669971"><ele>80.679</ele><time>2026-04-21T01:50:47.000Z</time></trkpt>
   <trkpt lat="59.0618446117" lon="29.9676493951"><ele>81.579</ele><time>2026-04-21T01:51:31.000Z</time></trkpt>
   <trkpt lat="59.0618445279" lon="29.9676488083"><ele>80.369</ele><time>2026-04-21T01:52:15.000Z</time></trkpt>
   <trkpt lat="59.0618417619" lon="29.9676664103"><ele>80.099</ele><time>2026-04-21T01:53:09.000Z</time></trkpt>
   <trkpt lat="59.0618382415" lon="29.967656352"><ele>78.969</ele><time>2026-04-21T01:53:54.000Z</time></trkpt>
   <trkpt lat="59.0618418457" lon="29.9676488083"><ele>78.799</ele><time>2026-04-21T01:54:31.000Z</time></trkpt>
   <trkpt lat="59.0618419295" lon="29.967628105"><ele>78.789</ele><time>2026-04-21T01:55:32.000Z</time></trkpt>
   <trkpt lat="59.061785687" lon="29.9676250875"><ele>78.739</ele><time>2026-04-21T01:55:44.000Z</time></trkpt>
   <trkpt lat="59.06165736" lon="29.9676409293"><ele>77.709</ele><time>2026-04-21T01:55:56.000Z</time></trkpt>
   <trkpt lat="59.0615356548" lon="29.9675682582"><ele>81.249</ele><time>2026-04-21T01:56:11.000Z</time></trkpt>
   <trkpt lat="59.0613900611" lon="29.967496593"><ele>80.979</ele><time>2026-04-21T01:56:26.000Z</time></trkpt>
   <trkpt lat="59.0613372551" lon="29.967435908"><ele>80.139</ele><time>2026-04-21T01:56:34.000Z</time></trkpt>
   <trkpt lat="59.0612723792" lon="29.9674370814"><ele>78.919</ele><time>2026-04-21T01:56:42.000Z</time></trkpt>
   <trkpt lat="59.0611801783" lon="29.9675012868"><ele>79.729</ele><time>2026-04-21T01:56:55.000Z</time></trkpt>
   <trkpt lat="59.0611088483" lon="29.9674606346"><ele>80.409</ele><time>2026-04-21T01:57:06.000Z</time></trkpt>
   <trkpt lat="59.0610143842" lon="29.9674579524"><ele>80.929</ele><time>2026-04-21T01:57:20.000Z</time></trkpt>
   <trkpt lat="59.0609369354" lon="29.9674079124"><ele>80.479</ele><time>2026-04-21T01:57:33.000Z</time></trkpt>
   <trkpt lat="59.0608584808" lon="29.9674341478"><ele>80.659</ele><time>2026-04-21T01:57:47.000Z</time></trkpt>
   <trkpt lat="59.0607561378" lon="29.9674551025"><ele>80.519</ele><time>2026-04-21T01:58:01.000Z</time></trkpt>
   <trkpt lat="59.0607028289" lon="29.9674853612"><ele>79.149</ele><time>2026-04-21T01:58:13.000Z</time></trkpt>
   <trkpt lat="59.0606576504" lon="29.967577143"><ele>77.309</ele><time>2026-04-21T01:58:34.000Z</time></trkpt>
   <trkpt lat="59.0605867395" lon="29.9677053862"><ele>78.029</ele><time>2026-04-21T01:58:50.000Z</time></trkpt>
   <trkpt lat="59.0604542216" lon="29.9677935638"><ele>77.169</ele><time>2026-04-21T01:59:22.000Z</time></trkpt>
   <trkpt lat="59.0603818858" lon="29.9677854333"><ele>77.519</ele><time>2026-04-21T01:59:36.000Z</time></trkpt>
   <trkpt lat="59.0602967257" lon="29.9677537497"><ele>77.709</ele><time>2026-04-21T01:59:54.000Z</time></trkpt>
   <trkpt lat="59.060234532" lon="29.9677260056"><ele>77.969</ele><time>2026-04-21T02:00:06.000Z</time></trkpt>
   <trkpt lat="59.0601415767" lon="29.9676641472"><ele>81.679</ele><time>2026-04-21T02:00:20.000Z</time></trkpt>
   <trkpt lat="59.0600921234" lon="29.9676618841"><ele>80.809</ele><time>2026-04-21T02:00:33.000Z</time></trkpt>
   <trkpt lat="59.0600035267" lon="29.9676057253"><ele>80.939</ele><time>2026-04-21T02:00:50.000Z</time></trkpt>
   <trkpt lat="59.0599548278" lon="29.9675621394"><ele>81.169</ele><time>2026-04-21T02:01:02.000Z</time></trkpt>
   <trkpt lat="59.0598854257" lon="29.9675177154"><ele>80.279</ele><time>2026-04-21T02:01:18.000Z</time></trkpt>
   <trkpt lat="59.0598072225" lon="29.967455354"><ele>80.739</ele><time>2026-04-21T02:01:34.000Z</time></trkpt>
   <trkpt lat="59.0597723538" lon="29.9674756382"><ele>79.849</ele><time>2026-04-21T02:01:55.000Z</time></trkpt>
   <trkpt lat="59.059715776" lon="29.9674677592"><ele>79.879</ele><time>2026-04-21T02:02:06.000Z</time></trkpt>
   <trkpt lat="59.0596369861" lon="29.9674758058"><ele>79.949</ele><time>2026-04-21T02:02:20.000Z</time></trkpt>
   <trkpt lat="59.0595617166" lon="29.9674689327"><ele>77.089</ele><time>2026-04-21T02:02:33.000Z</time></trkpt>
   <trkpt lat="59.0594483094" lon="29.9675076571"><ele>79.439</ele><time>2026-04-21T02:02:49.000Z</time></trkpt>
   <trkpt lat="59.0594562722" lon="29.9675095849"><ele>79.379</ele><time>2026-04-21T02:03:14.000Z</time></trkpt>
   <trkpt lat="59.0593634846" lon="29.9675426934"><ele>79.589</ele><time>2026-04-21T02:03:29.000Z</time></trkpt>
   <trkpt lat="59.0592649134" lon="29.9675374128"><ele>77.549</ele><time>2026-04-21T02:03:43.000Z</time></trkpt>
   <trkpt lat="59.0591880513" lon="29.9675737065"><ele>77.589</ele><time>2026-04-21T02:03:53.000Z</time></trkpt>
   <trkpt lat="59.0590689445" lon="29.9676231597"><ele>77.459</ele><time>2026-04-21T02:04:09.000Z</time></trkpt>
   <trkpt lat="59.0590256101" lon="29.9676580284"><ele>78.069</ele><time>2026-04-21T02:04:27.000Z</time></trkpt>
   <trkpt lat="59.0589585548" lon="29.9677213956"><ele>78.989</ele><time>2026-04-21T02:04:41.000Z</time></trkpt>
   <trkpt lat="59.0588909129" lon="29.9677570187"><ele>79.049</ele><time>2026-04-21T02:04:52.000Z</time></trkpt>
   <trkpt lat="59.058790833" lon="29.9677787278"><ele>78.879</ele><time>2026-04-21T02:05:06.000Z</time></trkpt>
   <trkpt lat="59.0586780125" lon="29.9678103276"><ele>79.119</ele><time>2026-04-21T02:05:21.000Z</time></trkpt>
   <trkpt lat="59.0586104544" lon="29.96783606"><ele>78.979</ele><time>2026-04-21T02:05:38.000Z</time></trkpt>
   <trkpt lat="59.0585670361" lon="29.9678216432"><ele>79.329</ele><time>2026-04-21T02:05:53.000Z</time></trkpt>
   <trkpt lat="59.0584960414" lon="29.9678420112"><ele>79.229</ele><time>2026-04-21T02:06:05.000Z</time></trkpt>
   <trkpt lat="59.0583992304" lon="29.9677804042"><ele>79.479</ele><time>2026-04-21T02:06:20.000Z</time></trkpt>
   <trkpt lat="59.0582943728" lon="29.9677459546"><ele>79.529</ele><time>2026-04-21T02:06:33.000Z</time></trkpt>
   <trkpt lat="59.0582145771" lon="29.9677226529"><ele>79.859</ele><time>2026-04-21T02:06:46.000Z</time></trkpt>
   <trkpt lat="59.0581042713" lon="29.9677222338"><ele>80.179</ele><time>2026-04-21T02:06:59.000Z</time></trkpt>
   <trkpt lat="59.058002515" lon="29.9676918075"><ele>79.649</ele><time>2026-04-21T02:07:14.000Z</time></trkpt>
   <trkpt lat="59.0579030218" lon="29.9676573579"><ele>79.809</ele><time>2026-04-21T02:07:28.000Z</time></trkpt>
   <trkpt lat="59.0578131678" lon="29.967639253"><ele>80.259</ele><time>2026-04-21T02:07:43.000Z</time></trkpt>
   <trkpt lat="59.0577571767" lon="29.9676159513"><ele>79.209</ele><time>2026-04-21T02:07:57.000Z</time></trkpt>
   <trkpt lat="59.0577242358" lon="29.9676083237"><ele>79.519</ele><time>2026-04-21T02:08:09.000Z</time></trkpt>
   <trkpt lat="59.0576669874" lon="29.9675724492"><ele>78.929</ele><time>2026-04-21T02:08:20.000Z</time></trkpt>
   <trkpt lat="59.0575862696" lon="29.9675662466"><ele>78.619</ele><time>2026-04-21T02:08:32.000Z</time></trkpt>
   <trkpt lat="59.057558777" lon="29.9675661628"><ele>78.699</ele><time>2026-04-21T02:08:35.000Z</time></trkpt>
   <trkpt lat="59.0574609602" lon="29.9676248361"><ele>79.369</ele><time>2026-04-21T02:08:47.000Z</time></trkpt>
   <trkpt lat="59.0573944917" lon="29.9676286918"><ele>79.859</ele><time>2026-04-21T02:08:59.000Z</time></trkpt>
   <trkpt lat="59.0573446194" lon="29.9676390015"><ele>79.409</ele><time>2026-04-21T02:09:15.000Z</time></trkpt>
   <trkpt lat="59.0573360698" lon="29.9676718586"><ele>78.799</ele><time>2026-04-21T02:09:28.000Z</time></trkpt>
   <trkpt lat="59.0572474731" lon="29.9677275982"><ele>78.439</ele><time>2026-04-21T02:09:42.000Z</time></trkpt>
   <trkpt lat="59.057122918" lon="29.9677575216"><ele>76.489</ele><time>2026-04-21T02:10:01.000Z</time></trkpt>
   <trkpt lat="59.0570169708" lon="29.9677585274"><ele>76.319</ele><time>2026-04-21T02:10:14.000Z</time></trkpt>
   <trkpt lat="59.0569030607" lon="29.9677579407"><ele>77.059</ele><time>2026-04-21T02:10:26.000Z</time></trkpt>
   <trkpt lat="59.0568376819" lon="29.9677407578"><ele>78.329</ele><time>2026-04-21T02:10:39.000Z</time></trkpt>
   <trkpt lat="59.0567302259" lon="29.967761042"><ele>78.349</ele><time>2026-04-21T02:10:54.000Z</time></trkpt>
   <trkpt lat="59.0566165673" lon="29.9677242454"><ele>77.779</ele><time>2026-04-21T02:11:08.000Z</time></trkpt>
   <trkpt lat="59.0564900844" lon="29.9676511553"><ele>78.089</ele><time>2026-04-21T02:11:29.000Z</time></trkpt>
   <trkpt lat="59.0564163236" lon="29.9676232435"><ele>79.559</ele><time>2026-04-21T02:11:46.000Z</time></trkpt>
   <trkpt lat="59.0563311635" lon="29.9676674161"><ele>75.689</ele><time>2026-04-21T02:12:04.000Z</time></trkpt>
   <trkpt lat="59.0562028365" lon="29.9676868622"><ele>75.529</ele><time>2026-04-21T02:12:17.000Z</time></trkpt>
   <trkpt lat="59.0560893456" lon="29.9676285241"><ele>76.049</ele><time>2026-04-21T02:12:30.000Z</time></trkpt>
   <trkpt lat="59.0560034311" lon="29.9675884586"><ele>77.379</ele><time>2026-04-21T02:12:48.000Z</time></trkpt>
   <trkpt lat="59.055939058" lon="29.967504891"><ele>76.989</ele><time>2026-04-21T02:12:59.000Z</time></trkpt>
   <trkpt lat="59.0558327755" lon="29.9674214073"><ele>77.859</ele><time>2026-04-21T02:13:13.000Z</time></trkpt>
   <trkpt lat="59.0557348749" lon="29.9673504964"><ele>77.939</ele><time>2026-04-21T02:13:26.000Z</time></trkpt>
   <trkpt lat="59.0556812307" lon="29.9672321439"><ele>78.909</ele><time>2026-04-21T02:13:39.000Z</time></trkpt>
   <trkpt lat="59.0556124153" lon="29.9670876399"><ele>78.249</ele><time>2026-04-21T02:13:51.000Z</time></trkpt>
   <trkpt lat="59.0555126706" lon="29.9669452314"><ele>79.269</ele><time>2026-04-21T02:14:06.000Z</time></trkpt>
   <trkpt lat="59.0554479623" lon="29.9668508511"><ele>79.949</ele><time>2026-04-21T02:14:20.000Z</time></trkpt>
   <trkpt lat="59.0553478824" lon="29.9666638509"><ele>80.209</ele><time>2026-04-21T02:14:40.000Z</time></trkpt>
   <trkpt lat="59.0552076532" lon="29.9666162417"><ele>79.589</ele><time>2026-04-21T02:15:01.000Z</time></trkpt>
   <trkpt lat="59.0550811702" lon="29.9666417227"><ele>78.909</ele><time>2026-04-21T02:15:15.000Z</time></trkpt>
   <trkpt lat="59.0551082438" lon="29.96660962"><ele>80.009</ele><time>2026-04-21T02:15:50.000Z</time></trkpt>
   <trkpt lat="59.0550690165" lon="29.9661722523"><ele>80.029</ele><time>2026-04-21T02:16:16.000Z</time></trkpt>
   <trkpt lat="59.0550235866" lon="29.9660005909"><ele>80.539</ele><time>2026-04-21T02:16:40.000Z</time></trkpt>
   <trkpt lat="59.0549654162" lon="29.9659881857"><ele>81.749</ele><time>2026-04-21T02:16:48.000Z</time></trkpt>
   <trkpt lat="59.0549714511" lon="29.9659772054"><ele>81.989</ele><time>2026-04-21T02:17:03.000Z</time></trkpt>
   <trkpt lat="59.0549587106" lon="29.9659435939"><ele>82.189</ele><time>2026-04-21T02:17:30.000Z</time></trkpt>
   <trkpt lat="59.0549492391" lon="29.965818955"><ele>81.919</ele><time>2026-04-21T02:17:40.000Z</time></trkpt>
   <trkpt lat="59.0549328106" lon="29.9654633947"><ele>82.009</ele><time>2026-04-21T02:17:59.000Z</time></trkpt>
   <trkpt lat="59.0549238419" lon="29.9651644122"><ele>83.629</ele><time>2026-04-21T02:18:13.000Z</time></trkpt>
   <trkpt lat="59.0549068267" lon="29.9649421241"><ele>82.299</ele><time>2026-04-21T02:18:26.000Z</time></trkpt>
   <trkpt lat="59.0549010431" lon="29.9648355063"><ele>82.469</ele><time>2026-04-21T02:18:33.000Z</time></trkpt>
   <trkpt lat="59.0548936671" lon="29.9645110429"><ele>83.359</ele><time>2026-04-21T02:18:50.000Z</time></trkpt>
   <trkpt lat="59.0548754783" lon="29.9642899283"><ele>83.359</ele><time>2026-04-21T02:19:02.000Z</time></trkpt>
   <trkpt lat="59.0548736343" lon="29.9640769441"><ele>83.649</ele><time>2026-04-21T02:19:11.000Z</time></trkpt>
   <trkpt lat="59.0548596365" lon="29.963762036"><ele>85.309</ele><time>2026-04-21T02:19:26.000Z</time></trkpt>
   <trkpt lat="59.0548523443" lon="29.9635428492"><ele>85.909</ele><time>2026-04-21T02:19:37.000Z</time></trkpt>
   <trkpt lat="59.0548535178" lon="29.9635224812"><ele>85.889</ele><time>2026-04-21T02:19:38.000Z</time></trkpt>
   <trkpt lat="59.0548735505" lon="29.9632157036"><ele>85.849</ele><time>2026-04-21T02:19:55.000Z</time></trkpt>
   <trkpt lat="59.0549161306" lon="29.9630577047"><ele>85.289</ele><time>2026-04-21T02:20:05.000Z</time></trkpt>
   <trkpt lat="59.0549918192" lon="29.9629836925"><ele>84.769</ele><time>2026-04-21T02:20:23.000Z</time></trkpt>
   <trkpt lat="59.0550490676" lon="29.9629743886"><ele>83.619</ele><time>2026-04-21T02:20:40.000Z</time></trkpt>
   <trkpt lat="59.0550413562" lon="29.9629441299"><ele>81.469</ele><time>2026-04-21T02:21:01.000Z</time></trkpt>
   <trkpt lat="59.055042865" lon="29.9629460577"><ele>80.109</ele><time>2026-04-21T02:21:29.000Z</time></trkpt>
   <trkpt lat="59.0550338125" lon="29.9629416991"><ele>82.989</ele><time>2026-04-21T02:22:55.000Z</time></trkpt>
   <trkpt lat="59.0550370814" lon="29.9629406933"><ele>83.989</ele><time>2026-04-21T02:24:19.000Z</time></trkpt>
   <trkpt lat="59.0550410209" lon="29.9629437946"><ele>83.199</ele><time>2026-04-21T02:25:46.000Z</time></trkpt>
   <trkpt lat="59.0550404342" lon="29.9629517574"><ele>81.959</ele><time>2026-04-21T02:26:57.000Z</time></trkpt>
   <trkpt lat="59.0550450442" lon="29.9629582115"><ele>82.039</ele><time>2026-04-21T02:28:18.000Z</time></trkpt>
   <trkpt lat="59.0550374167" lon="29.9629577924"><ele>81.019</ele><time>2026-04-21T02:29:34.000Z</time></trkpt>
   <trkpt lat="59.0550328905" lon="29.9629595526"><ele>80.649</ele><time>2026-04-21T02:30:58.000Z</time></trkpt>
   <trkpt lat="59.055034986" lon="29.9629628215"><ele>79.699</ele><time>2026-04-21T02:32:18.000Z</time></trkpt>
   <trkpt lat="59.0550288672" lon="29.9629554455"><ele>80.059</ele><time>2026-04-21T02:32:58.000Z</time></trkpt>
   <trkpt lat="59.0550312141" lon="29.9629411962"><ele>81.739</ele><time>2026-04-21T02:34:09.000Z</time></trkpt>
   <trkpt lat="59.0550716149" lon="29.9628317286"><ele>82.349</ele><time>2026-04-21T02:34:57.000Z</time></trkpt>
   <trkpt lat="59.054957621" lon="29.9627919145"><ele>81.849</ele><time>2026-04-21T02:35:02.000Z</time></trkpt>
   <trkpt lat="59.0549253507" lon="29.9629001249"><ele>81.879</ele><time>2026-04-21T02:35:03.000Z</time></trkpt>
   <trkpt lat="59.0548943376" lon="29.963040438"><ele>81.779</ele><time>2026-04-21T02:35:04.000Z</time></trkpt>
   <trkpt lat="59.0548718741" lon="29.9631976825"><ele>82.519</ele><time>2026-04-21T02:35:05.000Z</time></trkpt>
   <trkpt lat="59.0548610615" lon="29.9633647338"><ele>81.859</ele><time>2026-04-21T02:35:06.000Z</time></trkpt>
   <trkpt lat="59.0548594689" lon="29.9635394965"><ele>81.569</ele><time>2026-04-21T02:35:07.000Z</time></trkpt>
   <trkpt lat="59.0549686851" lon="29.9662668001"><ele>81.279</ele><time>2026-04-21T02:35:19.000Z</time></trkpt>
   <trkpt lat="59.0552070664" lon="29.9704376351"><ele>80.559</ele><time>2026-04-21T02:35:34.000Z</time></trkpt>
   <trkpt lat="59.0556137564" lon="29.9758538533"><ele>81.139</ele><time>2026-04-21T02:35:52.000Z</time></trkpt>
   <trkpt lat="59.0560765212" lon="29.9817308247"><ele>82.419</ele><time>2026-04-21T02:36:09.000Z</time></trkpt>
   <trkpt lat="59.0565614143" lon="29.9878712394"><ele>82.899</ele><time>2026-04-21T02:36:26.000Z</time></trkpt>
   <trkpt lat="59.0567914138" lon="29.9908183165"><ele>85.319</ele><time>2026-04-21T02:36:36.000Z</time></trkpt>
   <trkpt lat="59.0570373388" lon="29.9937664833"><ele>82.679</ele><time>2026-04-21T02:36:45.000Z</time></trkpt>
   <trkpt lat="59.0576050451" lon="30.000880456"><ele>80.589</ele><time>2026-04-21T02:37:05.000Z</time></trkpt>
   <trkpt lat="59.0581146648" lon="30.0070613552"><ele>80.659</ele><time>2026-04-21T02:37:23.000Z</time></trkpt>
   <trkpt lat="59.0581376312" lon="30.0076022394"><ele>79.899</ele><time>2026-04-21T02:37:27.000Z</time></trkpt>
   <trkpt lat="59.058109468" lon="30.0076680374"><ele>79.879</ele><time>2026-04-21T02:37:28.000Z</time></trkpt>
   <trkpt lat="59.0580846576" lon="30.007696955"><ele>79.969</ele><time>2026-04-21T02:37:29.000Z</time></trkpt>
   <trkpt lat="59.058044173" lon="30.0076837115"><ele>80.609</ele><time>2026-04-21T02:37:30.000Z</time></trkpt>
   <trkpt lat="59.0579894392" lon="30.0076850526"><ele>81.089</ele><time>2026-04-21T02:37:31.000Z</time></trkpt>
   <trkpt lat="59.0572032167" lon="30.0078982883"><ele>82.009</ele><time>2026-04-21T02:37:40.000Z</time></trkpt>
   <trkpt lat="59.0557391496" lon="30.008346301"><ele>79.819</ele><time>2026-04-21T02:37:51.000Z</time></trkpt>
   <trkpt lat="59.0533796439" lon="30.0091056176"><ele>79.209</ele><time>2026-04-21T02:38:07.000Z</time></trkpt>
   <trkpt lat="59.050311113" lon="30.0101601448"><ele>82.639</ele><time>2026-04-21T02:38:26.000Z</time></trkpt>
   <trkpt lat="59.0477843883" lon="30.0109695014"><ele>81.619</ele><time>2026-04-21T02:38:41.000Z</time></trkpt>
   <trkpt lat="59.0440587161" lon="30.0122094363"><ele>79.949</ele><time>2026-04-21T02:39:02.000Z</time></trkpt>
   <trkpt lat="59.0411064422" lon="30.0132143427"><ele>79.839</ele><time>2026-04-21T02:39:19.000Z</time></trkpt>
   <trkpt lat="59.0408227148" lon="30.0133107346"><ele>79.849</ele><time>2026-04-21T02:39:24.000Z</time></trkpt>
   <trkpt lat="59.0407811405" lon="30.013307298"><ele>80.089</ele><time>2026-04-21T02:39:25.000Z</time></trkpt>
   <trkpt lat="59.040735543" lon="30.0132486247"><ele>79.169</ele><time>2026-04-21T02:39:26.000Z</time></trkpt>
   <trkpt lat="59.0406790489" lon="30.0131590222"><ele>79.179</ele><time>2026-04-21T02:39:27.000Z</time></trkpt>
   <trkpt lat="59.0401577784" lon="30.0118226115"><ele>78.359</ele><time>2026-04-21T02:39:35.000Z</time></trkpt>
   <trkpt lat="59.0393604918" lon="30.009721436"><ele>78.599</ele><time>2026-04-21T02:39:45.000Z</time></trkpt>
   <trkpt lat="59.0393154809" lon="30.0094838929"><ele>78.709</ele><time>2026-04-21T02:39:46.000Z</time></trkpt>
   <trkpt lat="59.0392773433" lon="30.0092336931"><ele>78.799</ele><time>2026-04-21T02:39:47.000Z</time></trkpt>
   <trkpt lat="59.0388977269" lon="30.0064295274"><ele>79.679</ele><time>2026-04-21T02:39:58.000Z</time></trkpt>
   <trkpt lat="59.0388966372" lon="30.0061964266"><ele>79.879</ele><time>2026-04-21T02:39:59.000Z</time></trkpt>
   <trkpt lat="59.0389072822" lon="30.0059492443"><ele>79.849</ele><time>2026-04-21T02:40:00.000Z</time></trkpt>
   <trkpt lat="59.038927315" lon="30.0056852144"><ele>80.149</ele><time>2026-04-21T02:40:01.000Z</time></trkpt>
   <trkpt lat="59.0389567355" lon="30.0054153171"><ele>80.209</ele><time>2026-04-21T02:40:02.000Z</time></trkpt>
   <trkpt lat="59.0389887543" lon="30.0051474315"><ele>80.199</ele><time>2026-04-21T02:40:03.000Z</time></trkpt>
   <trkpt lat="59.0394446461" lon="30.0014762417"><ele>80.489</ele><time>2026-04-21T02:40:15.000Z</time></trkpt>
   <trkpt lat="59.0399109313" lon="29.9969868105"><ele>80.279</ele><time>2026-04-21T02:40:29.000Z</time></trkpt>
   <trkpt lat="59.0398934132" lon="29.9967242055"><ele>80.279</ele><time>2026-04-21T02:40:30.000Z</time></trkpt>
   <trkpt lat="59.03985318" lon="29.9964852374"><ele>80.409</ele><time>2026-04-21T02:40:31.000Z</time></trkpt>
   <trkpt lat="59.039794842" lon="29.9962673918"><ele>80.409</ele><time>2026-04-21T02:40:32.000Z</time></trkpt>
   <trkpt lat="59.0397185667" lon="29.9960622866"><ele>80.519</ele><time>2026-04-21T02:40:33.000Z</time></trkpt>
   <trkpt lat="59.0396339094" lon="29.9958604504"><ele>80.539</ele><time>2026-04-21T02:40:34.000Z</time></trkpt>
   <trkpt lat="59.0395437202" lon="29.9956565187"><ele>80.469</ele><time>2026-04-21T02:40:35.000Z</time></trkpt>
   <trkpt lat="59.0386255665" lon="29.9929518462"><ele>80.169</ele><time>2026-04-21T02:40:46.000Z</time></trkpt>
   <trkpt lat="59.037592916" lon="29.9891063966"><ele>80.669</ele><time>2026-04-21T02:40:59.000Z</time></trkpt>
   <trkpt lat="59.036894452" lon="29.9859748338"><ele>80.189</ele><time>2026-04-21T02:41:09.000Z</time></trkpt>
   <trkpt lat="59.0368753413" lon="29.9856479396"><ele>80.199</ele><time>2026-04-21T02:41:10.000Z</time></trkpt>
   <trkpt lat="59.0368751736" lon="29.9853249848"><ele>80.349</ele><time>2026-04-21T02:41:11.000Z</time></trkpt>
   <trkpt lat="59.0368894229" lon="29.985005299"><ele>80.349</ele><time>2026-04-21T02:41:12.000Z</time></trkpt>
   <trkpt lat="59.0369064381" lon="29.9841104471"><ele>80.339</ele><time>2026-04-21T02:41:15.000Z</time></trkpt>
   <trkpt lat="59.0368676299" lon="29.9838527035"><ele>80.359</ele><time>2026-04-21T02:41:16.000Z</time></trkpt>
   <trkpt lat="59.0368028378" lon="29.9836236261"><ele>80.389</ele><time>2026-04-21T02:41:17.000Z</time></trkpt>
   <trkpt lat="59.0367258919" lon="29.9834012542"><ele>80.379</ele><time>2026-04-21T02:41:18.000Z</time></trkpt>
   <trkpt lat="59.0366417376" lon="29.9831766192"><ele>80.329</ele><time>2026-04-21T02:41:19.000Z</time></trkpt>
   <trkpt lat="59.0357784854" lon="29.9812447582"><ele>80.089</ele><time>2026-04-21T02:41:28.000Z</time></trkpt>
   <trkpt lat="59.0354463106" lon="29.9805415165"><ele>79.609</ele><time>2026-04-21T02:41:32.000Z</time></trkpt>
   <trkpt lat="59.0353965221" lon="29.9803507444"><ele>79.699</ele><time>2026-04-21T02:41:33.000Z</time></trkpt>
   <trkpt lat="59.035377579" lon="29.9801189009"><ele>79.459</ele><time>2026-04-21T02:41:34.000Z</time></trkpt>
   <trkpt lat="59.0353692809" lon="29.9798764125"><ele>79.299</ele><time>2026-04-21T02:41:35.000Z</time></trkpt>
   <trkpt lat="59.0353607314" lon="29.9796169088"><ele>79.399</ele><time>2026-04-21T02:41:36.000Z</time></trkpt>
   <trkpt lat="59.0352577178" lon="29.9783285264"><ele>79.449</ele><time>2026-04-21T02:41:41.000Z</time></trkpt>
   <trkpt lat="59.0352034869" lon="29.9780912348"><ele>79.489</ele><time>2026-04-21T02:41:42.000Z</time></trkpt>
   <trkpt lat="59.0351500103" lon="29.9778533563"><ele>79.549</ele><time>2026-04-21T02:41:43.000Z</time></trkpt>
   <trkpt lat="59.0342544878" lon="29.9759206571"><ele>78.869</ele><time>2026-04-21T02:41:52.000Z</time></trkpt>
   <trkpt lat="59.0339901226" lon="29.9756027315"><ele>78.959</ele><time>2026-04-21T02:41:54.000Z</time></trkpt>
   <trkpt lat="59.0338527432" lon="29.9754682858"><ele>78.839</ele><time>2026-04-21T02:41:55.000Z</time></trkpt>
   <trkpt lat="59.0333162176" lon="29.974998061"><ele>78.789</ele><time>2026-04-21T02:41:59.000Z</time></trkpt>
   <trkpt lat="59.0332065823" lon="29.9747997452"><ele>78.649</ele><time>2026-04-21T02:42:00.000Z</time></trkpt>
   <trkpt lat="59.0323195254" lon="29.9729455844"><ele>77.749</ele><time>2026-04-21T02:42:09.000Z</time></trkpt>
   <trkpt lat="59.0322594272" lon="29.9727320135"><ele>77.689</ele><time>2026-04-21T02:42:10.000Z</time></trkpt>
   <trkpt lat="59.0322096387" lon="29.9725017626"><ele>77.659</ele><time>2026-04-21T02:42:11.000Z</time></trkpt>
   <trkpt lat="59.031700941" lon="29.9700467032"><ele>77.819</ele><time>2026-04-21T02:42:20.000Z</time></trkpt>
   <trkpt lat="59.030805167" lon="29.9666495178"><ele>78.779</ele><time>2026-04-21T02:42:32.000Z</time></trkpt>
   <trkpt lat="59.0307742378" lon="29.9663634435"><ele>78.599</ele><time>2026-04-21T02:42:33.000Z</time></trkpt>
   <trkpt lat="59.0303775223" lon="29.9634191323"><ele>78.629</ele><time>2026-04-21T02:42:43.000Z</time></trkpt>
   <trkpt lat="59.0302941224" lon="29.9628394399"><ele>78.549</ele><time>2026-04-21T02:42:45.000Z</time></trkpt>
   <trkpt lat="59.0302878359" lon="29.9625482526"><ele>78.809</ele><time>2026-04-21T02:42:46.000Z</time></trkpt>
   <trkpt lat="59.0303013308" lon="29.9622703925"><ele>78.769</ele><time>2026-04-21T02:42:47.000Z</time></trkpt>
   <trkpt lat="59.0302972237" lon="29.9617523909"><ele>78.659</ele><time>2026-04-21T02:42:49.000Z</time></trkpt>
   <trkpt lat="59.0302594213" lon="29.9615125846"><ele>78.899</ele><time>2026-04-21T02:42:50.000Z</time></trkpt>
   <trkpt lat="59.0302071182" lon="29.9612778075"><ele>79.019</ele><time>2026-04-21T02:42:51.000Z</time></trkpt>
   <trkpt lat="59.0301453436" lon="29.9610435333"><ele>78.999</ele><time>2026-04-21T02:42:52.000Z</time></trkpt>
   <trkpt lat="59.0300785398" lon="29.9608030565"><ele>79.019</ele><time>2026-04-21T02:42:53.000Z</time></trkpt>
   <trkpt lat="59.0294996856" lon="29.9586528469"><ele>78.479</ele><time>2026-04-21T02:43:02.000Z</time></trkpt>
   <trkpt lat="59.029477725" lon="29.9584472388"><ele>78.669</ele><time>2026-04-21T02:43:03.000Z</time></trkpt>
   <trkpt lat="59.0294857716" lon="29.9582238611"><ele>78.759</ele><time>2026-04-21T02:43:04.000Z</time></trkpt>
   <trkpt lat="59.0295173714" lon="29.9575224635"><ele>78.529</ele><time>2026-04-21T02:43:07.000Z</time></trkpt>
   <trkpt lat="59.0295075646" lon="29.9572942242"><ele>78.279</ele><time>2026-04-21T02:43:08.000Z</time></trkpt>
   <trkpt lat="59.0294507353" lon="29.9571046256"><ele>77.509</ele><time>2026-04-21T02:43:09.000Z</time></trkpt>
   <trkpt lat="59.0293718616" lon="29.9569326289"><ele>77.449</ele><time>2026-04-21T02:43:10.000Z</time></trkpt>
   <trkpt lat="59.02928645" lon="29.9567641527"><ele>77.429</ele><time>2026-04-21T02:43:11.000Z</time></trkpt>
   <trkpt lat="59.0291969312" lon="29.9565955088"><ele>77.469</ele><time>2026-04-21T02:43:12.000Z</time></trkpt>
   <trkpt lat="59.028088676" lon="29.9550467007"><ele>77.249</ele><time>2026-04-21T02:43:22.000Z</time></trkpt>
   <trkpt lat="59.0262546318" lon="29.9528207187"><ele>76.589</ele><time>2026-04-21T02:43:36.000Z</time></trkpt>
   <trkpt lat="59.0249609688" lon="29.9518768326"><ele>76.629</ele><time>2026-04-21T02:43:46.000Z</time></trkpt>
   <trkpt lat="59.0247841107" lon="29.9518213444"><ele>76.069</ele><time>2026-04-21T02:43:48.000Z</time></trkpt>
   <trkpt lat="59.0247220846" lon="29.9518479988"><ele>76.269</ele><time>2026-04-21T02:43:49.000Z</time></trkpt>
   <trkpt lat="59.024689479" lon="29.9519666866"><ele>76.829</ele><time>2026-04-21T02:43:50.000Z</time></trkpt>
   <trkpt lat="59.024666764" lon="29.9520935886"><ele>76.879</ele><time>2026-04-21T02:43:51.000Z</time></trkpt>
   <trkpt lat="59.0246595556" lon="29.9522274476"><ele>76.849</ele><time>2026-04-21T02:43:52.000Z</time></trkpt>
   <trkpt lat="59.0244222639" lon="29.9536457494"><ele>77.719</ele><time>2026-04-21T02:44:00.000Z</time></trkpt>
   <trkpt lat="59.024244819" lon="29.954252683"><ele>77.959</ele><time>2026-04-21T02:44:03.000Z</time></trkpt>
   <trkpt lat="59.0241633469" lon="29.9544322234"><ele>77.949</ele><time>2026-04-21T02:44:04.000Z</time></trkpt>
   <trkpt lat="59.0240736606" lon="29.9545999453"><ele>77.959</ele><time>2026-04-21T02:44:05.000Z</time></trkpt>
   <trkpt lat="59.0239807891" lon="29.9547585309"><ele>77.819</ele><time>2026-04-21T02:44:06.000Z</time></trkpt>
   <trkpt lat="59.0238732493" lon="29.9549089022"><ele>77.909</ele><time>2026-04-21T02:44:07.000Z</time></trkpt>
   <trkpt lat="59.0226506649" lon="29.9560225219"><ele>80.219</ele><time>2026-04-21T02:44:17.000Z</time></trkpt>
   <trkpt lat="59.0225498306" lon="29.9560172413"><ele>80.939</ele><time>2026-04-21T02:44:18.000Z</time></trkpt>
   <trkpt lat="59.0224554503" lon="29.9559967894"><ele>80.709</ele><time>2026-04-21T02:44:19.000Z</time></trkpt>
   <trkpt lat="59.022375487" lon="29.9558879923"><ele>80.839</ele><time>2026-04-21T02:44:20.000Z</time></trkpt>
   <trkpt lat="59.022299044" lon="29.9557608389"><ele>81.059</ele><time>2026-04-21T02:44:21.000Z</time></trkpt>
   <trkpt lat="59.022226792" lon="29.9556234595"><ele>81.389</ele><time>2026-04-21T02:44:22.000Z</time></trkpt>
   <trkpt lat="59.0221594853" lon="29.9554818053"><ele>81.729</ele><time>2026-04-21T02:44:23.000Z</time></trkpt>
   <trkpt lat="59.0221014826" lon="29.9553225492"><ele>82.329</ele><time>2026-04-21T02:44:24.000Z</time></trkpt>
   <trkpt lat="59.0220529513" lon="29.9551619519"><ele>82.109</ele><time>2026-04-21T02:44:25.000Z</time></trkpt>
   <trkpt lat="59.0220425578" lon="29.9549730238"><ele>82.059</ele><time>2026-04-21T02:44:26.000Z</time></trkpt>
   <trkpt lat="59.0220469164" lon="29.954776552"><ele>82.239</ele><time>2026-04-21T02:44:27.000Z</time></trkpt>
   <trkpt lat="59.0220862275" lon="29.9545875401"><ele>82.639</ele><time>2026-04-21T02:44:28.000Z</time></trkpt>
   <trkpt lat="59.0221371895" lon="29.954417136"><ele>83.309</ele><time>2026-04-21T02:44:29.000Z</time></trkpt>
   <trkpt lat="59.0222061725" lon="29.9542603106"><ele>83.499</ele><time>2026-04-21T02:44:30.000Z</time></trkpt>
   <trkpt lat="59.022289321" lon="29.9541049101"><ele>83.929</ele><time>2026-04-21T02:44:31.000Z</time></trkpt>
   <trkpt lat="59.0223857129" lon="29.9539694585"><ele>84.249</ele><time>2026-04-21T02:44:32.000Z</time></trkpt>
   <trkpt lat="59.0224900676" lon="29.9538339231"><ele>84.629</ele><time>2026-04-21T02:44:33.000Z</time></trkpt>
   <trkpt lat="59.0237590877" lon="29.9521240987"><ele>86.279</ele><time>2026-04-21T02:44:45.000Z</time></trkpt>
   <trkpt lat="59.0252349732" lon="29.9498302233"><ele>86.229</ele><time>2026-04-21T02:44:56.000Z</time></trkpt>
   <trkpt lat="59.026740866" lon="29.946895719"><ele>82.579</ele><time>2026-04-21T02:45:07.000Z</time></trkpt>
   <trkpt lat="59.0295398349" lon="29.9412652593"><ele>79.179</ele><time>2026-04-21T02:45:25.000Z</time></trkpt>
   <trkpt lat="59.0315269327" lon="29.9383775261"><ele>79.709</ele><time>2026-04-21T02:45:36.000Z</time></trkpt>
   <trkpt lat="59.0339113327" lon="29.9360785377"><ele>80.769</ele><time>2026-04-21T02:45:48.000Z</time></trkpt>
   <trkpt lat="59.0364509655" lon="29.9346725572"><ele>81.259</ele><time>2026-04-21T02:46:00.000Z</time></trkpt>
   <trkpt lat="59.0418634119" lon="29.9321154062"><ele>80.499</ele><time>2026-04-21T02:46:26.000Z</time></trkpt>
   <trkpt lat="59.0473563245" lon="29.9295237217"><ele>79.809</ele><time>2026-04-21T02:46:52.000Z</time></trkpt>
   <trkpt lat="59.0526036473" lon="29.926993309"><ele>80.129</ele><time>2026-04-21T02:47:17.000Z</time></trkpt>
   <trkpt lat="59.0556882715" lon="29.9255359475"><ele>80.949</ele><time>2026-04-21T02:47:30.000Z</time></trkpt>
   <trkpt lat="59.0600340368" lon="29.923545916"><ele>82.229</ele><time>2026-04-21T02:47:47.000Z</time></trkpt>
   <trkpt lat="59.0675638357" lon="29.9199867085"><ele>85.749</ele><time>2026-04-21T02:48:16.000Z</time></trkpt>
   <trkpt lat="59.0700911472" lon="29.9191878293"><ele>87.169</ele><time>2026-04-21T02:48:26.000Z</time></trkpt>
   <trkpt lat="59.0750086421" lon="29.9187787086"><ele>85.539</ele><time>2026-04-21T02:48:45.000Z</time></trkpt>
   <trkpt lat="59.0804594776" lon="29.9183182907"><ele>83.919</ele><time>2026-04-21T02:49:05.000Z</time></trkpt>
   <trkpt lat="59.0854416808" lon="29.9178851139"><ele>83.889</ele><time>2026-04-21T02:49:24.000Z</time></trkpt>
   <trkpt lat="59.0890951848" lon="29.9178370018"><ele>83.099</ele><time>2026-04-21T02:49:39.000Z</time></trkpt>
   <trkpt lat="59.0920678267" lon="29.9174286355"><ele>82.209</ele><time>2026-04-21T02:49:52.000Z</time></trkpt>
   <trkpt lat="59.0931352621" lon="29.9173078522"><ele>83.049</ele><time>2026-04-21T02:49:59.000Z</time></trkpt>
   <trkpt lat="59.0932107831" lon="29.9173277173"><ele>83.069</ele><time>2026-04-21T02:50:00.000Z</time></trkpt>
   <trkpt lat="59.0932616612" lon="29.9173853848"><ele>82.839</ele><time>2026-04-21T02:50:01.000Z</time></trkpt>
   <trkpt lat="59.0932945183" lon="29.9174743168"><ele>82.589</ele><time>2026-04-21T02:50:02.000Z</time></trkpt>
   <trkpt lat="59.0933124555" lon="29.9175818566"><ele>81.929</ele><time>2026-04-21T02:50:03.000Z</time></trkpt>
   <trkpt lat="59.0933258666" lon="29.9177051544"><ele>81.859</ele><time>2026-04-21T02:50:04.000Z</time></trkpt>
   <trkpt lat="59.0933450611" lon="29.9178416956"><ele>81.809</ele><time>2026-04-21T02:50:05.000Z</time></trkpt>
   <trkpt lat="59.0933719671" lon="29.9179932405"><ele>81.749</ele><time>2026-04-21T02:50:06.000Z</time></trkpt>
   <trkpt lat="59.0934057461" lon="29.9181549274"><ele>82.049</ele><time>2026-04-21T02:50:07.000Z</time></trkpt>
   <trkpt lat="59.0934420398" lon="29.9183182907"><ele>82.139</ele><time>2026-04-21T02:50:08.000Z</time></trkpt>
   <trkpt lat="59.0939450378" lon="29.9202695139"><ele>83.529</ele><time>2026-04-21T02:50:18.000Z</time></trkpt>
   <trkpt lat="59.0945849123" lon="29.9226151895"><ele>83.769</ele><time>2026-04-21T02:50:28.000Z</time></trkpt>
   <trkpt lat="59.0951242877" lon="29.9246383295"><ele>84.149</ele><time>2026-04-21T02:50:37.000Z</time></trkpt>
   <trkpt lat="59.0956445525" lon="29.9267035466"><ele>84.129</ele><time>2026-04-21T02:50:50.000Z</time></trkpt>
   <trkpt lat="59.0962633884" lon="29.928997422"><ele>84.479</ele><time>2026-04-21T02:51:08.000Z</time></trkpt>
   <trkpt lat="59.0967115687" lon="29.930638431"><ele>84.889</ele><time>2026-04-21T02:51:21.000Z</time></trkpt>
   <trkpt lat="59.0970429892" lon="29.9319686391"><ele>84.979</ele><time>2026-04-21T02:51:30.000Z</time></trkpt>
   <trkpt lat="59.0970557297" lon="29.9321157415"><ele>85.089</ele><time>2026-04-21T02:51:31.000Z</time></trkpt>
   <trkpt lat="59.0970590824" lon="29.9322630953"><ele>84.909</ele><time>2026-04-21T02:51:32.000Z</time></trkpt>
   <trkpt lat="59.0970554782" lon="29.9324091919"><ele>84.919</ele><time>2026-04-21T02:51:33.000Z</time></trkpt>
   <trkpt lat="59.097045839" lon="29.9325515166"><ele>84.829</ele><time>2026-04-21T02:51:34.000Z</time></trkpt>
   <trkpt lat="59.0970309193" lon="29.9326883931"><ele>84.869</ele><time>2026-04-21T02:51:35.000Z</time></trkpt>
   <trkpt lat="59.0970191846" lon="29.9328225874"><ele>84.829</ele><time>2026-04-21T02:51:36.000Z</time></trkpt>
   <trkpt lat="59.0968057813" lon="29.934979754"><ele>85.199</ele><time>2026-04-21T02:51:51.000Z</time></trkpt>
   <trkpt lat="59.0966207927" lon="29.9369072564"><ele>85.989</ele><time>2026-04-21T02:52:04.000Z</time></trkpt>
   <trkpt lat="59.096369168" lon="29.9393524252"><ele>86.479</ele><time>2026-04-21T02:52:18.000Z</time></trkpt>
   <trkpt lat="59.0962127617" lon="29.9411279638"><ele>86.249</ele><time>2026-04-21T02:52:30.000Z</time></trkpt>
   <trkpt lat="59.0959955866" lon="29.9434590549"><ele>86.979</ele><time>2026-04-21T02:52:49.000Z</time></trkpt>
   <trkpt lat="59.0958265236" lon="29.9451061827"><ele>87.229</ele><time>2026-04-21T02:53:05.000Z</time></trkpt>
   <trkpt lat="59.0957294611" lon="29.9466117401"><ele>87.569</ele><time>2026-04-21T02:53:18.000Z</time></trkpt>
   <trkpt lat="59.095521087" lon="29.9489215412"><ele>87.139</ele><time>2026-04-21T02:53:34.000Z</time></trkpt>
   <trkpt lat="59.0953206757" lon="29.9511271552"><ele>87.239</ele><time>2026-04-21T02:53:52.000Z</time></trkpt>
   <trkpt lat="59.0950896705" lon="29.9536465876"><ele>86.739</ele><time>2026-04-21T02:54:13.000Z</time></trkpt>
   <trkpt lat="59.0948081223" lon="29.9565048166"><ele>85.799</ele><time>2026-04-21T02:54:34.000Z</time></trkpt>
   <trkpt lat="59.0945997482" lon="29.958826017"><ele>85.389</ele><time>2026-04-21T02:54:52.000Z</time></trkpt>
   <trkpt lat="59.0944107363" lon="29.9608136177"><ele>85.529</ele><time>2026-04-21T02:55:09.000Z</time></trkpt>
   <trkpt lat="59.0941939803" lon="29.9634019494"><ele>85.039</ele><time>2026-04-21T02:55:27.000Z</time></trkpt>
   <trkpt lat="59.0939426908" lon="29.9661936261"><ele>83.779</ele><time>2026-04-21T02:55:48.000Z</time></trkpt>
   <trkpt lat="59.0937362446" lon="29.9684205301"><ele>82.669</ele><time>2026-04-21T02:56:10.000Z</time></trkpt>
   <trkpt lat="59.0936067442" lon="29.9700242397"><ele>82.539</ele><time>2026-04-21T02:56:27.000Z</time></trkpt>
   <trkpt lat="59.0934207497" lon="29.972059282"><ele>82.549</ele><time>2026-04-21T02:56:50.000Z</time></trkpt>
   <trkpt lat="59.0933174847" lon="29.9733793479"><ele>81.889</ele><time>2026-04-21T02:57:05.000Z</time></trkpt>
   <trkpt lat="59.0931763334" lon="29.9749417346"><ele>81.659</ele><time>2026-04-21T02:57:22.000Z</time></trkpt>
   <trkpt lat="59.0931413809" lon="29.9759307154"><ele>80.949</ele><time>2026-04-21T02:57:34.000Z</time></trkpt>
   <trkpt lat="59.0931437278" lon="29.9759160471"><ele>80.559</ele><time>2026-04-21T02:57:47.000Z</time></trkpt>
   <trkpt lat="59.0931341725" lon="29.9758303002"><ele>80.419</ele><time>2026-04-21T02:57:57.000Z</time></trkpt>
   <trkpt lat="59.0931200909" lon="29.9758393526"><ele>80.609</ele><time>2026-04-21T02:57:58.000Z</time></trkpt>
   <trkpt lat="59.0931042491" lon="29.9758395203"><ele>80.439</ele><time>2026-04-21T02:57:59.000Z</time></trkpt>
   <trkpt lat="59.093082037" lon="29.9758388497"><ele>80.639</ele><time>2026-04-21T02:58:00.000Z</time></trkpt>
   <trkpt lat="59.0930469169" lon="29.9758317251"><ele>80.459</ele><time>2026-04-21T02:58:01.000Z</time></trkpt>
   <trkpt lat="59.092395643" lon="29.9758098483"><ele>80.319</ele><time>2026-04-21T02:58:14.000Z</time></trkpt>
   <trkpt lat="59.0912226794" lon="29.9760092538"><ele>81.449</ele><time>2026-04-21T02:58:32.000Z</time></trkpt>
   <trkpt lat="59.090701828" lon="29.9761113454"><ele>82.059</ele><time>2026-04-21T02:58:42.000Z</time></trkpt>
   <trkpt lat="59.0898728578" lon="29.976247719"><ele>83.099</ele><time>2026-04-21T02:58:56.000Z</time></trkpt>
   <trkpt lat="59.0895094184" lon="29.9762918078"><ele>82.919</ele><time>2026-04-21T02:59:05.000Z</time></trkpt>
   <trkpt lat="59.0895007851" lon="29.9763223179"><ele>83.159</ele><time>2026-04-21T02:59:06.000Z</time></trkpt>
   <trkpt lat="59.0895007851" lon="29.9763465416"><ele>83.299</ele><time>2026-04-21T02:59:07.000Z</time></trkpt>
   <trkpt lat="59.0895133579" lon="29.9762974237"><ele>83.039</ele><time>2026-04-21T02:59:19.000Z</time></trkpt>
   <trkpt lat="59.0895069877" lon="29.9762412649"><ele>82.589</ele><time>2026-04-21T02:59:37.000Z</time></trkpt>
   <trkpt lat="59.0895322172" lon="29.9762306199"><ele>81.889</ele><time>2026-04-21T02:59:52.000Z</time></trkpt>
   <trkpt lat="59.0895309599" lon="29.9762174603"><ele>82.429</ele><time>2026-04-21T03:00:02.000Z</time></trkpt>
   <trkpt lat="59.0895287806" lon="29.9761969246"><ele>81.489</ele><time>2026-04-21T03:00:54.000Z</time></trkpt>
   <trkpt lat="59.0895344803" lon="29.9762081564"><ele>80.349</ele><time>2026-04-21T03:01:20.000Z</time></trkpt>
   <trkpt lat="59.0895234162" lon="29.9762460426"><ele>80.339</ele><time>2026-04-21T03:01:22.000Z</time></trkpt>
   <trkpt lat="59.0894743821" lon="29.9762428575"><ele>80.539</ele><time>2026-04-21T03:01:27.000Z</time></trkpt>
   <trkpt lat="59.0894733763" lon="29.9762811628"><ele>80.179</ele><time>2026-04-21T03:01:42.000Z</time></trkpt>
   <trkpt lat="59.0894870388" lon="29.9762571067"><ele>81.119</ele><time>2026-04-21T03:02:20.000Z</time></trkpt>
   <trkpt lat="59.0894869549" lon="29.9762959987"><ele>80.879</ele><time>2026-04-21T03:03:05.000Z</time></trkpt>
   <trkpt lat="59.0894655811" lon="29.9763162829"><ele>81.189</ele><time>2026-04-21T03:03:55.000Z</time></trkpt>
  </trkseg>
 </trk>
</gpx>